﻿<?xml version="1.0" encoding="utf-8"?><gpx creator="Garmin Desktop App" version="1.1" xsi:schemaLocation="http://www.topografix.com/GPX/1/1 http://www.topografix.com/GPX/1/1/gpx.xsd http://www.garmin.com/xmlschemas/WaypointExtension/v1 http://www8.garmin.com/xmlschemas/WaypointExtensionv1.xsd http://www.garmin.com/xmlschemas/TrackPointExtension/v1 http://www.garmin.com/xmlschemas/TrackPointExtensionv1.xsd http://www.garmin.com/xmlschemas/GpxExtensions/v3 http://www8.garmin.com/xmlschemas/GpxExtensionsv3.xsd http://www.garmin.com/xmlschemas/ActivityExtension/v1 http://www8.garmin.com/xmlschemas/ActivityExtensionv1.xsd http://www.garmin.com/xmlschemas/AdventuresExtensions/v1 http://www8.garmin.com/xmlschemas/AdventuresExtensionv1.xsd http://www.garmin.com/xmlschemas/PressureExtension/v1 http://www.garmin.com/xmlschemas/PressureExtensionv1.xsd http://www.garmin.com/xmlschemas/TripExtensions/v1 http://www.garmin.com/xmlschemas/TripExtensionsv1.xsd http://www.garmin.com/xmlschemas/TripMetaDataExtensions/v1 http://www.garmin.com/xmlschemas/TripMetaDataExtensionsv1.xsd http://www.garmin.com/xmlschemas/ViaPointTransportationModeExtensions/v1 http://www.garmin.com/xmlschemas/ViaPointTransportationModeExtensionsv1.xsd http://www.garmin.com/xmlschemas/CreationTimeExtension/v1 http://www.garmin.com/xmlschemas/CreationTimeExtensionsv1.xsd http://www.garmin.com/xmlschemas/AccelerationExtension/v1 http://www.garmin.com/xmlschemas/AccelerationExtensionv1.xsd http://www.garmin.com/xmlschemas/PowerExtension/v1 http://www.garmin.com/xmlschemas/PowerExtensionv1.xsd http://www.garmin.com/xmlschemas/VideoExtension/v1 http://www.garmin.com/xmlschemas/VideoExtensionv1.xsd" xmlns="http://www.topografix.com/GPX/1/1" xmlns:xsi="http://www.w3.org/2001/XMLSchema-instance" xmlns:wptx1="http://www.garmin.com/xmlschemas/WaypointExtension/v1" xmlns:gpxtrx="http://www.garmin.com/xmlschemas/GpxExtensions/v3" xmlns:gpxtpx="http://www.garmin.com/xmlschemas/TrackPointExtension/v1" xmlns:gpxx="http://www.garmin.com/xmlschemas/GpxExtensions/v3" xmlns:trp="http://www.garmin.com/xmlschemas/TripExtensions/v1" xmlns:adv="http://www.garmin.com/xmlschemas/AdventuresExtensions/v1" xmlns:prs="http://www.garmin.com/xmlschemas/PressureExtension/v1" xmlns:tmd="http://www.garmin.com/xmlschemas/TripMetaDataExtensions/v1" xmlns:vptm="http://www.garmin.com/xmlschemas/ViaPointTransportationModeExtensions/v1" xmlns:ctx="http://www.garmin.com/xmlschemas/CreationTimeExtension/v1" xmlns:gpxacc="http://www.garmin.com/xmlschemas/AccelerationExtension/v1" xmlns:gpxpx="http://www.garmin.com/xmlschemas/PowerExtension/v1" xmlns:vidx1="http://www.garmin.com/xmlschemas/VideoExtension/v1">

  <metadata>
    <link href="http://www.garmin.com">
      <text>Garmin International</text>
    </link>
    <time>2021-01-16T18:39:17Z</time>
    <bounds maxlat="46.494622165337205" maxlon="9.219884779304266" minlat="46.462044725194573" minlon="9.189658043906093" />
  </metadata>

  <trk>
    <name>motta-de-caslasc2020-01-01</name>
    <extensions>
      <gpxx:TrackExtension>
        <gpxx:DisplayColor>Yellow</gpxx:DisplayColor>
      </gpxx:TrackExtension>
      <gpxtrkx:TrackStatsExtension xmlns:gpxtrkx="http://www.garmin.com/xmlschemas/TrackStatsExtension/v1">
        <gpxtrkx:Distance>10975</gpxtrkx:Distance>
        <gpxtrkx:TotalElapsedTime>22415</gpxtrkx:TotalElapsedTime>
        <gpxtrkx:MovingTime>14673</gpxtrkx:MovingTime>
        <gpxtrkx:StoppedTime>7711</gpxtrkx:StoppedTime>
        <gpxtrkx:MovingSpeed>1</gpxtrkx:MovingSpeed>
        <gpxtrkx:MaxSpeed>3</gpxtrkx:MaxSpeed>
        <gpxtrkx:MaxElevation>2295</gpxtrkx:MaxElevation>
        <gpxtrkx:MinElevation>1606</gpxtrkx:MinElevation>
        <gpxtrkx:Ascent>792</gpxtrkx:Ascent>
        <gpxtrkx:Descent>785</gpxtrkx:Descent>
        <gpxtrkx:AvgAscentRate>0</gpxtrkx:AvgAscentRate>
        <gpxtrkx:MaxAscentRate>0</gpxtrkx:MaxAscentRate>
        <gpxtrkx:AvgDescentRate>0</gpxtrkx:AvgDescentRate>
        <gpxtrkx:MaxDescentRate>-0</gpxtrkx:MaxDescentRate>
      </gpxtrkx:TrackStatsExtension>
    </extensions>
    <trkseg>
      <trkpt lat="46.462044725194573" lon="9.189658043906093">
        <ele>1613.1600000000001</ele>
        <time>2020-01-01T09:00:44Z</time>
      </trkpt>
      <trkpt lat="46.462046485394239" lon="9.189660726115108">
        <ele>1613.1600000000001</ele>
        <time>2020-01-01T09:00:45Z</time>
      </trkpt>
      <trkpt lat="46.46218772046268" lon="9.189715208485723">
        <ele>1613</ele>
        <time>2020-01-01T09:01:04Z</time>
      </trkpt>
      <trkpt lat="46.462225103750825" lon="9.189730128273368">
        <ele>1612.99</ele>
        <time>2020-01-01T09:01:30Z</time>
      </trkpt>
      <trkpt lat="46.462285621091723" lon="9.189869686961174">
        <ele>1612.97</ele>
        <time>2020-01-01T09:01:47Z</time>
      </trkpt>
      <trkpt lat="46.46227614954114" lon="9.189871614798904">
        <ele>1612.95</ele>
        <time>2020-01-01T09:02:06Z</time>
      </trkpt>
      <trkpt lat="46.462329793721437" lon="9.190047550946474">
        <ele>1612.97</ele>
        <time>2020-01-01T09:02:28Z</time>
      </trkpt>
      <trkpt lat="46.46232208237052" lon="9.19002827256918">
        <ele>1610.97</ele>
        <time>2020-01-01T09:02:30Z</time>
      </trkpt>
      <trkpt lat="46.462321411818266" lon="9.189951661974192">
        <ele>1610.97</ele>
        <time>2020-01-01T09:02:55Z</time>
      </trkpt>
      <trkpt lat="46.462343791499734" lon="9.189968509599567">
        <ele>1612.8800000000001</ele>
        <time>2020-01-01T09:03:03Z</time>
      </trkpt>
      <trkpt lat="46.462425095960498" lon="9.190003545954824">
        <ele>1613.1500000000001</ele>
        <time>2020-01-01T09:03:18Z</time>
      </trkpt>
      <trkpt lat="46.462475135922432" lon="9.190033134073019">
        <ele>1613.1099999999999</ele>
        <time>2020-01-01T09:03:24Z</time>
      </trkpt>
      <trkpt lat="46.462504137307405" lon="9.190056435763836">
        <ele>1612.75</ele>
        <time>2020-01-01T09:03:27Z</time>
      </trkpt>
      <trkpt lat="46.462511010468006" lon="9.190065488219261">
        <ele>1612.6500000000001</ele>
        <time>2020-01-01T09:03:28Z</time>
      </trkpt>
      <trkpt lat="46.462538670748472" lon="9.19011477380991">
        <ele>1612.5999999999999</ele>
        <time>2020-01-01T09:03:34Z</time>
      </trkpt>
      <trkpt lat="46.462547304108739" lon="9.190125418826938">
        <ele>1612.5799999999999</ele>
        <time>2020-01-01T09:03:35Z</time>
      </trkpt>
      <trkpt lat="46.462555853649974" lon="9.190135560929775">
        <ele>1612.5599999999999</ele>
        <time>2020-01-01T09:03:36Z</time>
      </trkpt>
      <trkpt lat="46.462565241381526" lon="9.190144781023264">
        <ele>1612.6199999999999</ele>
        <time>2020-01-01T09:03:37Z</time>
      </trkpt>
      <trkpt lat="46.462574880570173" lon="9.190152995288372">
        <ele>1612.6199999999999</ele>
        <time>2020-01-01T09:03:38Z</time>
      </trkpt>
      <trkpt lat="46.462763892486691" lon="9.190234635025263">
        <ele>1612.1199999999999</ele>
        <time>2020-01-01T09:03:57Z</time>
      </trkpt>
      <trkpt lat="46.462987437844276" lon="9.190443512052298">
        <ele>1610.22</ele>
        <time>2020-01-01T09:04:21Z</time>
      </trkpt>
      <trkpt lat="46.463014427572489" lon="9.1904969047755">
        <ele>1609.77</ele>
        <time>2020-01-01T09:04:25Z</time>
      </trkpt>
      <trkpt lat="46.463020127266645" lon="9.190510902553797">
        <ele>1609.6500000000001</ele>
        <time>2020-01-01T09:04:26Z</time>
      </trkpt>
      <trkpt lat="46.463158428668976" lon="9.190816003829241">
        <ele>1608.3900000000001</ele>
        <time>2020-01-01T09:04:48Z</time>
      </trkpt>
      <trkpt lat="46.463191453367472" lon="9.190969727933407">
        <ele>1607.76</ele>
        <time>2020-01-01T09:04:58Z</time>
      </trkpt>
      <trkpt lat="46.463203774765134" lon="9.190979031845927">
        <ele>1607.6199999999999</ele>
        <time>2020-01-01T09:04:59Z</time>
      </trkpt>
      <trkpt lat="46.463215425610542" lon="9.190989090129733">
        <ele>1607.5999999999999</ele>
        <time>2020-01-01T09:05:00Z</time>
      </trkpt>
      <trkpt lat="46.463222717866302" lon="9.190992191433907">
        <ele>1607.5799999999999</ele>
        <time>2020-01-01T09:05:01Z</time>
      </trkpt>
      <trkpt lat="46.463231267407537" lon="9.191007446497679">
        <ele>1607.49</ele>
        <time>2020-01-01T09:05:02Z</time>
      </trkpt>
      <trkpt lat="46.463240822777152" lon="9.191027395427227">
        <ele>1607.47</ele>
        <time>2020-01-01T09:05:04Z</time>
      </trkpt>
      <trkpt lat="46.463182987645268" lon="9.191277595236898">
        <ele>1606.5</ele>
        <time>2020-01-01T09:05:22Z</time>
      </trkpt>
      <trkpt lat="46.463186172768474" lon="9.191346494480968">
        <ele>1606.4400000000001</ele>
        <time>2020-01-01T09:05:37Z</time>
      </trkpt>
      <trkpt lat="46.463191453367472" lon="9.191359989345074">
        <ele>1606.4400000000001</ele>
        <time>2020-01-01T09:05:38Z</time>
      </trkpt>
      <trkpt lat="46.463197907432914" lon="9.191372143104672">
        <ele>1606.25</ele>
        <time>2020-01-01T09:05:39Z</time>
      </trkpt>
      <trkpt lat="46.463206373155117" lon="9.191383374854922">
        <ele>1606.1199999999999</ele>
        <time>2020-01-01T09:05:40Z</time>
      </trkpt>
      <trkpt lat="46.463215006515384" lon="9.191395696252585">
        <ele>1605.9300000000001</ele>
        <time>2020-01-01T09:05:41Z</time>
      </trkpt>
      <trkpt lat="46.463222717866302" lon="9.191409777849913">
        <ele>1605.6199999999999</ele>
        <time>2020-01-01T09:05:42Z</time>
      </trkpt>
      <trkpt lat="46.463352721184492" lon="9.191538104787469">
        <ele>1606.23</ele>
        <time>2020-01-01T09:05:57Z</time>
      </trkpt>
      <trkpt lat="46.463546929880977" lon="9.191658049821854">
        <ele>1607.4400000000001</ele>
        <time>2020-01-01T09:06:17Z</time>
      </trkpt>
      <trkpt lat="46.463705766946077" lon="9.191805319860578">
        <ele>1607.6099999999999</ele>
        <time>2020-01-01T09:06:37Z</time>
      </trkpt>
      <trkpt lat="46.463815988972783" lon="9.191869357600808">
        <ele>1608.3499999999999</ele>
        <time>2020-01-01T09:06:47Z</time>
      </trkpt>
      <trkpt lat="46.46382512524724" lon="9.19188117608428">
        <ele>1608.49</ele>
        <time>2020-01-01T09:06:48Z</time>
      </trkpt>
      <trkpt lat="46.463879439979792" lon="9.191927947103977">
        <ele>1608.78</ele>
        <time>2020-01-01T09:06:53Z</time>
      </trkpt>
      <trkpt lat="46.463889079168439" lon="9.191931132227182">
        <ele>1608.75</ele>
        <time>2020-01-01T09:06:54Z</time>
      </trkpt>
      <trkpt lat="46.464054621756077" lon="9.192042527720332">
        <ele>1610.02</ele>
        <time>2020-01-01T09:07:11Z</time>
      </trkpt>
      <trkpt lat="46.464116899296641" lon="9.192128945142031">
        <ele>1610.47</ele>
        <time>2020-01-01T09:07:25Z</time>
      </trkpt>
      <trkpt lat="46.464194767177105" lon="9.192171022295952">
        <ele>1610.98</ele>
        <time>2020-01-01T09:07:52Z</time>
      </trkpt>
      <trkpt lat="46.464205160737038" lon="9.192173201590776">
        <ele>1611.03</ele>
        <time>2020-01-01T09:07:53Z</time>
      </trkpt>
      <trkpt lat="46.464380342513323" lon="9.192205304279923">
        <ele>1611.3299999999999</ele>
        <time>2020-01-01T09:08:10Z</time>
      </trkpt>
      <trkpt lat="46.46457857452333" lon="9.192290799692273">
        <ele>1612.25</ele>
        <time>2020-01-01T09:08:31Z</time>
      </trkpt>
      <trkpt lat="46.464651832357049" lon="9.192381743341684">
        <ele>1613.3399999999999</ele>
        <time>2020-01-01T09:08:45Z</time>
      </trkpt>
      <trkpt lat="46.464634397998452" lon="9.192375289276242">
        <ele>1612.8699999999999</ele>
        <time>2020-01-01T09:09:06Z</time>
      </trkpt>
      <trkpt lat="46.464632386341691" lon="9.192385263741016">
        <ele>1613.26</ele>
        <time>2020-01-01T09:09:35Z</time>
      </trkpt>
      <trkpt lat="46.464704973623157" lon="9.192491378635168">
        <ele>1613.55</ele>
        <time>2020-01-01T09:09:48Z</time>
      </trkpt>
      <trkpt lat="46.464879233390093" lon="9.192680809646845">
        <ele>1614.0799999999999</ele>
        <time>2020-01-01T09:10:10Z</time>
      </trkpt>
      <trkpt lat="46.465001022443175" lon="9.192785499617457">
        <ele>1615.1099999999999</ele>
        <time>2020-01-01T09:10:28Z</time>
      </trkpt>
      <trkpt lat="46.465040165930986" lon="9.192717103287578">
        <ele>1615.29</ele>
        <time>2020-01-01T09:10:36Z</time>
      </trkpt>
      <trkpt lat="46.465149968862534" lon="9.192696316167712">
        <ele>1616.0899999999999</ele>
        <time>2020-01-01T09:10:50Z</time>
      </trkpt>
      <trkpt lat="46.465220041573048" lon="9.192617861554027">
        <ele>1619.4200000000001</ele>
        <time>2020-01-01T09:11:07Z</time>
      </trkpt>
      <trkpt lat="46.465328587219119" lon="9.192597828805447">
        <ele>1621.8599999999999</ele>
        <time>2020-01-01T09:11:25Z</time>
      </trkpt>
      <trkpt lat="46.465407209470868" lon="9.192650048062205">
        <ele>1625.04</ele>
        <time>2020-01-01T09:11:42Z</time>
      </trkpt>
      <trkpt lat="46.465475102886558" lon="9.192730179056525">
        <ele>1628.1900000000001</ele>
        <time>2020-01-01T09:11:58Z</time>
      </trkpt>
      <trkpt lat="46.46553436294198" lon="9.192834030836821">
        <ele>1630.6400000000001</ele>
        <time>2020-01-01T09:12:17Z</time>
      </trkpt>
      <trkpt lat="46.465611895546317" lon="9.192832605913281">
        <ele>1633.6900000000001</ele>
        <time>2020-01-01T09:12:34Z</time>
      </trkpt>
      <trkpt lat="46.4656369574368" lon="9.192781476303935">
        <ele>1632.46</ele>
        <time>2020-01-01T09:12:54Z</time>
      </trkpt>
      <trkpt lat="46.465620864182711" lon="9.192805113270879">
        <ele>1632.51</ele>
        <time>2020-01-01T09:13:20Z</time>
      </trkpt>
      <trkpt lat="46.465620025992393" lon="9.192820871248841">
        <ele>1632.74</ele>
        <time>2020-01-01T09:13:46Z</time>
      </trkpt>
      <trkpt lat="46.465612817555666" lon="9.19278365559876">
        <ele>1632.9300000000001</ele>
        <time>2020-01-01T09:14:28Z</time>
      </trkpt>
      <trkpt lat="46.465654391795397" lon="9.192861942574382">
        <ele>1632.9000000000001</ele>
        <time>2020-01-01T09:15:06Z</time>
      </trkpt>
      <trkpt lat="46.465630503371358" lon="9.192859763279557">
        <ele>1634.0599999999999</ele>
        <time>2020-01-01T09:15:31Z</time>
      </trkpt>
      <trkpt lat="46.465609380975366" lon="9.192837802693248">
        <ele>1634</ele>
        <time>2020-01-01T09:15:50Z</time>
      </trkpt>
      <trkpt lat="46.465591359883547" lon="9.192813746631146">
        <ele>1634.02</ele>
        <time>2020-01-01T09:16:11Z</time>
      </trkpt>
      <trkpt lat="46.465619271621108" lon="9.19281056150794">
        <ele>1634.28</ele>
        <time>2020-01-01T09:16:35Z</time>
      </trkpt>
      <trkpt lat="46.465629246085882" lon="9.192835204303265">
        <ele>1634.6300000000001</ele>
        <time>2020-01-01T09:17:05Z</time>
      </trkpt>
      <trkpt lat="46.465639304369688" lon="9.192876359447837">
        <ele>1635.0999999999999</ele>
        <time>2020-01-01T09:17:32Z</time>
      </trkpt>
      <trkpt lat="46.46575422026217" lon="9.192867809906602">
        <ele>1638</ele>
        <time>2020-01-01T09:17:51Z</time>
      </trkpt>
      <trkpt lat="46.465782634913921" lon="9.192951964214444">
        <ele>1638.03</ele>
        <time>2020-01-01T09:18:14Z</time>
      </trkpt>
      <trkpt lat="46.465786155313253" lon="9.192964034155011">
        <ele>1638.0799999999999</ele>
        <time>2020-01-01T09:18:48Z</time>
      </trkpt>
      <trkpt lat="46.46581239067018" lon="9.192967135459185">
        <ele>1638</ele>
        <time>2020-01-01T09:19:22Z</time>
      </trkpt>
      <trkpt lat="46.465886067599058" lon="9.192978199571371">
        <ele>1639.6600000000001</ele>
        <time>2020-01-01T09:19:51Z</time>
      </trkpt>
      <trkpt lat="46.465905848890543" lon="9.193024719133973">
        <ele>1642.8900000000001</ele>
        <time>2020-01-01T09:20:10Z</time>
      </trkpt>
      <trkpt lat="46.465958319604397" lon="9.193041315302253">
        <ele>1645.98</ele>
        <time>2020-01-01T09:20:28Z</time>
      </trkpt>
      <trkpt lat="46.465942310169339" lon="9.193127984181047">
        <ele>1647.6500000000001</ele>
        <time>2020-01-01T09:20:44Z</time>
      </trkpt>
      <trkpt lat="46.465971227735281" lon="9.193147933110595">
        <ele>1649.75</ele>
        <time>2020-01-01T09:21:00Z</time>
      </trkpt>
      <trkpt lat="46.465953039005399" lon="9.193243654444814">
        <ele>1652.3299999999999</ele>
        <time>2020-01-01T09:21:18Z</time>
      </trkpt>
      <trkpt lat="46.466025374829769" lon="9.193264106288552">
        <ele>1654.3</ele>
        <time>2020-01-01T09:21:35Z</time>
      </trkpt>
      <trkpt lat="46.466078264638782" lon="9.193307021632791">
        <ele>1657.04</ele>
        <time>2020-01-01T09:21:53Z</time>
      </trkpt>
      <trkpt lat="46.466176500543952" lon="9.193337112665176">
        <ele>1659.1700000000001</ele>
        <time>2020-01-01T09:22:12Z</time>
      </trkpt>
      <trkpt lat="46.466265851631761" lon="9.193297885358334">
        <ele>1662.1900000000001</ele>
        <time>2020-01-01T09:22:32Z</time>
      </trkpt>
      <trkpt lat="46.46638504229486" lon="9.193274416029453">
        <ele>1664.1500000000001</ele>
        <time>2020-01-01T09:22:53Z</time>
      </trkpt>
      <trkpt lat="46.466511189937592" lon="9.193271985277534">
        <ele>1666.8599999999999</ele>
        <time>2020-01-01T09:23:13Z</time>
      </trkpt>
      <trkpt lat="46.4666748046875" lon="9.193260837346315">
        <ele>1667.8199999999999</ele>
        <time>2020-01-01T09:23:36Z</time>
      </trkpt>
      <trkpt lat="46.466813441365957" lon="9.193217167630792">
        <ele>1669.2</ele>
        <time>2020-01-01T09:23:56Z</time>
      </trkpt>
      <trkpt lat="46.4669234957546" lon="9.193237870931625">
        <ele>1670.8499999999999</ele>
        <time>2020-01-01T09:24:14Z</time>
      </trkpt>
      <trkpt lat="46.46705936640501" lon="9.193250276148319">
        <ele>1672.52</ele>
        <time>2020-01-01T09:24:37Z</time>
      </trkpt>
      <trkpt lat="46.467196410521865" lon="9.193247426301241">
        <ele>1674.6600000000001</ele>
        <time>2020-01-01T09:24:58Z</time>
      </trkpt>
      <trkpt lat="46.467312332242727" lon="9.193304004147649">
        <ele>1676.46</ele>
        <time>2020-01-01T09:25:16Z</time>
      </trkpt>
      <trkpt lat="46.467386512085795" lon="9.193292185664177">
        <ele>1678.78</ele>
        <time>2020-01-01T09:25:35Z</time>
      </trkpt>
      <trkpt lat="46.467484496533871" lon="9.193251365795732">
        <ele>1680.6199999999999</ele>
        <time>2020-01-01T09:25:55Z</time>
      </trkpt>
      <trkpt lat="46.467608967795968" lon="9.193248515948653">
        <ele>1680.6300000000001</ele>
        <time>2020-01-01T09:26:11Z</time>
      </trkpt>
      <trkpt lat="46.467705108225346" lon="9.193300819024444">
        <ele>1680.6400000000001</ele>
        <time>2020-01-01T09:26:31Z</time>
      </trkpt>
      <trkpt lat="46.467813234776258" lon="9.193261256441474">
        <ele>1683.0799999999999</ele>
        <time>2020-01-01T09:26:47Z</time>
      </trkpt>
      <trkpt lat="46.467926474288106" lon="9.193330155685544">
        <ele>1685.9000000000001</ele>
        <time>2020-01-01T09:27:07Z</time>
      </trkpt>
      <trkpt lat="46.468035606667399" lon="9.193393103778362">
        <ele>1687.45</ele>
        <time>2020-01-01T09:27:27Z</time>
      </trkpt>
      <trkpt lat="46.46813191473484" lon="9.193452866747975">
        <ele>1690.3900000000001</ele>
        <time>2020-01-01T09:27:46Z</time>
      </trkpt>
      <trkpt lat="46.468233671039343" lon="9.193542217835784">
        <ele>1691.0599999999999</ele>
        <time>2020-01-01T09:28:03Z</time>
      </trkpt>
      <trkpt lat="46.468343138694763" lon="9.193563172593713">
        <ele>1692.8800000000001</ele>
        <time>2020-01-01T09:28:22Z</time>
      </trkpt>
      <trkpt lat="46.46843877620995" lon="9.19354054145515">
        <ele>1693.6700000000001</ele>
        <time>2020-01-01T09:28:41Z</time>
      </trkpt>
      <trkpt lat="46.468524020165205" lon="9.193653529509902">
        <ele>1694.1500000000001</ele>
        <time>2020-01-01T09:29:00Z</time>
      </trkpt>
      <trkpt lat="46.46861026994884" lon="9.193780096247792">
        <ele>1694.55</ele>
        <time>2020-01-01T09:29:15Z</time>
      </trkpt>
      <trkpt lat="46.468745302408934" lon="9.193900041282177">
        <ele>1695.23</ele>
        <time>2020-01-01T09:29:34Z</time>
      </trkpt>
      <trkpt lat="46.468835407868028" lon="9.193985871970654">
        <ele>1696.79</ele>
        <time>2020-01-01T09:29:53Z</time>
      </trkpt>
      <trkpt lat="46.468898104503751" lon="9.194150911644101">
        <ele>1698.1900000000001</ele>
        <time>2020-01-01T09:30:10Z</time>
      </trkpt>
      <trkpt lat="46.468984186649323" lon="9.194246549159288">
        <ele>1700.1900000000001</ele>
        <time>2020-01-01T09:30:29Z</time>
      </trkpt>
      <trkpt lat="46.469060881063342" lon="9.194247052073479">
        <ele>1702.8800000000001</ele>
        <time>2020-01-01T09:30:48Z</time>
      </trkpt>
      <trkpt lat="46.469149058684707" lon="9.194275969639421">
        <ele>1705.03</ele>
        <time>2020-01-01T09:31:05Z</time>
      </trkpt>
      <trkpt lat="46.46927529014647" lon="9.194331038743258">
        <ele>1706.6600000000001</ele>
        <time>2020-01-01T09:31:23Z</time>
      </trkpt>
      <trkpt lat="46.469336980953813" lon="9.194411672651768">
        <ele>1708.49</ele>
        <time>2020-01-01T09:31:42Z</time>
      </trkpt>
      <trkpt lat="46.469392720609903" lon="9.194501359015703">
        <ele>1711.22</ele>
        <time>2020-01-01T09:32:00Z</time>
      </trkpt>
      <trkpt lat="46.469465559348464" lon="9.194576879963279">
        <ele>1713.4000000000001</ele>
        <time>2020-01-01T09:32:17Z</time>
      </trkpt>
      <trkpt lat="46.469496572390199" lon="9.194617867469788">
        <ele>1712.95</ele>
        <time>2020-01-01T09:32:33Z</time>
      </trkpt>
      <trkpt lat="46.46948978304863" lon="9.194640833884478">
        <ele>1713.03</ele>
        <time>2020-01-01T09:32:59Z</time>
      </trkpt>
      <trkpt lat="46.469484502449632" lon="9.194619292393327">
        <ele>1712.72</ele>
        <time>2020-01-01T09:33:24Z</time>
      </trkpt>
      <trkpt lat="46.469503864645958" lon="9.194637397304177">
        <ele>1712.79</ele>
        <time>2020-01-01T09:33:58Z</time>
      </trkpt>
      <trkpt lat="46.46952255629003" lon="9.194672182202339">
        <ele>1712.7</ele>
        <time>2020-01-01T09:34:23Z</time>
      </trkpt>
      <trkpt lat="46.46949565038085" lon="9.194637313485146">
        <ele>1713.5699999999999</ele>
        <time>2020-01-01T09:34:58Z</time>
      </trkpt>
      <trkpt lat="46.469519035890698" lon="9.194604959338903">
        <ele>1714.47</ele>
        <time>2020-01-01T09:35:16Z</time>
      </trkpt>
      <trkpt lat="46.469547031447291" lon="9.194718701764941">
        <ele>1714.3499999999999</ele>
        <time>2020-01-01T09:35:51Z</time>
      </trkpt>
      <trkpt lat="46.469563627615571" lon="9.194683078676462">
        <ele>1715.8599999999999</ele>
        <time>2020-01-01T09:36:15Z</time>
      </trkpt>
      <trkpt lat="46.469666976481676" lon="9.194737561047077">
        <ele>1718.45</ele>
        <time>2020-01-01T09:36:36Z</time>
      </trkpt>
      <trkpt lat="46.469750879332423" lon="9.194813752546907">
        <ele>1720.8499999999999</ele>
        <time>2020-01-01T09:36:55Z</time>
      </trkpt>
      <trkpt lat="46.469817515462637" lon="9.194902684539557">
        <ele>1723.8599999999999</ele>
        <time>2020-01-01T09:37:11Z</time>
      </trkpt>
      <trkpt lat="46.469883900135756" lon="9.194961441680789">
        <ele>1727.1400000000001</ele>
        <time>2020-01-01T09:37:31Z</time>
      </trkpt>
      <trkpt lat="46.469970652833581" lon="9.194956747815013">
        <ele>1730.01</ele>
        <time>2020-01-01T09:37:49Z</time>
      </trkpt>
      <trkpt lat="46.470041144639254" lon="9.194992203265429">
        <ele>1733.02</ele>
        <time>2020-01-01T09:38:10Z</time>
      </trkpt>
      <trkpt lat="46.470125215128064" lon="9.195010224357247">
        <ele>1736.02</ele>
        <time>2020-01-01T09:38:27Z</time>
      </trkpt>
      <trkpt lat="46.47019537165761" lon="9.195005865767598">
        <ele>1737.95</ele>
        <time>2020-01-01T09:38:45Z</time>
      </trkpt>
      <trkpt lat="46.470288326963782" lon="9.195038974285126">
        <ele>1739.8900000000001</ele>
        <time>2020-01-01T09:39:06Z</time>
      </trkpt>
      <trkpt lat="46.470411792397499" lon="9.195088176056743">
        <ele>1742.46</ele>
        <time>2020-01-01T09:39:25Z</time>
      </trkpt>
      <trkpt lat="46.470531485974789" lon="9.195084823295474">
        <ele>1744.96</ele>
        <time>2020-01-01T09:39:46Z</time>
      </trkpt>
      <trkpt lat="46.470539113506675" lon="9.195165876299143">
        <ele>1747.48</ele>
        <time>2020-01-01T09:40:04Z</time>
      </trkpt>
      <trkpt lat="46.470502149313688" lon="9.195261932909489">
        <ele>1749.6199999999999</ele>
        <time>2020-01-01T09:40:23Z</time>
      </trkpt>
      <trkpt lat="46.470511453226209" lon="9.19534650631249">
        <ele>1752.4000000000001</ele>
        <time>2020-01-01T09:40:44Z</time>
      </trkpt>
      <trkpt lat="46.470456132665277" lon="9.19544767588377">
        <ele>1754.6199999999999</ele>
        <time>2020-01-01T09:41:03Z</time>
      </trkpt>
      <trkpt lat="46.470425706356764" lon="9.195532081648707">
        <ele>1757</ele>
        <time>2020-01-01T09:41:23Z</time>
      </trkpt>
      <trkpt lat="46.47043626755476" lon="9.195508863776922">
        <ele>1757.1700000000001</ele>
        <time>2020-01-01T09:41:52Z</time>
      </trkpt>
      <trkpt lat="46.470439536496997" lon="9.195600645616651">
        <ele>1759.3199999999999</ele>
        <time>2020-01-01T09:42:11Z</time>
      </trkpt>
      <trkpt lat="46.470494102686644" lon="9.195661582052708">
        <ele>1762.1700000000001</ele>
        <time>2020-01-01T09:42:31Z</time>
      </trkpt>
      <trkpt lat="46.470491671934724" lon="9.195710867643356">
        <ele>1764.7</ele>
        <time>2020-01-01T09:42:48Z</time>
      </trkpt>
      <trkpt lat="46.470489827916026" lon="9.195689661428332">
        <ele>1764.8599999999999</ele>
        <time>2020-01-01T09:43:06Z</time>
      </trkpt>
      <trkpt lat="46.470475913956761" lon="9.195690080523491">
        <ele>1764.8299999999999</ele>
        <time>2020-01-01T09:43:21Z</time>
      </trkpt>
      <trkpt lat="46.470376588404179" lon="9.195705503225327">
        <ele>1763.3699999999999</ele>
        <time>2020-01-01T09:43:41Z</time>
      </trkpt>
      <trkpt lat="46.47033266723156" lon="9.195718327537179">
        <ele>1762.6600000000001</ele>
        <time>2020-01-01T09:43:57Z</time>
      </trkpt>
      <trkpt lat="46.470286650583148" lon="9.195793429389596">
        <ele>1764.8800000000001</ele>
        <time>2020-01-01T09:44:20Z</time>
      </trkpt>
      <trkpt lat="46.470211381092668" lon="9.195920582860708">
        <ele>1767.5599999999999</ele>
        <time>2020-01-01T09:44:42Z</time>
      </trkpt>
      <trkpt lat="46.470173494890332" lon="9.195983447134495">
        <ele>1769.29</ele>
        <time>2020-01-01T09:44:56Z</time>
      </trkpt>
      <trkpt lat="46.470192186534405" lon="9.195995097979903">
        <ele>1770.8299999999999</ele>
        <time>2020-01-01T09:45:26Z</time>
      </trkpt>
      <trkpt lat="46.470222361385822" lon="9.196014795452356">
        <ele>1772.4400000000001</ele>
        <time>2020-01-01T09:45:42Z</time>
      </trkpt>
      <trkpt lat="46.470281453803182" lon="9.196040946990252">
        <ele>1775.3399999999999</ele>
        <time>2020-01-01T09:46:11Z</time>
      </trkpt>
      <trkpt lat="46.470294781029224" lon="9.196037007495761">
        <ele>1775.8599999999999</ele>
        <time>2020-01-01T09:46:31Z</time>
      </trkpt>
      <trkpt lat="46.470303330570459" lon="9.196034241467714">
        <ele>1776.3499999999999</ele>
        <time>2020-01-01T09:47:02Z</time>
      </trkpt>
      <trkpt lat="46.470304504036903" lon="9.196085119619966">
        <ele>1777.75</ele>
        <time>2020-01-01T09:47:15Z</time>
      </trkpt>
      <trkpt lat="46.470348425209522" lon="9.1961092595011">
        <ele>1779.9000000000001</ele>
        <time>2020-01-01T09:47:30Z</time>
      </trkpt>
      <trkpt lat="46.470355214551091" lon="9.196106158196926">
        <ele>1780.0599999999999</ele>
        <time>2020-01-01T09:47:57Z</time>
      </trkpt>
      <trkpt lat="46.470374492928386" lon="9.1961092595011">
        <ele>1780.6900000000001</ele>
        <time>2020-01-01T09:48:23Z</time>
      </trkpt>
      <trkpt lat="46.470449762418866" lon="9.196127448230982">
        <ele>1782.8199999999999</ele>
        <time>2020-01-01T09:48:40Z</time>
      </trkpt>
      <trkpt lat="46.470515644177794" lon="9.196163322776556">
        <ele>1785.1500000000001</ele>
        <time>2020-01-01T09:48:59Z</time>
      </trkpt>
      <trkpt lat="46.47059359587729" lon="9.19618989340961">
        <ele>1788.3</ele>
        <time>2020-01-01T09:49:17Z</time>
      </trkpt>
      <trkpt lat="46.470686551183462" lon="9.196216044947505">
        <ele>1790.5</ele>
        <time>2020-01-01T09:49:34Z</time>
      </trkpt>
      <trkpt lat="46.47075679153204" lon="9.196245716884732">
        <ele>1792.49</ele>
        <time>2020-01-01T09:49:49Z</time>
      </trkpt>
      <trkpt lat="46.470812195912004" lon="9.196275724098086">
        <ele>1793.8800000000001</ele>
        <time>2020-01-01T09:50:04Z</time>
      </trkpt>
      <trkpt lat="46.470821918919683" lon="9.196282178163528">
        <ele>1794.3</ele>
        <time>2020-01-01T09:50:27Z</time>
      </trkpt>
      <trkpt lat="46.470819152891636" lon="9.196274718269706">
        <ele>1794.3</ele>
        <time>2020-01-01T09:50:50Z</time>
      </trkpt>
      <trkpt lat="46.470819069072604" lon="9.196273712441325">
        <ele>1794.1900000000001</ele>
        <time>2020-01-01T09:51:16Z</time>
      </trkpt>
      <trkpt lat="46.470814794301987" lon="9.196280501782894">
        <ele>1794.5899999999999</ele>
        <time>2020-01-01T09:51:39Z</time>
      </trkpt>
      <trkpt lat="46.470817141234875" lon="9.196279160678387">
        <ele>1794.28</ele>
        <time>2020-01-01T09:52:08Z</time>
      </trkpt>
      <trkpt lat="46.470871120691299" lon="9.196298187598586">
        <ele>1796.0699999999999</ele>
        <time>2020-01-01T09:52:25Z</time>
      </trkpt>
      <trkpt lat="46.47094446234405" lon="9.196348479017615">
        <ele>1797.8299999999999</ele>
        <time>2020-01-01T09:52:41Z</time>
      </trkpt>
      <trkpt lat="46.471037082374096" lon="9.196394914761186">
        <ele>1799.3199999999999</ele>
        <time>2020-01-01T09:52:58Z</time>
      </trkpt>
      <trkpt lat="46.471127858385444" lon="9.196449900045991">
        <ele>1800.6199999999999</ele>
        <time>2020-01-01T09:53:14Z</time>
      </trkpt>
      <trkpt lat="46.471219137310982" lon="9.196485774591565">
        <ele>1802.52</ele>
        <time>2020-01-01T09:53:30Z</time>
      </trkpt>
      <trkpt lat="46.471296418458223" lon="9.196509914472699">
        <ele>1803.8800000000001</ele>
        <time>2020-01-01T09:53:44Z</time>
      </trkpt>
      <trkpt lat="46.471303123980761" lon="9.19651779346168">
        <ele>1803.8199999999999</ele>
        <time>2020-01-01T09:54:01Z</time>
      </trkpt>
      <trkpt lat="46.471292227506638" lon="9.196518212556839">
        <ele>1804.6900000000001</ele>
        <time>2020-01-01T09:54:48Z</time>
      </trkpt>
      <trkpt lat="46.471293652430177" lon="9.196524834260345">
        <ele>1804.8</ele>
        <time>2020-01-01T09:55:19Z</time>
      </trkpt>
      <trkpt lat="46.471362970769405" lon="9.196542352437973">
        <ele>1805.78</ele>
        <time>2020-01-01T09:55:35Z</time>
      </trkpt>
      <trkpt lat="46.471486520022154" lon="9.196558361873031">
        <ele>1808.3900000000001</ele>
        <time>2020-01-01T09:55:54Z</time>
      </trkpt>
      <trkpt lat="46.471585258841515" lon="9.196557691320777">
        <ele>1810.55</ele>
        <time>2020-01-01T09:56:10Z</time>
      </trkpt>
      <trkpt lat="46.471700007095933" lon="9.196565402671695">
        <ele>1812.54</ele>
        <time>2020-01-01T09:56:28Z</time>
      </trkpt>
      <trkpt lat="46.471837218850851" lon="9.196581160649657">
        <ele>1815.3800000000001</ele>
        <time>2020-01-01T09:56:50Z</time>
      </trkpt>
      <trkpt lat="46.471941657364368" lon="9.19658375903964">
        <ele>1816.96</ele>
        <time>2020-01-01T09:57:06Z</time>
      </trkpt>
      <trkpt lat="46.472060261294246" lon="9.196588452905417">
        <ele>1818.3900000000001</ele>
        <time>2020-01-01T09:57:24Z</time>
      </trkpt>
      <trkpt lat="46.472188755869865" lon="9.196613598614931">
        <ele>1820.55</ele>
        <time>2020-01-01T09:57:43Z</time>
      </trkpt>
      <trkpt lat="46.472311886027455" lon="9.196684258058667">
        <ele>1821.76</ele>
        <time>2020-01-01T09:58:02Z</time>
      </trkpt>
      <trkpt lat="46.472418000921607" lon="9.196765646338463">
        <ele>1822.6300000000001</ele>
        <time>2020-01-01T09:58:18Z</time>
      </trkpt>
      <trkpt lat="46.472522355616093" lon="9.19685591943562">
        <ele>1823.1700000000001</ele>
        <time>2020-01-01T09:58:35Z</time>
      </trkpt>
      <trkpt lat="46.472647665068507" lon="9.196965554729104">
        <ele>1823.46</ele>
        <time>2020-01-01T09:58:53Z</time>
      </trkpt>
      <trkpt lat="46.472762497141957" lon="9.197091199457645">
        <ele>1823.77</ele>
        <time>2020-01-01T09:59:11Z</time>
      </trkpt>
      <trkpt lat="46.472868695855141" lon="9.197201924398542">
        <ele>1823.8699999999999</ele>
        <time>2020-01-01T09:59:29Z</time>
      </trkpt>
      <trkpt lat="46.472982103005052" lon="9.197291610762477">
        <ele>1824.24</ele>
        <time>2020-01-01T09:59:46Z</time>
      </trkpt>
      <trkpt lat="46.473066760227084" lon="9.197386493906379">
        <ele>1824.6300000000001</ele>
        <time>2020-01-01T10:00:01Z</time>
      </trkpt>
      <trkpt lat="46.473084697499871" lon="9.197437707334757">
        <ele>1824.4000000000001</ele>
        <time>2020-01-01T10:00:10Z</time>
      </trkpt>
      <trkpt lat="46.473107244819403" lon="9.197486070916057">
        <ele>1824.1300000000001</ele>
        <time>2020-01-01T10:00:15Z</time>
      </trkpt>
      <trkpt lat="46.473189303651452" lon="9.197641722857952">
        <ele>1824.6600000000001</ele>
        <time>2020-01-01T10:00:32Z</time>
      </trkpt>
      <trkpt lat="46.47326054982841" lon="9.197757728397846">
        <ele>1825.3099999999999</ele>
        <time>2020-01-01T10:00:48Z</time>
      </trkpt>
      <trkpt lat="46.473233560100198" lon="9.197865352034569">
        <ele>1827.9400000000001</ele>
        <time>2020-01-01T10:01:07Z</time>
      </trkpt>
      <trkpt lat="46.473241690546274" lon="9.197955289855599">
        <ele>1830.75</ele>
        <time>2020-01-01T10:01:24Z</time>
      </trkpt>
      <trkpt lat="46.473253089934587" lon="9.197955206036568">
        <ele>1832.4200000000001</ele>
        <time>2020-01-01T10:01:40Z</time>
      </trkpt>
      <trkpt lat="46.473257699981332" lon="9.197950847446919">
        <ele>1830.6700000000001</ele>
        <time>2020-01-01T10:01:56Z</time>
      </trkpt>
      <trkpt lat="46.473251916468143" lon="9.197938274592161">
        <ele>1832.4400000000001</ele>
        <time>2020-01-01T10:02:30Z</time>
      </trkpt>
      <trkpt lat="46.473252503201365" lon="9.197930479422212">
        <ele>1832.3199999999999</ele>
        <time>2020-01-01T10:02:54Z</time>
      </trkpt>
      <trkpt lat="46.473250826820731" lon="9.19791673310101">
        <ele>1832.6400000000001</ele>
        <time>2020-01-01T10:03:15Z</time>
      </trkpt>
      <trkpt lat="46.473305644467473" lon="9.197932239621878">
        <ele>1834.3499999999999</ele>
        <time>2020-01-01T10:03:32Z</time>
      </trkpt>
      <trkpt lat="46.473377645015717" lon="9.197982614859939">
        <ele>1836.28</ele>
        <time>2020-01-01T10:03:47Z</time>
      </trkpt>
      <trkpt lat="46.473466409370303" lon="9.198048496618867">
        <ele>1839.4000000000001</ele>
        <time>2020-01-01T10:04:08Z</time>
      </trkpt>
      <trkpt lat="46.473534721881151" lon="9.198073726147413">
        <ele>1842.3800000000001</ele>
        <time>2020-01-01T10:04:25Z</time>
      </trkpt>
      <trkpt lat="46.473588617518544" lon="9.198123179376125">
        <ele>1845.05</ele>
        <time>2020-01-01T10:04:42Z</time>
      </trkpt>
      <trkpt lat="46.47365634329617" lon="9.198172213509679">
        <ele>1848.0899999999999</ele>
        <time>2020-01-01T10:05:00Z</time>
      </trkpt>
      <trkpt lat="46.47373647429049" lon="9.19820305891335">
        <ele>1851.24</ele>
        <time>2020-01-01T10:05:17Z</time>
      </trkpt>
      <trkpt lat="46.47380780428648" lon="9.198232982307673">
        <ele>1853.3499999999999</ele>
        <time>2020-01-01T10:05:33Z</time>
      </trkpt>
      <trkpt lat="46.473850384354591" lon="9.198265420272946">
        <ele>1854.6500000000001</ele>
        <time>2020-01-01T10:05:46Z</time>
      </trkpt>
      <trkpt lat="46.473904028534889" lon="9.19833499006927">
        <ele>1856.3</ele>
        <time>2020-01-01T10:06:06Z</time>
      </trkpt>
      <trkpt lat="46.473991703242064" lon="9.198410594835877">
        <ele>1858.52</ele>
        <time>2020-01-01T10:06:25Z</time>
      </trkpt>
      <trkpt lat="46.474069906398654" lon="9.198422580957413">
        <ele>1860.8900000000001</ele>
        <time>2020-01-01T10:06:40Z</time>
      </trkpt>
      <trkpt lat="46.474162191152573" lon="9.198406487703323">
        <ele>1863.95</ele>
        <time>2020-01-01T10:06:58Z</time>
      </trkpt>
      <trkpt lat="46.47424659691751" lon="9.198403218761087">
        <ele>1866.1500000000001</ele>
        <time>2020-01-01T10:07:13Z</time>
      </trkpt>
      <trkpt lat="46.474308706820011" lon="9.198350077494979">
        <ele>1868.3299999999999</ele>
        <time>2020-01-01T10:07:29Z</time>
      </trkpt>
      <trkpt lat="46.474389005452394" lon="9.198326356709003">
        <ele>1870.8199999999999</ele>
        <time>2020-01-01T10:07:44Z</time>
      </trkpt>
      <trkpt lat="46.474490258842707" lon="9.198343874886632">
        <ele>1873.8299999999999</ele>
        <time>2020-01-01T10:08:04Z</time>
      </trkpt>
      <trkpt lat="46.474580699577928" lon="9.19838972389698">
        <ele>1874.8099999999999</ele>
        <time>2020-01-01T10:08:23Z</time>
      </trkpt>
      <trkpt lat="46.474643312394619" lon="9.198402464389801">
        <ele>1875.51</ele>
        <time>2020-01-01T10:08:37Z</time>
      </trkpt>
      <trkpt lat="46.474770549684763" lon="9.198454851284623">
        <ele>1875.8399999999999</ele>
        <time>2020-01-01T10:08:55Z</time>
      </trkpt>
      <trkpt lat="46.474903570488095" lon="9.198477985337377">
        <ele>1877.0599999999999</ele>
        <time>2020-01-01T10:09:14Z</time>
      </trkpt>
      <trkpt lat="46.475016893818974" lon="9.198494078591466">
        <ele>1875.6400000000001</ele>
        <time>2020-01-01T10:09:31Z</time>
      </trkpt>
      <trkpt lat="46.475145472213626" lon="9.198516290634871">
        <ele>1874.3599999999999</ele>
        <time>2020-01-01T10:09:49Z</time>
      </trkpt>
      <trkpt lat="46.475203977897763" lon="9.198520565405488">
        <ele>1873.95</ele>
        <time>2020-01-01T10:10:04Z</time>
      </trkpt>
      <trkpt lat="46.475209342315793" lon="9.198514278978109">
        <ele>1874.1099999999999</ele>
        <time>2020-01-01T10:10:24Z</time>
      </trkpt>
      <trkpt lat="46.475210264325142" lon="9.198505729436874">
        <ele>1874.23</ele>
        <time>2020-01-01T10:10:41Z</time>
      </trkpt>
      <trkpt lat="46.475210264325142" lon="9.198497263714671">
        <ele>1874.4200000000001</ele>
        <time>2020-01-01T10:11:18Z</time>
      </trkpt>
      <trkpt lat="46.475293161347508" lon="9.198492653667927">
        <ele>1874.4100000000001</ele>
        <time>2020-01-01T10:11:32Z</time>
      </trkpt>
      <trkpt lat="46.475431630387902" lon="9.19844294898212">
        <ele>1874.1400000000001</ele>
        <time>2020-01-01T10:11:50Z</time>
      </trkpt>
      <trkpt lat="46.475555347278714" lon="9.198357202112675">
        <ele>1874.25</ele>
        <time>2020-01-01T10:12:08Z</time>
      </trkpt>
      <trkpt lat="46.475698761641979" lon="9.198258379474282">
        <ele>1876.1500000000001</ele>
        <time>2020-01-01T10:12:29Z</time>
      </trkpt>
      <trkpt lat="46.475818706676364" lon="9.198175985366106">
        <ele>1877.26</ele>
        <time>2020-01-01T10:12:47Z</time>
      </trkpt>
      <trkpt lat="46.475948458537459" lon="9.198101386427879">
        <ele>1878.1400000000001</ele>
        <time>2020-01-01T10:13:06Z</time>
      </trkpt>
      <trkpt lat="46.476061614230275" lon="9.198030224069953">
        <ele>1878.6800000000001</ele>
        <time>2020-01-01T10:13:24Z</time>
      </trkpt>
      <trkpt lat="46.476187845692039" lon="9.197904076427221">
        <ele>1879.01</ele>
        <time>2020-01-01T10:13:45Z</time>
      </trkpt>
      <trkpt lat="46.476252637803555" lon="9.197774743661284">
        <ele>1880.54</ele>
        <time>2020-01-01T10:14:03Z</time>
      </trkpt>
      <trkpt lat="46.476325308904052" lon="9.197693942114711">
        <ele>1883.1600000000001</ele>
        <time>2020-01-01T10:14:19Z</time>
      </trkpt>
      <trkpt lat="46.476424215361476" lon="9.197640549391508">
        <ele>1886</ele>
        <time>2020-01-01T10:14:39Z</time>
      </trkpt>
      <trkpt lat="46.476431591436267" lon="9.197633927688003">
        <ele>1886.5699999999999</ele>
        <time>2020-01-01T10:14:55Z</time>
      </trkpt>
      <trkpt lat="46.476449025794864" lon="9.197647087275982">
        <ele>1886.71</ele>
        <time>2020-01-01T10:15:21Z</time>
      </trkpt>
      <trkpt lat="46.476446930319071" lon="9.197645662352443">
        <ele>1886.55</ele>
        <time>2020-01-01T10:15:48Z</time>
      </trkpt>
      <trkpt lat="46.476446343585849" lon="9.19764943420887">
        <ele>1886.72</ele>
        <time>2020-01-01T10:16:22Z</time>
      </trkpt>
      <trkpt lat="46.476438632234931" lon="9.197631748393178">
        <ele>1887.0999999999999</ele>
        <time>2020-01-01T10:17:00Z</time>
      </trkpt>
      <trkpt lat="46.476446678861976" lon="9.197652116417885">
        <ele>1887.52</ele>
        <time>2020-01-01T10:17:40Z</time>
      </trkpt>
      <trkpt lat="46.476445840671659" lon="9.197630239650607">
        <ele>1887.77</ele>
        <time>2020-01-01T10:18:03Z</time>
      </trkpt>
      <trkpt lat="46.476458581164479" lon="9.197669718414545">
        <ele>1889.1600000000001</ele>
        <time>2020-01-01T10:18:26Z</time>
      </trkpt>
      <trkpt lat="46.476456904783845" lon="9.197774576023221">
        <ele>1890.75</ele>
        <time>2020-01-01T10:18:50Z</time>
      </trkpt>
      <trkpt lat="46.476460844278336" lon="9.197849091142416">
        <ele>1892.8199999999999</ele>
        <time>2020-01-01T10:19:07Z</time>
      </trkpt>
      <trkpt lat="46.476480374112725" lon="9.19795386493206">
        <ele>1895.6900000000001</ele>
        <time>2020-01-01T10:19:24Z</time>
      </trkpt>
      <trkpt lat="46.476521696895361" lon="9.197961827740073">
        <ele>1898.8900000000001</ele>
        <time>2020-01-01T10:19:39Z</time>
      </trkpt>
      <trkpt lat="46.476573832333088" lon="9.19799879193306">
        <ele>1901.3099999999999</ele>
        <time>2020-01-01T10:19:55Z</time>
      </trkpt>
      <trkpt lat="46.4766232855618" lon="9.198044305667281">
        <ele>1903.6900000000001</ele>
        <time>2020-01-01T10:20:09Z</time>
      </trkpt>
      <trkpt lat="46.476674750447273" lon="9.198100212961435">
        <ele>1904.9100000000001</ele>
        <time>2020-01-01T10:20:24Z</time>
      </trkpt>
      <trkpt lat="46.476686568930745" lon="9.198116641491652">
        <ele>1905.74</ele>
        <time>2020-01-01T10:20:44Z</time>
      </trkpt>
      <trkpt lat="46.476712301373482" lon="9.198146229609847">
        <ele>1906.48</ele>
        <time>2020-01-01T10:21:09Z</time>
      </trkpt>
      <trkpt lat="46.476760245859623" lon="9.198246980085969">
        <ele>1907.8499999999999</ele>
        <time>2020-01-01T10:21:26Z</time>
      </trkpt>
      <trkpt lat="46.476742895320058" lon="9.198356363922358">
        <ele>1910.9000000000001</ele>
        <time>2020-01-01T10:21:42Z</time>
      </trkpt>
      <trkpt lat="46.476713139563799" lon="9.198455940932035">
        <ele>1913.8399999999999</ele>
        <time>2020-01-01T10:22:00Z</time>
      </trkpt>
      <trkpt lat="46.476714564487338" lon="9.198567755520344">
        <ele>1916.8599999999999</ele>
        <time>2020-01-01T10:22:17Z</time>
      </trkpt>
      <trkpt lat="46.476698890328407" lon="9.198668505996466">
        <ele>1919.1900000000001</ele>
        <time>2020-01-01T10:22:34Z</time>
      </trkpt>
      <trkpt lat="46.47672152146697" lon="9.198757857084274">
        <ele>1921.6900000000001</ele>
        <time>2020-01-01T10:22:48Z</time>
      </trkpt>
      <trkpt lat="46.476778266951442" lon="9.198785265907645">
        <ele>1924.7</ele>
        <time>2020-01-01T10:23:03Z</time>
      </trkpt>
      <trkpt lat="46.476872228085995" lon="9.198792390525341">
        <ele>1927.6800000000001</ele>
        <time>2020-01-01T10:23:24Z</time>
      </trkpt>
      <trkpt lat="46.476962082087994" lon="9.19879574328661">
        <ele>1930.0699999999999</ele>
        <time>2020-01-01T10:23:42Z</time>
      </trkpt>
      <trkpt lat="46.477052606642246" lon="9.198807897046208">
        <ele>1933.0699999999999</ele>
        <time>2020-01-01T10:24:00Z</time>
      </trkpt>
      <trkpt lat="46.477122763171792" lon="9.198812758550048">
        <ele>1934.5899999999999</ele>
        <time>2020-01-01T10:24:14Z</time>
      </trkpt>
      <trkpt lat="46.477188980206847" lon="9.198830528184772">
        <ele>1937.46</ele>
        <time>2020-01-01T10:24:28Z</time>
      </trkpt>
      <trkpt lat="46.477253939956427" lon="9.198840083554387">
        <ele>1939.4300000000001</ele>
        <time>2020-01-01T10:24:41Z</time>
      </trkpt>
      <trkpt lat="46.477322252467275" lon="9.198856009170413">
        <ele>1941.05</ele>
        <time>2020-01-01T10:24:55Z</time>
      </trkpt>
      <trkpt lat="46.47739534266293" lon="9.198874197900295">
        <ele>1943.52</ele>
        <time>2020-01-01T10:25:11Z</time>
      </trkpt>
      <trkpt lat="46.477477317675948" lon="9.198900181800127">
        <ele>1946.3299999999999</ele>
        <time>2020-01-01T10:25:30Z</time>
      </trkpt>
      <trkpt lat="46.477546971291304" lon="9.198929769918323">
        <ele>1949.26</ele>
        <time>2020-01-01T10:25:47Z</time>
      </trkpt>
      <trkpt lat="46.477616876363754" lon="9.198963800445199">
        <ele>1952.52</ele>
        <time>2020-01-01T10:26:05Z</time>
      </trkpt>
      <trkpt lat="46.477670017629862" lon="9.198991376906633">
        <ele>1955.1199999999999</ele>
        <time>2020-01-01T10:26:19Z</time>
      </trkpt>
      <trkpt lat="46.477748388424516" lon="9.198995651677251">
        <ele>1957.8800000000001</ele>
        <time>2020-01-01T10:26:38Z</time>
      </trkpt>
      <trkpt lat="46.477816114202142" lon="9.198976792395115">
        <ele>1960.02</ele>
        <time>2020-01-01T10:26:53Z</time>
      </trkpt>
      <trkpt lat="46.477883839979768" lon="9.198993053287268">
        <ele>1961.4300000000001</ele>
        <time>2020-01-01T10:27:08Z</time>
      </trkpt>
      <trkpt lat="46.477931533008814" lon="9.199043596163392">
        <ele>1963.5</ele>
        <time>2020-01-01T10:27:21Z</time>
      </trkpt>
      <trkpt lat="46.477972185239196" lon="9.199059521779418">
        <ele>1965.3900000000001</ele>
        <time>2020-01-01T10:27:35Z</time>
      </trkpt>
      <trkpt lat="46.477983836084604" lon="9.199055833742023">
        <ele>1966.27</ele>
        <time>2020-01-01T10:27:45Z</time>
      </trkpt>
      <trkpt lat="46.477990541607141" lon="9.199062874540687">
        <ele>1964.8699999999999</ele>
        <time>2020-01-01T10:28:04Z</time>
      </trkpt>
      <trkpt lat="46.478010909631848" lon="9.199114758521318">
        <ele>1966.4300000000001</ele>
        <time>2020-01-01T10:28:21Z</time>
      </trkpt>
      <trkpt lat="46.478039240464568" lon="9.199195895344019">
        <ele>1969.48</ele>
        <time>2020-01-01T10:28:35Z</time>
      </trkpt>
      <trkpt lat="46.478132698684931" lon="9.199254317209125">
        <ele>1971.1199999999999</ele>
        <time>2020-01-01T10:28:51Z</time>
      </trkpt>
      <trkpt lat="46.478221882134676" lon="9.199315421283245">
        <ele>1972.46</ele>
        <time>2020-01-01T10:29:07Z</time>
      </trkpt>
      <trkpt lat="46.478307293727994" lon="9.199373591691256">
        <ele>1974.75</ele>
        <time>2020-01-01T10:29:22Z</time>
      </trkpt>
      <trkpt lat="46.478353645652533" lon="9.199392618611455">
        <ele>1975.1700000000001</ele>
        <time>2020-01-01T10:29:41Z</time>
      </trkpt>
      <trkpt lat="46.478355657309294" lon="9.199405359104276">
        <ele>1974.8900000000001</ele>
        <time>2020-01-01T10:30:04Z</time>
      </trkpt>
      <trkpt lat="46.478354316204786" lon="9.199393792077899">
        <ele>1973.6500000000001</ele>
        <time>2020-01-01T10:30:20Z</time>
      </trkpt>
      <trkpt lat="46.478366637602448" lon="9.199401251971722">
        <ele>1973.73</ele>
        <time>2020-01-01T10:31:05Z</time>
      </trkpt>
      <trkpt lat="46.478364877402782" lon="9.19939580373466">
        <ele>1974.04</ele>
        <time>2020-01-01T10:31:53Z</time>
      </trkpt>
      <trkpt lat="46.478350795805454" lon="9.199370490387082">
        <ele>1973.01</ele>
        <time>2020-01-01T10:32:22Z</time>
      </trkpt>
      <trkpt lat="46.478348867967725" lon="9.199385074898601">
        <ele>1974.2</ele>
        <time>2020-01-01T10:32:52Z</time>
      </trkpt>
      <trkpt lat="46.47836035117507" lon="9.199413489550352">
        <ele>1975.1600000000001</ele>
        <time>2020-01-01T10:33:12Z</time>
      </trkpt>
      <trkpt lat="46.478403937071562" lon="9.199440814554691">
        <ele>1976.8499999999999</ele>
        <time>2020-01-01T10:33:34Z</time>
      </trkpt>
      <trkpt lat="46.478476524353027" lon="9.199453974142671">
        <ele>1978.45</ele>
        <time>2020-01-01T10:33:48Z</time>
      </trkpt>
      <trkpt lat="46.478559337556362" lon="9.199467469006777">
        <ele>1981.53</ele>
        <time>2020-01-01T10:34:04Z</time>
      </trkpt>
      <trkpt lat="46.478637121617794" lon="9.199482137337327">
        <ele>1983.6099999999999</ele>
        <time>2020-01-01T10:34:19Z</time>
      </trkpt>
      <trkpt lat="46.478707613423467" lon="9.199514910578728">
        <ele>1985.3800000000001</ele>
        <time>2020-01-01T10:34:33Z</time>
      </trkpt>
      <trkpt lat="46.478781206533313" lon="9.199539553374052">
        <ele>1987.8</ele>
        <time>2020-01-01T10:34:49Z</time>
      </trkpt>
      <trkpt lat="46.47887147963047" lon="9.199562519788742">
        <ele>1990.4000000000001</ele>
        <time>2020-01-01T10:35:06Z</time>
      </trkpt>
      <trkpt lat="46.478974828496575" lon="9.199578864499927">
        <ele>1992.97</ele>
        <time>2020-01-01T10:35:24Z</time>
      </trkpt>
      <trkpt lat="46.479053953662515" lon="9.199574589729309">
        <ele>1994.99</ele>
        <time>2020-01-01T10:35:38Z</time>
      </trkpt>
      <trkpt lat="46.479131737723947" lon="9.199519939720631">
        <ele>1997.05</ele>
        <time>2020-01-01T10:35:53Z</time>
      </trkpt>
      <trkpt lat="46.479225531220436" lon="9.199539301916957">
        <ele>1998.5699999999999</ele>
        <time>2020-01-01T10:36:09Z</time>
      </trkpt>
      <trkpt lat="46.47930096834898" lon="9.19956536963582">
        <ele>2000.27</ele>
        <time>2020-01-01T10:36:23Z</time>
      </trkpt>
      <trkpt lat="46.479368275031447" lon="9.199571907520294">
        <ele>2002</ele>
        <time>2020-01-01T10:36:38Z</time>
      </trkpt>
      <trkpt lat="46.479428205639124" lon="9.199575763195753">
        <ele>2003.6400000000001</ele>
        <time>2020-01-01T10:36:51Z</time>
      </trkpt>
      <trkpt lat="46.479490147903562" lon="9.199626473709941">
        <ele>2006</ele>
        <time>2020-01-01T10:37:06Z</time>
      </trkpt>
      <trkpt lat="46.47953599691391" lon="9.199600489810109">
        <ele>2007.79</ele>
        <time>2020-01-01T10:37:18Z</time>
      </trkpt>
      <trkpt lat="46.479584444314241" lon="9.199534105136991">
        <ele>2010.05</ele>
        <time>2020-01-01T10:37:33Z</time>
      </trkpt>
      <trkpt lat="46.479650996625423" lon="9.199570063501597">
        <ele>2013</ele>
        <time>2020-01-01T10:37:50Z</time>
      </trkpt>
      <trkpt lat="46.479697348549962" lon="9.199535949155688">
        <ele>2014.8499999999999</ele>
        <time>2020-01-01T10:38:05Z</time>
      </trkpt>
      <trkpt lat="46.479767337441444" lon="9.199570398777723">
        <ele>2016.97</ele>
        <time>2020-01-01T10:38:21Z</time>
      </trkpt>
      <trkpt lat="46.479818969964981" lon="9.199589844793081">
        <ele>2018.6600000000001</ele>
        <time>2020-01-01T10:38:40Z</time>
      </trkpt>
      <trkpt lat="46.479896251112223" lon="9.199636783450842">
        <ele>2021.8499999999999</ele>
        <time>2020-01-01T10:38:57Z</time>
      </trkpt>
      <trkpt lat="46.479974957183003" lon="9.19966846704483">
        <ele>2023.8699999999999</ele>
        <time>2020-01-01T10:39:14Z</time>
      </trkpt>
      <trkpt lat="46.480022650212049" lon="9.199699899181724">
        <ele>2025.1800000000001</ele>
        <time>2020-01-01T10:39:32Z</time>
      </trkpt>
      <trkpt lat="46.480079060420394" lon="9.199703419581056">
        <ele>2026.7</ele>
        <time>2020-01-01T10:39:45Z</time>
      </trkpt>
      <trkpt lat="46.480151060968637" lon="9.199689086526632">
        <ele>2029.7</ele>
        <time>2020-01-01T10:39:59Z</time>
      </trkpt>
      <trkpt lat="46.480240495875478" lon="9.199650026857853">
        <ele>2032.53</ele>
        <time>2020-01-01T10:40:18Z</time>
      </trkpt>
      <trkpt lat="46.480301599949598" lon="9.199617840349674">
        <ele>2034.4400000000001</ele>
        <time>2020-01-01T10:40:36Z</time>
      </trkpt>
      <trkpt lat="46.480303024873137" lon="9.19961029663682">
        <ele>2034.6900000000001</ele>
        <time>2020-01-01T10:40:55Z</time>
      </trkpt>
      <trkpt lat="46.480310233309865" lon="9.199618510901928">
        <ele>2034.46</ele>
        <time>2020-01-01T10:41:18Z</time>
      </trkpt>
      <trkpt lat="46.480323057621717" lon="9.199631251394749">
        <ele>2034.03</ele>
        <time>2020-01-01T10:41:54Z</time>
      </trkpt>
      <trkpt lat="46.480311658233404" lon="9.199626473709941">
        <ele>2033.22</ele>
        <time>2020-01-01T10:42:32Z</time>
      </trkpt>
      <trkpt lat="46.480313502252102" lon="9.199628569185734">
        <ele>2033.77</ele>
        <time>2020-01-01T10:42:58Z</time>
      </trkpt>
      <trkpt lat="46.480311742052436" lon="9.199622198939323">
        <ele>2033.6800000000001</ele>
        <time>2020-01-01T10:43:30Z</time>
      </trkpt>
      <trkpt lat="46.480324398726225" lon="9.199618007987738">
        <ele>2034.1800000000001</ele>
        <time>2020-01-01T10:43:46Z</time>
      </trkpt>
      <trkpt lat="46.480328002944589" lon="9.199611805379391">
        <ele>2034.28</ele>
        <time>2020-01-01T10:44:15Z</time>
      </trkpt>
      <trkpt lat="46.480347951874137" lon="9.199589090421796">
        <ele>2035.1900000000001</ele>
        <time>2020-01-01T10:44:30Z</time>
      </trkpt>
      <trkpt lat="46.480392208322883" lon="9.199542822316289">
        <ele>2037.28</ele>
        <time>2020-01-01T10:44:43Z</time>
      </trkpt>
      <trkpt lat="46.480441745370626" lon="9.199516251683235">
        <ele>2038.6900000000001</ele>
        <time>2020-01-01T10:44:55Z</time>
      </trkpt>
      <trkpt lat="46.480508800595999" lon="9.199508205056191">
        <ele>2039.97</ele>
        <time>2020-01-01T10:45:08Z</time>
      </trkpt>
      <trkpt lat="46.480608629062772" lon="9.199440898373723">
        <ele>2042.8299999999999</ele>
        <time>2020-01-01T10:45:29Z</time>
      </trkpt>
      <trkpt lat="46.480691190809011" lon="9.199396474286914">
        <ele>2045.99</ele>
        <time>2020-01-01T10:45:48Z</time>
      </trkpt>
      <trkpt lat="46.480726143345237" lon="9.19939580373466">
        <ele>2046.6300000000001</ele>
        <time>2020-01-01T10:46:03Z</time>
      </trkpt>
      <trkpt lat="46.48078104481101" lon="9.199372502043843">
        <ele>2048.9000000000001</ele>
        <time>2020-01-01T10:46:16Z</time>
      </trkpt>
      <trkpt lat="46.48079227656126" lon="9.199372250586748">
        <ele>2048.9099999999999</ele>
        <time>2020-01-01T10:46:34Z</time>
      </trkpt>
      <trkpt lat="46.480809040367603" lon="9.199376609176397">
        <ele>2049.4699999999998</ele>
        <time>2020-01-01T10:47:19Z</time>
      </trkpt>
      <trkpt lat="46.480874670669436" lon="9.199303351342678">
        <ele>2052.6300000000001</ele>
        <time>2020-01-01T10:47:42Z</time>
      </trkpt>
      <trkpt lat="46.480948012322187" lon="9.199278289452195">
        <ele>2055.6700000000001</ele>
        <time>2020-01-01T10:48:02Z</time>
      </trkpt>
      <trkpt lat="46.48102143779397" lon="9.199268985539675">
        <ele>2058.8299999999999</ele>
        <time>2020-01-01T10:48:19Z</time>
      </trkpt>
      <trkpt lat="46.481078686192632" lon="9.199239229783416">
        <ele>2061.29</ele>
        <time>2020-01-01T10:48:33Z</time>
      </trkpt>
      <trkpt lat="46.481147920712829" lon="9.199232188984752">
        <ele>2063.6700000000001</ele>
        <time>2020-01-01T10:48:47Z</time>
      </trkpt>
      <trkpt lat="46.481210868805647" lon="9.199236547574401">
        <ele>2065.52</ele>
        <time>2020-01-01T10:49:00Z</time>
      </trkpt>
      <trkpt lat="46.481295861303806" lon="9.19929807074368">
        <ele>2065.4299999999998</ele>
        <time>2020-01-01T10:49:15Z</time>
      </trkpt>
      <trkpt lat="46.481306087225676" lon="9.199315756559372">
        <ele>2065.4699999999998</ele>
        <time>2020-01-01T10:49:33Z</time>
      </trkpt>
      <trkpt lat="46.481353109702468" lon="9.199361270293593">
        <ele>2064.0300000000002</ele>
        <time>2020-01-01T10:49:47Z</time>
      </trkpt>
      <trkpt lat="46.481412621214986" lon="9.199487250298262">
        <ele>2061.73</ele>
        <time>2020-01-01T10:50:02Z</time>
      </trkpt>
      <trkpt lat="46.481439527124166" lon="9.199657905846834">
        <ele>2059.0900000000001</ele>
        <time>2020-01-01T10:50:18Z</time>
      </trkpt>
      <trkpt lat="46.48150272667408" lon="9.199796207249165">
        <ele>2056.02</ele>
        <time>2020-01-01T10:50:34Z</time>
      </trkpt>
      <trkpt lat="46.481560729444027" lon="9.199902573600411">
        <ele>2052.8899999999999</ele>
        <time>2020-01-01T10:50:51Z</time>
      </trkpt>
      <trkpt lat="46.481587467715144" lon="9.199984129518271">
        <ele>2051.1199999999999</ele>
        <time>2020-01-01T10:51:09Z</time>
      </trkpt>
      <trkpt lat="46.481595933437347" lon="9.199964096769691">
        <ele>2050.9699999999998</ele>
        <time>2020-01-01T10:51:38Z</time>
      </trkpt>
      <trkpt lat="46.481591826304793" lon="9.199968874454498">
        <ele>2050.9400000000001</ele>
        <time>2020-01-01T10:52:06Z</time>
      </trkpt>
      <trkpt lat="46.48158872500062" lon="9.199974574148655">
        <ele>2051.0100000000002</ele>
        <time>2020-01-01T10:52:24Z</time>
      </trkpt>
      <trkpt lat="46.481608673930168" lon="9.200020004063845">
        <ele>2049.5500000000002</ele>
        <time>2020-01-01T10:52:46Z</time>
      </trkpt>
      <trkpt lat="46.481634238734841" lon="9.200139781460166">
        <ele>2047.8</ele>
        <time>2020-01-01T10:53:00Z</time>
      </trkpt>
      <trkpt lat="46.481682937592268" lon="9.200263665989041">
        <ele>2047.48</ele>
        <time>2020-01-01T10:53:13Z</time>
      </trkpt>
      <trkpt lat="46.481699366122484" lon="9.200313370674849">
        <ele>2047.23</ele>
        <time>2020-01-01T10:53:27Z</time>
      </trkpt>
      <trkpt lat="46.481707496568561" lon="9.20040532015264">
        <ele>2046.8599999999999</ele>
        <time>2020-01-01T10:53:45Z</time>
      </trkpt>
      <trkpt lat="46.481693414971232" lon="9.200583854690194">
        <ele>2043.6400000000001</ele>
        <time>2020-01-01T10:54:03Z</time>
      </trkpt>
      <trkpt lat="46.481693666428328" lon="9.200596259906888">
        <ele>2043.3299999999999</ele>
        <time>2020-01-01T10:54:04Z</time>
      </trkpt>
      <trkpt lat="46.481753513216972" lon="9.200751073658466">
        <ele>2045.3099999999999</ele>
        <time>2020-01-01T10:54:21Z</time>
      </trkpt>
      <trkpt lat="46.481832722201943" lon="9.200845621526241">
        <ele>2045.9200000000001</ele>
        <time>2020-01-01T10:54:37Z</time>
      </trkpt>
      <trkpt lat="46.481915954500437" lon="9.200897002592683">
        <ele>2046.71</ele>
        <time>2020-01-01T10:54:51Z</time>
      </trkpt>
      <trkpt lat="46.482024667784572" lon="9.200940420851111">
        <ele>2048.0100000000002</ele>
        <time>2020-01-01T10:55:07Z</time>
      </trkpt>
      <trkpt lat="46.482149222865701" lon="9.20100730843842">
        <ele>2049.1100000000001</ele>
        <time>2020-01-01T10:55:26Z</time>
      </trkpt>
      <trkpt lat="46.482267742976546" lon="9.20105910860002">
        <ele>2050.5500000000002</ele>
        <time>2020-01-01T10:55:44Z</time>
      </trkpt>
      <trkpt lat="46.482396321371198" lon="9.201104203239083">
        <ele>2051.6100000000001</ele>
        <time>2020-01-01T10:56:02Z</time>
      </trkpt>
      <trkpt lat="46.482510566711426" lon="9.201141586527228">
        <ele>2053.75</ele>
        <time>2020-01-01T10:56:20Z</time>
      </trkpt>
      <trkpt lat="46.482612490653992" lon="9.201190285384655">
        <ele>2055.9699999999998</ele>
        <time>2020-01-01T10:56:38Z</time>
      </trkpt>
      <trkpt lat="46.482658507302403" lon="9.201271254569292">
        <ele>2058.48</ele>
        <time>2020-01-01T10:56:53Z</time>
      </trkpt>
      <trkpt lat="46.482716174796224" lon="9.201356079429388">
        <ele>2061.3000000000002</ele>
        <time>2020-01-01T10:57:12Z</time>
      </trkpt>
      <trkpt lat="46.482755485922098" lon="9.201442915946245">
        <ele>2064.0599999999999</ele>
        <time>2020-01-01T10:57:29Z</time>
      </trkpt>
      <trkpt lat="46.482834024354815" lon="9.201553054153919">
        <ele>2067.1799999999998</ele>
        <time>2020-01-01T10:57:52Z</time>
      </trkpt>
      <trkpt lat="46.48283964022994" lon="9.201677273958921">
        <ele>2069.8499999999999</ele>
        <time>2020-01-01T10:58:13Z</time>
      </trkpt>
      <trkpt lat="46.482848944142461" lon="9.201813479885459">
        <ele>2073.0100000000002</ele>
        <time>2020-01-01T10:58:35Z</time>
      </trkpt>
      <trkpt lat="46.482880376279354" lon="9.201869890093803">
        <ele>2075.1599999999999</ele>
        <time>2020-01-01T10:58:52Z</time>
      </trkpt>
      <trkpt lat="46.482870820909739" lon="9.201855389401317">
        <ele>2075.02</ele>
        <time>2020-01-01T10:59:21Z</time>
      </trkpt>
      <trkpt lat="46.482870737090707" lon="9.201851449906826">
        <ele>2075.1100000000001</ele>
        <time>2020-01-01T10:59:44Z</time>
      </trkpt>
      <trkpt lat="46.482879286631942" lon="9.201854132115841">
        <ele>2074.3099999999999</ele>
        <time>2020-01-01T11:00:11Z</time>
      </trkpt>
      <trkpt lat="46.482880795374513" lon="9.201866453513503">
        <ele>2073.3400000000001</ele>
        <time>2020-01-01T11:00:25Z</time>
      </trkpt>
      <trkpt lat="46.482899403199553" lon="9.201840469613671">
        <ele>2073.1799999999998</ele>
        <time>2020-01-01T11:00:55Z</time>
      </trkpt>
      <trkpt lat="46.482914322987199" lon="9.20187315903604">
        <ele>2073.1900000000001</ele>
        <time>2020-01-01T11:01:23Z</time>
      </trkpt>
      <trkpt lat="46.482900911942124" lon="9.201886150985956">
        <ele>2073.3299999999999</ele>
        <time>2020-01-01T11:01:52Z</time>
      </trkpt>
      <trkpt lat="46.48288456723094" lon="9.201898137107492">
        <ele>2073.1599999999999</ele>
        <time>2020-01-01T11:02:23Z</time>
      </trkpt>
      <trkpt lat="46.482885656878352" lon="9.201883636415005">
        <ele>2074.1900000000001</ele>
        <time>2020-01-01T11:02:48Z</time>
      </trkpt>
      <trkpt lat="46.482870737090707" lon="9.201869973912835">
        <ele>2074.25</ele>
        <time>2020-01-01T11:03:13Z</time>
      </trkpt>
      <trkpt lat="46.482894625514746" lon="9.201868716627359">
        <ele>2073.7600000000002</ele>
        <time>2020-01-01T11:03:43Z</time>
      </trkpt>
      <trkpt lat="46.48288113065064" lon="9.201873745769262">
        <ele>2073.5</ele>
        <time>2020-01-01T11:04:13Z</time>
      </trkpt>
      <trkpt lat="46.482887081801891" lon="9.201892269775271">
        <ele>2073.8400000000001</ele>
        <time>2020-01-01T11:04:37Z</time>
      </trkpt>
      <trkpt lat="46.482924045994878" lon="9.201939795166254">
        <ele>2075.0500000000002</ele>
        <time>2020-01-01T11:04:58Z</time>
      </trkpt>
      <trkpt lat="46.482991771772504" lon="9.20200358144939">
        <ele>2077.2600000000002</ele>
        <time>2020-01-01T11:05:16Z</time>
      </trkpt>
      <trkpt lat="46.483061006292701" lon="9.202083293348551">
        <ele>2079.48</ele>
        <time>2020-01-01T11:05:33Z</time>
      </trkpt>
      <trkpt lat="46.483135521411896" lon="9.202147917822003">
        <ele>2081.48</ele>
        <time>2020-01-01T11:05:49Z</time>
      </trkpt>
      <trkpt lat="46.483198888599873" lon="9.202220672741532">
        <ele>2083.8899999999999</ele>
        <time>2020-01-01T11:06:04Z</time>
      </trkpt>
      <trkpt lat="46.483270050957799" lon="9.202296193689108">
        <ele>2086.0300000000002</ele>
        <time>2020-01-01T11:06:20Z</time>
      </trkpt>
      <trkpt lat="46.483338866382837" lon="9.202445643022656">
        <ele>2088.8200000000002</ele>
        <time>2020-01-01T11:06:41Z</time>
      </trkpt>
      <trkpt lat="46.483432156965137" lon="9.202551506459713">
        <ele>2092.1100000000001</ele>
        <time>2020-01-01T11:07:03Z</time>
      </trkpt>
      <trkpt lat="46.483499631285667" lon="9.202619148418307">
        <ele>2093.8800000000001</ele>
        <time>2020-01-01T11:07:18Z</time>
      </trkpt>
      <trkpt lat="46.483571380376816" lon="9.202668182551861">
        <ele>2096.9899999999998</ele>
        <time>2020-01-01T11:07:32Z</time>
      </trkpt>
      <trkpt lat="46.483647488057613" lon="9.202701123431325">
        <ele>2099.1199999999999</ele>
        <time>2020-01-01T11:07:47Z</time>
      </trkpt>
      <trkpt lat="46.483737844973803" lon="9.202770525589585">
        <ele>2101.9099999999999</ele>
        <time>2020-01-01T11:08:06Z</time>
      </trkpt>
      <trkpt lat="46.483827279880643" lon="9.202902959659696">
        <ele>2104.0999999999999</ele>
        <time>2020-01-01T11:08:27Z</time>
      </trkpt>
      <trkpt lat="46.483860304579139" lon="9.202976217493415">
        <ele>2105.48</ele>
        <time>2020-01-01T11:08:43Z</time>
      </trkpt>
      <trkpt lat="46.483861478045583" lon="9.202982503920794">
        <ele>2105.5999999999999</ele>
        <time>2020-01-01T11:09:03Z</time>
      </trkpt>
      <trkpt lat="46.483857035636902" lon="9.202974373474717">
        <ele>2105.29</ele>
        <time>2020-01-01T11:09:41Z</time>
      </trkpt>
      <trkpt lat="46.483900705352426" lon="9.202995579689741">
        <ele>2105.1799999999998</ele>
        <time>2020-01-01T11:10:11Z</time>
      </trkpt>
      <trkpt lat="46.484006233513355" lon="9.203031621873379">
        <ele>2106.5999999999999</ele>
        <time>2020-01-01T11:10:27Z</time>
      </trkpt>
      <trkpt lat="46.484083430841565" lon="9.203078895807266">
        <ele>2107.0900000000001</ele>
        <time>2020-01-01T11:10:42Z</time>
      </trkpt>
      <trkpt lat="46.484098182991147" lon="9.203070346266031">
        <ele>2107.4000000000001</ele>
        <time>2020-01-01T11:11:14Z</time>
      </trkpt>
      <trkpt lat="46.484213266521692" lon="9.203122146427631">
        <ele>2107.8600000000001</ele>
        <time>2020-01-01T11:11:31Z</time>
      </trkpt>
      <trkpt lat="46.484331535175443" lon="9.203190123662353">
        <ele>2108.5100000000002</ele>
        <time>2020-01-01T11:11:48Z</time>
      </trkpt>
      <trkpt lat="46.484456676989794" lon="9.203246785327792">
        <ele>2109.3899999999999</ele>
        <time>2020-01-01T11:12:06Z</time>
      </trkpt>
      <trkpt lat="46.484532449394464" lon="9.203265560790896">
        <ele>2109.73</ele>
        <time>2020-01-01T11:12:25Z</time>
      </trkpt>
      <trkpt lat="46.484652981162071" lon="9.203344602137804">
        <ele>2110.5100000000002</ele>
        <time>2020-01-01T11:12:41Z</time>
      </trkpt>
      <trkpt lat="46.484755324199796" lon="9.203393552452326">
        <ele>2110.5900000000001</ele>
        <time>2020-01-01T11:12:56Z</time>
      </trkpt>
      <trkpt lat="46.484857499599457" lon="9.203436383977532">
        <ele>2112.0300000000002</ele>
        <time>2020-01-01T11:13:13Z</time>
      </trkpt>
      <trkpt lat="46.484952801838517" lon="9.203508300706744">
        <ele>2113.2399999999998</ele>
        <time>2020-01-01T11:13:30Z</time>
      </trkpt>
      <trkpt lat="46.485040560364723" lon="9.203571500256658">
        <ele>2114.0999999999999</ele>
        <time>2020-01-01T11:13:45Z</time>
      </trkpt>
      <trkpt lat="46.485125385224819" lon="9.203578205779195">
        <ele>2115.9899999999998</ele>
        <time>2020-01-01T11:13:59Z</time>
      </trkpt>
      <trkpt lat="46.485208366066217" lon="9.203617516905069">
        <ele>2117.5900000000001</ele>
        <time>2020-01-01T11:14:13Z</time>
      </trkpt>
      <trkpt lat="46.485366197302938" lon="9.203720027580857">
        <ele>2119.9099999999999</ele>
        <time>2020-01-01T11:14:39Z</time>
      </trkpt>
      <trkpt lat="46.485516987740993" lon="9.203789345920086">
        <ele>2121.3499999999999</ele>
        <time>2020-01-01T11:15:01Z</time>
      </trkpt>
      <trkpt lat="46.485634166747332" lon="9.203860089182854">
        <ele>2122.1500000000001</ele>
        <time>2020-01-01T11:15:19Z</time>
      </trkpt>
      <trkpt lat="46.485704574733973" lon="9.203895293176174">
        <ele>2122.0700000000002</ele>
        <time>2020-01-01T11:15:30Z</time>
      </trkpt>
      <trkpt lat="46.485822759568691" lon="9.203967545181513">
        <ele>2124.4299999999998</ele>
        <time>2020-01-01T11:15:51Z</time>
      </trkpt>
      <trkpt lat="46.485904483124614" lon="9.203983973711729">
        <ele>2125.5799999999999</ele>
        <time>2020-01-01T11:16:05Z</time>
      </trkpt>
      <trkpt lat="46.485942788422108" lon="9.203991601243615">
        <ele>2126.1100000000001</ele>
        <time>2020-01-01T11:16:18Z</time>
      </trkpt>
      <trkpt lat="46.485961060971022" lon="9.203987661749125">
        <ele>2126.1100000000001</ele>
        <time>2020-01-01T11:16:48Z</time>
      </trkpt>
      <trkpt lat="46.48595754057169" lon="9.203986739739776">
        <ele>2126.0900000000001</ele>
        <time>2020-01-01T11:17:11Z</time>
      </trkpt>
      <trkpt lat="46.485968269407749" lon="9.20397425070405">
        <ele>2126.1900000000001</ele>
        <time>2020-01-01T11:17:36Z</time>
      </trkpt>
      <trkpt lat="46.485963826999068" lon="9.203966036438942">
        <ele>2125.9899999999998</ele>
        <time>2020-01-01T11:18:12Z</time>
      </trkpt>
      <trkpt lat="46.485964581370354" lon="9.203958492726088">
        <ele>2126.2199999999998</ele>
        <time>2020-01-01T11:18:51Z</time>
      </trkpt>
      <trkpt lat="46.485967431217432" lon="9.20395907945931">
        <ele>2126.3400000000001</ele>
        <time>2020-01-01T11:19:15Z</time>
      </trkpt>
      <trkpt lat="46.485979668796062" lon="9.203972406685352">
        <ele>2125.98</ele>
        <time>2020-01-01T11:19:41Z</time>
      </trkpt>
      <trkpt lat="46.486024679616094" lon="9.204021105542779">
        <ele>2126.75</ele>
        <time>2020-01-01T11:20:17Z</time>
      </trkpt>
      <trkpt lat="46.486136913299561" lon="9.204112971201539">
        <ele>2128.29</ele>
        <time>2020-01-01T11:20:37Z</time>
      </trkpt>
      <trkpt lat="46.486261887475848" lon="9.204212548211217">
        <ele>2128.9899999999998</ele>
        <time>2020-01-01T11:20:56Z</time>
      </trkpt>
      <trkpt lat="46.486390214413404" lon="9.204258229583502">
        <ele>2130.3000000000002</ele>
        <time>2020-01-01T11:21:14Z</time>
      </trkpt>
      <trkpt lat="46.486514434218407" lon="9.204324698075652">
        <ele>2131.1700000000001</ele>
        <time>2020-01-01T11:21:32Z</time>
      </trkpt>
      <trkpt lat="46.486644437536597" lon="9.204391418024898">
        <ele>2132.5999999999999</ele>
        <time>2020-01-01T11:21:51Z</time>
      </trkpt>
      <trkpt lat="46.486754911020398" lon="9.204474315047264">
        <ele>2134.2600000000002</ele>
        <time>2020-01-01T11:22:09Z</time>
      </trkpt>
      <trkpt lat="46.486866725608706" lon="9.204465514048934">
        <ele>2135.4899999999998</ele>
        <time>2020-01-01T11:22:26Z</time>
      </trkpt>
      <trkpt lat="46.48692648857832" lon="9.204486217349768">
        <ele>2136.1799999999998</ele>
        <time>2020-01-01T11:22:40Z</time>
      </trkpt>
      <trkpt lat="46.487012067809701" lon="9.204551093280315">
        <ele>2137.1900000000001</ele>
        <time>2020-01-01T11:22:54Z</time>
      </trkpt>
      <trkpt lat="46.487136036157608" lon="9.204657543450594">
        <ele>2139.2399999999998</ele>
        <time>2020-01-01T11:23:16Z</time>
      </trkpt>
      <trkpt lat="46.487304931506515" lon="9.204797018319368">
        <ele>2142.0500000000002</ele>
        <time>2020-01-01T11:23:45Z</time>
      </trkpt>
      <trkpt lat="46.487430492416024" lon="9.20491193421185">
        <ele>2143.75</ele>
        <time>2020-01-01T11:24:06Z</time>
      </trkpt>
      <trkpt lat="46.487537445500493" lon="9.205024084076285">
        <ele>2145.5300000000002</ele>
        <time>2020-01-01T11:24:24Z</time>
      </trkpt>
      <trkpt lat="46.487621683627367" lon="9.205109579488635">
        <ele>2146.6500000000001</ele>
        <time>2020-01-01T11:24:40Z</time>
      </trkpt>
      <trkpt lat="46.487715309485793" lon="9.205198930576444">
        <ele>2148.6999999999998</ele>
        <time>2020-01-01T11:24:58Z</time>
      </trkpt>
      <trkpt lat="46.487764762714505" lon="9.205307895317674">
        <ele>2150.98</ele>
        <time>2020-01-01T11:25:15Z</time>
      </trkpt>
      <trkpt lat="46.487824274227023" lon="9.205372855067253">
        <ele>2153.0799999999999</ele>
        <time>2020-01-01T11:25:30Z</time>
      </trkpt>
      <trkpt lat="46.487899208441377" lon="9.205460613593459">
        <ele>2156.2399999999998</ele>
        <time>2020-01-01T11:25:53Z</time>
      </trkpt>
      <trkpt lat="46.487921169027686" lon="9.205539403483272">
        <ele>2159.25</ele>
        <time>2020-01-01T11:26:12Z</time>
      </trkpt>
      <trkpt lat="46.487935585901141" lon="9.205608889460564">
        <ele>2162.3699999999999</ele>
        <time>2020-01-01T11:26:29Z</time>
      </trkpt>
      <trkpt lat="46.488003311678767" lon="9.205685500055552">
        <ele>2165.5700000000002</ele>
        <time>2020-01-01T11:26:49Z</time>
      </trkpt>
      <trkpt lat="46.487969867885113" lon="9.205779125913978">
        <ele>2168.5999999999999</ele>
        <time>2020-01-01T11:27:10Z</time>
      </trkpt>
      <trkpt lat="46.48792820982635" lon="9.205876523628831">
        <ele>2170.6300000000001</ele>
        <time>2020-01-01T11:27:24Z</time>
      </trkpt>
      <trkpt lat="46.487916056066751" lon="9.205931928008795">
        <ele>2171.6399999999999</ele>
        <time>2020-01-01T11:27:43Z</time>
      </trkpt>
      <trkpt lat="46.487933155149221" lon="9.205989008769393">
        <ele>2172.7800000000002</ele>
        <time>2020-01-01T11:28:04Z</time>
      </trkpt>
      <trkpt lat="46.488001216202974" lon="9.206113060936332">
        <ele>2175.1900000000001</ele>
        <time>2020-01-01T11:28:21Z</time>
      </trkpt>
      <trkpt lat="46.488056369125843" lon="9.206234430894256">
        <ele>2176.7800000000002</ele>
        <time>2020-01-01T11:28:36Z</time>
      </trkpt>
      <trkpt lat="46.488136919215322" lon="9.206384131684899">
        <ele>2177.23</ele>
        <time>2020-01-01T11:28:53Z</time>
      </trkpt>
      <trkpt lat="46.488201376050711" lon="9.206524612382054">
        <ele>2177.0700000000002</ele>
        <time>2020-01-01T11:29:09Z</time>
      </trkpt>
      <trkpt lat="46.488259546458721" lon="9.206689735874534">
        <ele>2178.1399999999999</ele>
        <time>2020-01-01T11:29:29Z</time>
      </trkpt>
      <trkpt lat="46.488298354670405" lon="9.206765173003078">
        <ele>2178.5500000000002</ele>
        <time>2020-01-01T11:29:48Z</time>
      </trkpt>
      <trkpt lat="46.488298019394279" lon="9.206763496622443">
        <ele>2178.2800000000002</ele>
        <time>2020-01-01T11:30:11Z</time>
      </trkpt>
      <trkpt lat="46.488283770158887" lon="9.206793587654829">
        <ele>2178.04</ele>
        <time>2020-01-01T11:30:44Z</time>
      </trkpt>
      <trkpt lat="46.488285614177585" lon="9.206785373389721">
        <ele>2178.1199999999999</ele>
        <time>2020-01-01T11:31:08Z</time>
      </trkpt>
      <trkpt lat="46.488280333578587" lon="9.206779925152659">
        <ele>2177.8499999999999</ele>
        <time>2020-01-01T11:31:48Z</time>
      </trkpt>
      <trkpt lat="46.488273041322827" lon="9.206771291792393">
        <ele>2177.8800000000001</ele>
        <time>2020-01-01T11:32:40Z</time>
      </trkpt>
      <trkpt lat="46.488281171768904" lon="9.206757880747318">
        <ele>2178.0799999999999</ele>
        <time>2020-01-01T11:33:26Z</time>
      </trkpt>
      <trkpt lat="46.488288715481758" lon="9.206752181053162">
        <ele>2177.8699999999999</ele>
        <time>2020-01-01T11:33:52Z</time>
      </trkpt>
      <trkpt lat="46.48828636854887" lon="9.206765340641141">
        <ele>2177.6399999999999</ele>
        <time>2020-01-01T11:34:28Z</time>
      </trkpt>
      <trkpt lat="46.488285278901458" lon="9.206762155517936">
        <ele>2177.71</ele>
        <time>2020-01-01T11:35:11Z</time>
      </trkpt>
      <trkpt lat="46.488284273073077" lon="9.206761568784714">
        <ele>2177.5700000000002</ele>
        <time>2020-01-01T11:35:43Z</time>
      </trkpt>
      <trkpt lat="46.488278908655047" lon="9.206762323155999">
        <ele>2177.5</ele>
        <time>2020-01-01T11:36:34Z</time>
      </trkpt>
      <trkpt lat="46.488299611955881" lon="9.206843040883541">
        <ele>2177.3499999999999</ele>
        <time>2020-01-01T11:36:50Z</time>
      </trkpt>
      <trkpt lat="46.48833766579628" lon="9.206972708925605">
        <ele>2178.8099999999999</ele>
        <time>2020-01-01T11:37:05Z</time>
      </trkpt>
      <trkpt lat="46.488445037975907" lon="9.207120230421424">
        <ele>2180.2399999999998</ele>
        <time>2020-01-01T11:37:26Z</time>
      </trkpt>
      <trkpt lat="46.488540088757873" lon="9.20726808719337">
        <ele>2181.8499999999999</ele>
        <time>2020-01-01T11:37:45Z</time>
      </trkpt>
      <trkpt lat="46.488616028800607" lon="9.207390462979674">
        <ele>2183.02</ele>
        <time>2020-01-01T11:38:03Z</time>
      </trkpt>
      <trkpt lat="46.488735051825643" lon="9.207541504874826">
        <ele>2185.0500000000002</ele>
        <time>2020-01-01T11:38:24Z</time>
      </trkpt>
      <trkpt lat="46.488811243325472" lon="9.207635214552283">
        <ele>2187.4499999999998</ele>
        <time>2020-01-01T11:38:38Z</time>
      </trkpt>
      <trkpt lat="46.488887183368206" lon="9.207721883431077">
        <ele>2189.0799999999999</ele>
        <time>2020-01-01T11:38:52Z</time>
      </trkpt>
      <trkpt lat="46.488990364596248" lon="9.207789860665798">
        <ele>2191.1700000000001</ele>
        <time>2020-01-01T11:39:08Z</time>
      </trkpt>
      <trkpt lat="46.489089606329799" lon="9.207901423797011">
        <ele>2193.23</ele>
        <time>2020-01-01T11:39:26Z</time>
      </trkpt>
      <trkpt lat="46.489187087863684" lon="9.207999659702182">
        <ele>2194.5100000000002</ele>
        <time>2020-01-01T11:39:42Z</time>
      </trkpt>
      <trkpt lat="46.489302255213261" lon="9.208153383806348">
        <ele>2196.2600000000002</ele>
        <time>2020-01-01T11:40:05Z</time>
      </trkpt>
      <trkpt lat="46.489403005689383" lon="9.208290679380298">
        <ele>2198.3200000000002</ele>
        <time>2020-01-01T11:40:26Z</time>
      </trkpt>
      <trkpt lat="46.489494200795889" lon="9.208401069045067">
        <ele>2200.0100000000002</ele>
        <time>2020-01-01T11:40:43Z</time>
      </trkpt>
      <trkpt lat="46.489594280719757" lon="9.208523277193308">
        <ele>2201.8600000000001</ele>
        <time>2020-01-01T11:41:03Z</time>
      </trkpt>
      <trkpt lat="46.489603919908404" lon="9.208514308556914">
        <ele>2201.8000000000002</ele>
        <time>2020-01-01T11:41:25Z</time>
      </trkpt>
      <trkpt lat="46.489608529955149" lon="9.208525959402323">
        <ele>2202.21</ele>
        <time>2020-01-01T11:41:43Z</time>
      </trkpt>
      <trkpt lat="46.489606099203229" lon="9.208534844219685">
        <ele>2201.8499999999999</ele>
        <time>2020-01-01T11:42:09Z</time>
      </trkpt>
      <trkpt lat="46.48960224352777" lon="9.208537861704826">
        <ele>2201.8099999999999</ele>
        <time>2020-01-01T11:42:42Z</time>
      </trkpt>
      <trkpt lat="46.489643566310406" lon="9.208577843382955">
        <ele>2202.5599999999999</ele>
        <time>2020-01-01T11:43:02Z</time>
      </trkpt>
      <trkpt lat="46.489723781123757" lon="9.208648251369596">
        <ele>2203.9899999999998</ele>
        <time>2020-01-01T11:43:19Z</time>
      </trkpt>
      <trkpt lat="46.489794943481684" lon="9.20871639624238">
        <ele>2204.9699999999998</ele>
        <time>2020-01-01T11:43:35Z</time>
      </trkpt>
      <trkpt lat="46.489905752241611" lon="9.208797784522176">
        <ele>2207.4000000000001</ele>
        <time>2020-01-01T11:43:54Z</time>
      </trkpt>
      <trkpt lat="46.490005077794194" lon="9.208897612988949">
        <ele>2210.4299999999998</ele>
        <time>2020-01-01T11:44:13Z</time>
      </trkpt>
      <trkpt lat="46.490144217386842" lon="9.209021413698793">
        <ele>2213.4499999999998</ele>
        <time>2020-01-01T11:44:36Z</time>
      </trkpt>
      <trkpt lat="46.490198615938425" lon="9.209073465317488">
        <ele>2215.0500000000002</ele>
        <time>2020-01-01T11:44:51Z</time>
      </trkpt>
      <trkpt lat="46.490327110514045" lon="9.209200032055378">
        <ele>2218.0999999999999</ele>
        <time>2020-01-01T11:45:13Z</time>
      </trkpt>
      <trkpt lat="46.490328703075647" lon="9.209240935742855">
        <ele>2218.8699999999999</ele>
        <time>2020-01-01T11:45:43Z</time>
      </trkpt>
      <trkpt lat="46.490327948704362" lon="9.209257531911135">
        <ele>2218.5700000000002</ele>
        <time>2020-01-01T11:46:13Z</time>
      </trkpt>
      <trkpt lat="46.490320404991508" lon="9.209252754226327">
        <ele>2218.5700000000002</ele>
        <time>2020-01-01T11:46:48Z</time>
      </trkpt>
      <trkpt lat="46.490332391113043" lon="9.20927882194519">
        <ele>2218.6300000000001</ele>
        <time>2020-01-01T11:47:15Z</time>
      </trkpt>
      <trkpt lat="46.490332474932075" lon="9.209285108372569">
        <ele>2219.0799999999999</ele>
        <time>2020-01-01T11:47:34Z</time>
      </trkpt>
      <trkpt lat="46.49035032838583" lon="9.209313103929162">
        <ele>2219.2199999999998</ele>
        <time>2020-01-01T11:47:55Z</time>
      </trkpt>
      <trkpt lat="46.490392070263624" lon="9.2093525826931">
        <ele>2220.0500000000002</ele>
        <time>2020-01-01T11:48:11Z</time>
      </trkpt>
      <trkpt lat="46.49046172387898" lon="9.209447298198938">
        <ele>2222.0799999999999</ele>
        <time>2020-01-01T11:48:30Z</time>
      </trkpt>
      <trkpt lat="46.490520564839244" lon="9.209572188556194">
        <ele>2223.48</ele>
        <time>2020-01-01T11:48:48Z</time>
      </trkpt>
      <trkpt lat="46.490645706653595" lon="9.209705293178558">
        <ele>2224.3899999999999</ele>
        <time>2020-01-01T11:49:10Z</time>
      </trkpt>
      <trkpt lat="46.490754252299666" lon="9.209827920421958">
        <ele>2224.4299999999998</ele>
        <time>2020-01-01T11:49:27Z</time>
      </trkpt>
      <trkpt lat="46.49085165001452" lon="9.209967060014606">
        <ele>2225.4499999999998</ele>
        <time>2020-01-01T11:49:47Z</time>
      </trkpt>
      <trkpt lat="46.490928679704666" lon="9.21007183380425">
        <ele>2225.29</ele>
        <time>2020-01-01T11:50:03Z</time>
      </trkpt>
      <trkpt lat="46.491022724658251" lon="9.210232682526112">
        <ele>2225.8200000000002</ele>
        <time>2020-01-01T11:50:20Z</time>
      </trkpt>
      <trkpt lat="46.491137892007828" lon="9.210420520976186">
        <ele>2225.2199999999998</ele>
        <time>2020-01-01T11:50:41Z</time>
      </trkpt>
      <trkpt lat="46.491239229217172" lon="9.210636354982853">
        <ele>2224.6599999999999</ele>
        <time>2020-01-01T11:51:03Z</time>
      </trkpt>
      <trkpt lat="46.491311397403479" lon="9.210813548415899">
        <ele>2224.0700000000002</ele>
        <time>2020-01-01T11:51:21Z</time>
      </trkpt>
      <trkpt lat="46.49138767272234" lon="9.210961489006877">
        <ele>2223.5799999999999</ele>
        <time>2020-01-01T11:51:42Z</time>
      </trkpt>
      <trkpt lat="46.49142530746758" lon="9.211005661636591">
        <ele>2223.6500000000001</ele>
        <time>2020-01-01T11:52:02Z</time>
      </trkpt>
      <trkpt lat="46.491505857557058" lon="9.211081182584167">
        <ele>2223.1999999999998</ele>
        <time>2020-01-01T11:52:19Z</time>
      </trkpt>
      <trkpt lat="46.491618761792779" lon="9.211250245571137">
        <ele>2221.3400000000001</ele>
        <time>2020-01-01T11:52:39Z</time>
      </trkpt>
      <trkpt lat="46.491713225841522" lon="9.211409669369459">
        <ele>2221.5</ele>
        <time>2020-01-01T11:52:57Z</time>
      </trkpt>
      <trkpt lat="46.491804840043187" lon="9.211566410958767">
        <ele>2222.0799999999999</ele>
        <time>2020-01-01T11:53:15Z</time>
      </trkpt>
      <trkpt lat="46.491901483386755" lon="9.211721811443567">
        <ele>2222.3099999999999</ele>
        <time>2020-01-01T11:53:34Z</time>
      </trkpt>
      <trkpt lat="46.492045987397432" lon="9.21194770373404">
        <ele>2223.0500000000002</ele>
        <time>2020-01-01T11:54:01Z</time>
      </trkpt>
      <trkpt lat="46.492115389555693" lon="9.212066978216171">
        <ele>2223.8200000000002</ele>
        <time>2020-01-01T11:54:15Z</time>
      </trkpt>
      <trkpt lat="46.492168782278895" lon="9.212152557447553">
        <ele>2224.5599999999999</ele>
        <time>2020-01-01T11:54:31Z</time>
      </trkpt>
      <trkpt lat="46.492158807814121" lon="9.212151551619172">
        <ele>2224.8499999999999</ele>
        <time>2020-01-01T11:55:07Z</time>
      </trkpt>
      <trkpt lat="46.492181438952684" lon="9.212201926857233">
        <ele>2225.1300000000001</ele>
        <time>2020-01-01T11:55:23Z</time>
      </trkpt>
      <trkpt lat="46.492302557453513" lon="9.212403343990445">
        <ele>2226.3699999999999</ele>
        <time>2020-01-01T11:55:47Z</time>
      </trkpt>
      <trkpt lat="46.492380676791072" lon="9.2125697247684">
        <ele>2226.6700000000001</ele>
        <time>2020-01-01T11:56:03Z</time>
      </trkpt>
      <trkpt lat="46.49245535954833" lon="9.212755216285586">
        <ele>2226.5599999999999</ele>
        <time>2020-01-01T11:56:20Z</time>
      </trkpt>
      <trkpt lat="46.492533311247826" lon="9.212918831035495">
        <ele>2225.6799999999998</ele>
        <time>2020-01-01T11:56:36Z</time>
      </trkpt>
      <trkpt lat="46.492613777518272" lon="9.213072219863534">
        <ele>2225.04</ele>
        <time>2020-01-01T11:56:52Z</time>
      </trkpt>
      <trkpt lat="46.492687286809087" lon="9.213233236223459">
        <ele>2223.8499999999999</ele>
        <time>2020-01-01T11:57:08Z</time>
      </trkpt>
      <trkpt lat="46.492715952917933" lon="9.213311523199081">
        <ele>2223.3400000000001</ele>
        <time>2020-01-01T11:57:22Z</time>
      </trkpt>
      <trkpt lat="46.492799855768681" lon="9.213513359427452">
        <ele>2222.6599999999999</ele>
        <time>2020-01-01T11:57:41Z</time>
      </trkpt>
      <trkpt lat="46.492805304005742" lon="9.213522244244814">
        <ele>2222.5700000000002</ele>
        <time>2020-01-01T11:57:42Z</time>
      </trkpt>
      <trkpt lat="46.492870599031448" lon="9.213709328323603">
        <ele>2222.54</ele>
        <time>2020-01-01T11:57:59Z</time>
      </trkpt>
      <trkpt lat="46.492945952340961" lon="9.213850982487202">
        <ele>2222.3899999999999</ele>
        <time>2020-01-01T11:58:15Z</time>
      </trkpt>
      <trkpt lat="46.493044188246131" lon="9.214087352156639">
        <ele>2222.04</ele>
        <time>2020-01-01T11:58:39Z</time>
      </trkpt>
      <trkpt lat="46.493139071390033" lon="9.214282482862473">
        <ele>2221.2199999999998</ele>
        <time>2020-01-01T11:58:59Z</time>
      </trkpt>
      <trkpt lat="46.493179053068161" lon="9.214468896389008">
        <ele>2220.8000000000002</ele>
        <time>2020-01-01T11:59:16Z</time>
      </trkpt>
      <trkpt lat="46.493238648399711" lon="9.214632511138916">
        <ele>2221.77</ele>
        <time>2020-01-01T11:59:35Z</time>
      </trkpt>
      <trkpt lat="46.493318863213062" lon="9.214750695973635">
        <ele>2224.8299999999999</ele>
        <time>2020-01-01T11:59:57Z</time>
      </trkpt>
      <trkpt lat="46.493387678638101" lon="9.214850105345249">
        <ele>2227.8400000000001</ele>
        <time>2020-01-01T12:00:17Z</time>
      </trkpt>
      <trkpt lat="46.493403268978" lon="9.214884303510189">
        <ele>2228.3400000000001</ele>
        <time>2020-01-01T12:00:37Z</time>
      </trkpt>
      <trkpt lat="46.493412237614393" lon="9.21488631516695">
        <ele>2227.6199999999999</ele>
        <time>2020-01-01T12:00:59Z</time>
      </trkpt>
      <trkpt lat="46.493400251492858" lon="9.214891009032726">
        <ele>2227.75</ele>
        <time>2020-01-01T12:01:25Z</time>
      </trkpt>
      <trkpt lat="46.493420200422406" lon="9.214900899678469">
        <ele>2227.9000000000001</ele>
        <time>2020-01-01T12:01:56Z</time>
      </trkpt>
      <trkpt lat="46.493426403030753" lon="9.214864606037736">
        <ele>2229.04</ele>
        <time>2020-01-01T12:02:24Z</time>
      </trkpt>
      <trkpt lat="46.493408801034093" lon="9.214882459491491">
        <ele>2229.0599999999999</ele>
        <time>2020-01-01T12:02:46Z</time>
      </trkpt>
      <trkpt lat="46.493480214849114" lon="9.215038446709514">
        <ele>2231.71</ele>
        <time>2020-01-01T12:03:09Z</time>
      </trkpt>
      <trkpt lat="46.49356747046113" lon="9.21517021022737">
        <ele>2233.1700000000001</ele>
        <time>2020-01-01T12:03:29Z</time>
      </trkpt>
      <trkpt lat="46.493608793243766" lon="9.215294178575277">
        <ele>2233.6799999999998</ele>
        <time>2020-01-01T12:03:49Z</time>
      </trkpt>
      <trkpt lat="46.493658749386668" lon="9.215444214642048">
        <ele>2233.5500000000002</ele>
        <time>2020-01-01T12:04:05Z</time>
      </trkpt>
      <trkpt lat="46.493713315576315" lon="9.21559383161366">
        <ele>2233.4899999999998</ele>
        <time>2020-01-01T12:04:23Z</time>
      </trkpt>
      <trkpt lat="46.493735779076815" lon="9.215648984536529">
        <ele>2233.8699999999999</ele>
        <time>2020-01-01T12:04:41Z</time>
      </trkpt>
      <trkpt lat="46.49373066611588" lon="9.215651750564575">
        <ele>2233.8600000000001</ele>
        <time>2020-01-01T12:05:02Z</time>
      </trkpt>
      <trkpt lat="46.493743658065796" lon="9.21571645885706">
        <ele>2231.8200000000002</ele>
        <time>2020-01-01T12:05:26Z</time>
      </trkpt>
      <trkpt lat="46.493736617267132" lon="9.215768594294787">
        <ele>2230.2800000000002</ele>
        <time>2020-01-01T12:05:43Z</time>
      </trkpt>
      <trkpt lat="46.493755811825395" lon="9.215847468003631">
        <ele>2229.2600000000002</ele>
        <time>2020-01-01T12:06:04Z</time>
      </trkpt>
      <trkpt lat="46.493842480704188" lon="9.216042598709464">
        <ele>2228.0700000000002</ele>
        <time>2020-01-01T12:06:27Z</time>
      </trkpt>
      <trkpt lat="46.493893275037408" lon="9.216125914826989">
        <ele>2228.9299999999998</ele>
        <time>2020-01-01T12:06:52Z</time>
      </trkpt>
      <trkpt lat="46.493904255330563" lon="9.216148210689426">
        <ele>2228.9699999999998</ele>
        <time>2020-01-01T12:07:09Z</time>
      </trkpt>
      <trkpt lat="46.49399452842772" lon="9.216301599517465">
        <ele>2230.25</ele>
        <time>2020-01-01T12:07:35Z</time>
      </trkpt>
      <trkpt lat="46.494062086567283" lon="9.216433865949512">
        <ele>2231.5300000000002</ele>
        <time>2020-01-01T12:08:00Z</time>
      </trkpt>
      <trkpt lat="46.494022607803345" lon="9.216422801837325">
        <ele>2231.5799999999999</ele>
        <time>2020-01-01T12:08:27Z</time>
      </trkpt>
      <trkpt lat="46.494068205356598" lon="9.216531766578555">
        <ele>2232.4400000000001</ele>
        <time>2020-01-01T12:08:50Z</time>
      </trkpt>
      <trkpt lat="46.494089579209685" lon="9.216598570346832">
        <ele>2232.8899999999999</ele>
        <time>2020-01-01T12:09:13Z</time>
      </trkpt>
      <trkpt lat="46.494154119864106" lon="9.21671524643898">
        <ele>2234.5300000000002</ele>
        <time>2020-01-01T12:09:32Z</time>
      </trkpt>
      <trkpt lat="46.494274819269776" lon="9.216918256133795">
        <ele>2236.1900000000001</ele>
        <time>2020-01-01T12:09:59Z</time>
      </trkpt>
      <trkpt lat="46.494368026033044" lon="9.217090168967843">
        <ele>2237.6300000000001</ele>
        <time>2020-01-01T12:10:23Z</time>
      </trkpt>
      <trkpt lat="46.494454108178616" lon="9.217209359630942">
        <ele>2239.25</ele>
        <time>2020-01-01T12:10:48Z</time>
      </trkpt>
      <trkpt lat="46.494447821751237" lon="9.217199217528105">
        <ele>2239.1399999999999</ele>
        <time>2020-01-01T12:11:12Z</time>
      </trkpt>
      <trkpt lat="46.494425609707832" lon="9.217192847281694">
        <ele>2239.25</ele>
        <time>2020-01-01T12:11:36Z</time>
      </trkpt>
      <trkpt lat="46.494471123442054" lon="9.217271553352475">
        <ele>2240.0100000000002</ele>
        <time>2020-01-01T12:11:55Z</time>
      </trkpt>
      <trkpt lat="46.494545135647058" lon="9.217475317418575">
        <ele>2240.5900000000001</ele>
        <time>2020-01-01T12:12:22Z</time>
      </trkpt>
      <trkpt lat="46.494569443166256" lon="9.21764069236815">
        <ele>2241.1599999999999</ele>
        <time>2020-01-01T12:12:40Z</time>
      </trkpt>
      <trkpt lat="46.494568353518844" lon="9.217834817245603">
        <ele>2241.46</ele>
        <time>2020-01-01T12:13:01Z</time>
      </trkpt>
      <trkpt lat="46.494528455659747" lon="9.217985607683659">
        <ele>2242.1999999999998</ele>
        <time>2020-01-01T12:13:19Z</time>
      </trkpt>
      <trkpt lat="46.494517223909497" lon="9.218100188300014">
        <ele>2244.1900000000001</ele>
        <time>2020-01-01T12:13:35Z</time>
      </trkpt>
      <trkpt lat="46.494506997987628" lon="9.218172775581479">
        <ele>2244.52</ele>
        <time>2020-01-01T12:13:58Z</time>
      </trkpt>
      <trkpt lat="46.494505992159247" lon="9.218317028135061">
        <ele>2245.4699999999998</ele>
        <time>2020-01-01T12:14:18Z</time>
      </trkpt>
      <trkpt lat="46.494509596377611" lon="9.218420377001166">
        <ele>2246.1799999999998</ele>
        <time>2020-01-01T12:14:39Z</time>
      </trkpt>
      <trkpt lat="46.494511943310499" lon="9.218464298173785">
        <ele>2246.6599999999999</ele>
        <time>2020-01-01T12:14:57Z</time>
      </trkpt>
      <trkpt lat="46.494513284415007" lon="9.218477625399828">
        <ele>2246.7600000000002</ele>
        <time>2020-01-01T12:15:19Z</time>
      </trkpt>
      <trkpt lat="46.49451831355691" lon="9.218496819958091">
        <ele>2246.5999999999999</ele>
        <time>2020-01-01T12:15:49Z</time>
      </trkpt>
      <trkpt lat="46.494511943310499" lon="9.218681557103992">
        <ele>2246.9000000000001</ele>
        <time>2020-01-01T12:16:04Z</time>
      </trkpt>
      <trkpt lat="46.494511272758245" lon="9.218902168795466">
        <ele>2248.0900000000001</ele>
        <time>2020-01-01T12:16:23Z</time>
      </trkpt>
      <trkpt lat="46.494513116776943" lon="9.219079781323671">
        <ele>2248.5900000000001</ele>
        <time>2020-01-01T12:16:39Z</time>
      </trkpt>
      <trkpt lat="46.494520073756576" lon="9.219249179586768">
        <ele>2249.9000000000001</ele>
        <time>2020-01-01T12:16:55Z</time>
      </trkpt>
      <trkpt lat="46.49452175013721" lon="9.219434671103954">
        <ele>2251.27</ele>
        <time>2020-01-01T12:17:12Z</time>
      </trkpt>
      <trkpt lat="46.494514038786292" lon="9.219595855101943">
        <ele>2252.9499999999998</ele>
        <time>2020-01-01T12:17:29Z</time>
      </trkpt>
      <trkpt lat="46.494495430961251" lon="9.219708507880569">
        <ele>2255.7399999999998</ele>
        <time>2020-01-01T12:17:46Z</time>
      </trkpt>
      <trkpt lat="46.494473470374942" lon="9.219800038263202">
        <ele>2258.8400000000001</ele>
        <time>2020-01-01T12:18:03Z</time>
      </trkpt>
      <trkpt lat="46.494448073208332" lon="9.21986248344183">
        <ele>2260.48</ele>
        <time>2020-01-01T12:18:18Z</time>
      </trkpt>
      <trkpt lat="46.494416054338217" lon="9.219884779304266">
        <ele>2262.0599999999999</ele>
        <time>2020-01-01T12:18:33Z</time>
      </trkpt>
      <trkpt lat="46.494413958862424" lon="9.219884779304266">
        <ele>2261.73</ele>
        <time>2020-01-01T12:18:55Z</time>
      </trkpt>
      <trkpt lat="46.494388813152909" lon="9.219853430986404">
        <ele>2262.96</ele>
        <time>2020-01-01T12:19:17Z</time>
      </trkpt>
      <trkpt lat="46.494365930557251" lon="9.219825183972716">
        <ele>2263.4200000000001</ele>
        <time>2020-01-01T12:19:49Z</time>
      </trkpt>
      <trkpt lat="46.49429845623672" lon="9.219769360497594">
        <ele>2266.46</ele>
        <time>2020-01-01T12:20:06Z</time>
      </trkpt>
      <trkpt lat="46.494241459295154" lon="9.219709681347013">
        <ele>2268.9400000000001</ele>
        <time>2020-01-01T12:20:26Z</time>
      </trkpt>
      <trkpt lat="46.494208350777626" lon="9.219663999974728">
        <ele>2270.21</ele>
        <time>2020-01-01T12:20:43Z</time>
      </trkpt>
      <trkpt lat="46.494137020781636" lon="9.219602309167385">
        <ele>2273.2800000000002</ele>
        <time>2020-01-01T12:20:59Z</time>
      </trkpt>
      <trkpt lat="46.494121011346579" lon="9.219618486240506">
        <ele>2273.3099999999999</ele>
        <time>2020-01-01T12:21:15Z</time>
      </trkpt>
      <trkpt lat="46.494112629443407" lon="9.219626029953361">
        <ele>2273.54</ele>
        <time>2020-01-01T12:21:47Z</time>
      </trkpt>
      <trkpt lat="46.494119502604008" lon="9.219644889235497">
        <ele>2273.4299999999998</ele>
        <time>2020-01-01T12:22:18Z</time>
      </trkpt>
      <trkpt lat="46.494110450148582" lon="9.219645811244845">
        <ele>2273.3200000000002</ele>
        <time>2020-01-01T12:22:46Z</time>
      </trkpt>
      <trkpt lat="46.494098380208015" lon="9.219631142914295">
        <ele>2273.5999999999999</ele>
        <time>2020-01-01T12:23:24Z</time>
      </trkpt>
      <trkpt lat="46.494115814566612" lon="9.21963969245553">
        <ele>2273.4299999999998</ele>
        <time>2020-01-01T12:24:09Z</time>
      </trkpt>
      <trkpt lat="46.494119502604008" lon="9.219630975276232">
        <ele>2273.5100000000002</ele>
        <time>2020-01-01T12:24:29Z</time>
      </trkpt>
      <trkpt lat="46.494099805131555" lon="9.219617312774062">
        <ele>2274.2199999999998</ele>
        <time>2020-01-01T12:25:14Z</time>
      </trkpt>
      <trkpt lat="46.494023529812694" lon="9.219536259770393">
        <ele>2277.2600000000002</ele>
        <time>2020-01-01T12:25:32Z</time>
      </trkpt>
      <trkpt lat="46.493951361626387" lon="9.219489488750696">
        <ele>2279.3299999999999</ele>
        <time>2020-01-01T12:25:50Z</time>
      </trkpt>
      <trkpt lat="46.493905512616038" lon="9.219461493194103">
        <ele>2280.0799999999999</ele>
        <time>2020-01-01T12:26:07Z</time>
      </trkpt>
      <trkpt lat="46.493882797658443" lon="9.219421595335007">
        <ele>2281.1500000000001</ele>
        <time>2020-01-01T12:26:35Z</time>
      </trkpt>
      <trkpt lat="46.493809288367629" lon="9.219386391341686">
        <ele>2283.1999999999998</ele>
        <time>2020-01-01T12:26:52Z</time>
      </trkpt>
      <trkpt lat="46.493812976405025" lon="9.219403993338347">
        <ele>2282.9200000000001</ele>
        <time>2020-01-01T12:27:11Z</time>
      </trkpt>
      <trkpt lat="46.493789087980986" lon="9.219383876770735">
        <ele>2283.8699999999999</ele>
        <time>2020-01-01T12:27:43Z</time>
      </trkpt>
      <trkpt lat="46.49369889870286" lon="9.219318330287933">
        <ele>2286.98</ele>
        <time>2020-01-01T12:27:59Z</time>
      </trkpt>
      <trkpt lat="46.493591861799359" lon="9.219256220385432">
        <ele>2289.8800000000001</ele>
        <time>2020-01-01T12:28:15Z</time>
      </trkpt>
      <trkpt lat="46.493501923978329" lon="9.219162007793784">
        <ele>2292.1399999999999</ele>
        <time>2020-01-01T12:28:32Z</time>
      </trkpt>
      <trkpt lat="46.493439897894859" lon="9.219120349735022">
        <ele>2292.02</ele>
        <time>2020-01-01T12:28:41Z</time>
      </trkpt>
      <trkpt lat="46.493418356403708" lon="9.219109453260899">
        <ele>2291.4200000000001</ele>
        <time>2020-01-01T12:29:02Z</time>
      </trkpt>
      <trkpt lat="46.493355827406049" lon="9.219043152406812">
        <ele>2292.2199999999998</ele>
        <time>2020-01-01T12:29:24Z</time>
      </trkpt>
      <trkpt lat="46.493321377784014" lon="9.219004344195128">
        <ele>2293.7399999999998</ele>
        <time>2020-01-01T12:29:38Z</time>
      </trkpt>
      <trkpt lat="46.493304865434766" lon="9.218994956463575">
        <ele>2294.4899999999998</ele>
        <time>2020-01-01T12:29:57Z</time>
      </trkpt>
      <trkpt lat="46.493301428854465" lon="9.218989927321672">
        <ele>2294.2399999999998</ele>
        <time>2020-01-01T12:30:31Z</time>
      </trkpt>
      <trkpt lat="46.493276953697205" lon="9.21897660009563">
        <ele>2293.73</ele>
        <time>2020-01-01T12:30:48Z</time>
      </trkpt>
      <trkpt lat="46.493176035583019" lon="9.218906359747052">
        <ele>2291.75</ele>
        <time>2020-01-01T12:31:07Z</time>
      </trkpt>
      <trkpt lat="46.493125660344958" lon="9.218880292028189">
        <ele>2290.9499999999998</ele>
        <time>2020-01-01T12:31:23Z</time>
      </trkpt>
      <trkpt lat="46.493126917630434" lon="9.218893200159073">
        <ele>2291.5500000000002</ele>
        <time>2020-01-01T12:31:43Z</time>
      </trkpt>
      <trkpt lat="46.493117697536945" lon="9.218895211815834">
        <ele>2291.46</ele>
        <time>2020-01-01T12:32:04Z</time>
      </trkpt>
      <trkpt lat="46.493115434423089" lon="9.21885053627193">
        <ele>2293.02</ele>
        <time>2020-01-01T12:32:18Z</time>
      </trkpt>
      <trkpt lat="46.493127839639783" lon="9.218849949538708">
        <ele>2292.75</ele>
        <time>2020-01-01T12:32:37Z</time>
      </trkpt>
      <trkpt lat="46.493147201836109" lon="9.218881968408823">
        <ele>2292.3000000000002</ele>
        <time>2020-01-01T12:33:12Z</time>
      </trkpt>
      <trkpt lat="46.493123900145292" lon="9.218901079148054">
        <ele>2291.3200000000002</ele>
        <time>2020-01-01T12:33:28Z</time>
      </trkpt>
      <trkpt lat="46.493118200451136" lon="9.218899989500642">
        <ele>2291.25</ele>
        <time>2020-01-01T12:33:54Z</time>
      </trkpt>
      <trkpt lat="46.493123229593039" lon="9.218885404989123">
        <ele>2291.0999999999999</ele>
        <time>2020-01-01T12:34:05Z</time>
      </trkpt>
      <trkpt lat="46.493123983964324" lon="9.218866713345051">
        <ele>2291.0999999999999</ele>
        <time>2020-01-01T12:34:34Z</time>
      </trkpt>
      <trkpt lat="46.493124989792705" lon="9.218869479373097">
        <ele>2291.1100000000001</ele>
        <time>2020-01-01T12:35:35Z</time>
      </trkpt>
      <trkpt lat="46.4931286778301" lon="9.21887937001884">
        <ele>2291.0300000000002</ele>
        <time>2020-01-01T12:36:03Z</time>
      </trkpt>
      <trkpt lat="46.493133958429098" lon="9.218872496858239">
        <ele>2291.0799999999999</ele>
        <time>2020-01-01T12:37:16Z</time>
      </trkpt>
      <trkpt lat="46.493134293705225" lon="9.218876017257571">
        <ele>2291.0500000000002</ele>
        <time>2020-01-01T12:38:28Z</time>
      </trkpt>
      <trkpt lat="46.49313110858202" lon="9.218877023085952">
        <ele>2291.0999999999999</ele>
        <time>2020-01-01T12:39:29Z</time>
      </trkpt>
      <trkpt lat="46.49310227483511" lon="9.218879286199808">
        <ele>2291.21</ele>
        <time>2020-01-01T12:39:58Z</time>
      </trkpt>
      <trkpt lat="46.493121385574341" lon="9.218872832134366">
        <ele>2291.4200000000001</ele>
        <time>2020-01-01T12:40:36Z</time>
      </trkpt>
      <trkpt lat="46.493101436644793" lon="9.218883309513331">
        <ele>2291.3299999999999</ele>
        <time>2020-01-01T12:41:08Z</time>
      </trkpt>
      <trkpt lat="46.493088277056813" lon="9.218894876539707">
        <ele>2291.27</ele>
        <time>2020-01-01T12:41:37Z</time>
      </trkpt>
      <trkpt lat="46.493099424988031" lon="9.218874759972096">
        <ele>2291.4000000000001</ele>
        <time>2020-01-01T12:42:11Z</time>
      </trkpt>
      <trkpt lat="46.493106130510569" lon="9.218873754143715">
        <ele>2291.5500000000002</ele>
        <time>2020-01-01T12:42:38Z</time>
      </trkpt>
      <trkpt lat="46.493078973144293" lon="9.218883393332362">
        <ele>2291.4899999999998</ele>
        <time>2020-01-01T12:43:21Z</time>
      </trkpt>
      <trkpt lat="46.493080649524927" lon="9.218872580677271">
        <ele>2290.96</ele>
        <time>2020-01-01T12:44:02Z</time>
      </trkpt>
      <trkpt lat="46.493085762485862" lon="9.218883477151394">
        <ele>2291.0599999999999</ele>
        <time>2020-01-01T12:45:07Z</time>
      </trkpt>
      <trkpt lat="46.493080230429769" lon="9.218889428302646">
        <ele>2291.0799999999999</ele>
        <time>2020-01-01T12:46:00Z</time>
      </trkpt>
      <trkpt lat="46.493093222379684" lon="9.218881214037538">
        <ele>2291.1300000000001</ele>
        <time>2020-01-01T12:46:47Z</time>
      </trkpt>
      <trkpt lat="46.493092719465494" lon="9.218898480758071">
        <ele>2291.1599999999999</ele>
        <time>2020-01-01T12:48:10Z</time>
      </trkpt>
      <trkpt lat="46.493086852133274" lon="9.218897642567754">
        <ele>2290.9899999999998</ele>
        <time>2020-01-01T12:49:24Z</time>
      </trkpt>
      <trkpt lat="46.493087271228433" lon="9.218889260664582">
        <ele>2290.9099999999999</ele>
        <time>2020-01-01T12:50:17Z</time>
      </trkpt>
      <trkpt lat="46.493088444694877" lon="9.218890015035868">
        <ele>2290.8899999999999</ele>
        <time>2020-01-01T12:50:56Z</time>
      </trkpt>
      <trkpt lat="46.493100263178349" lon="9.218886578455567">
        <ele>2290.3299999999999</ele>
        <time>2020-01-01T12:52:00Z</time>
      </trkpt>
      <trkpt lat="46.49309054017067" lon="9.218904683366418">
        <ele>2290.5799999999999</ele>
        <time>2020-01-01T12:53:08Z</time>
      </trkpt>
      <trkpt lat="46.493078386411071" lon="9.218911221250892">
        <ele>2290.5100000000002</ele>
        <time>2020-01-01T12:53:38Z</time>
      </trkpt>
      <trkpt lat="46.493077799677849" lon="9.218898313120008">
        <ele>2290.4299999999998</ele>
        <time>2020-01-01T12:54:06Z</time>
      </trkpt>
      <trkpt lat="46.49307494983077" lon="9.218917926773429">
        <ele>2289.9499999999998</ele>
        <time>2020-01-01T12:54:57Z</time>
      </trkpt>
      <trkpt lat="46.493068998679519" lon="9.218922788277268">
        <ele>2289.9299999999998</ele>
        <time>2020-01-01T12:55:37Z</time>
      </trkpt>
      <trkpt lat="46.493072519078851" lon="9.2189159989357">
        <ele>2289.7800000000002</ele>
        <time>2020-01-01T12:56:40Z</time>
      </trkpt>
      <trkpt lat="46.49308517575264" lon="9.21890527009964">
        <ele>2289.3400000000001</ele>
        <time>2020-01-01T12:57:52Z</time>
      </trkpt>
      <trkpt lat="46.493077464401722" lon="9.218909209594131">
        <ele>2289.1300000000001</ele>
        <time>2020-01-01T12:58:23Z</time>
      </trkpt>
      <trkpt lat="46.493081152439117" lon="9.218902001157403">
        <ele>2288.98</ele>
        <time>2020-01-01T12:58:53Z</time>
      </trkpt>
      <trkpt lat="46.493083918467164" lon="9.218898313120008">
        <ele>2288.8099999999999</ele>
        <time>2020-01-01T12:59:36Z</time>
      </trkpt>
      <trkpt lat="46.493085762485862" lon="9.218897558748722">
        <ele>2288.98</ele>
        <time>2020-01-01T13:00:14Z</time>
      </trkpt>
      <trkpt lat="46.493093641474843" lon="9.218890266492963">
        <ele>2288.6900000000001</ele>
        <time>2020-01-01T13:00:45Z</time>
      </trkpt>
      <trkpt lat="46.493103364482522" lon="9.218870652839541">
        <ele>2288.4499999999998</ele>
        <time>2020-01-01T13:01:16Z</time>
      </trkpt>
      <trkpt lat="46.49309741333127" lon="9.218879956752062">
        <ele>2288.8400000000001</ele>
        <time>2020-01-01T13:01:44Z</time>
      </trkpt>
      <trkpt lat="46.493095736950636" lon="9.218889679759741">
        <ele>2288.6999999999998</ele>
        <time>2020-01-01T13:02:15Z</time>
      </trkpt>
      <trkpt lat="46.493103615939617" lon="9.218883477151394">
        <ele>2288.1900000000001</ele>
        <time>2020-01-01T13:03:15Z</time>
      </trkpt>
      <trkpt lat="46.493110656738281" lon="9.218871491029859">
        <ele>2288.3699999999999</ele>
        <time>2020-01-01T13:03:48Z</time>
      </trkpt>
      <trkpt lat="46.493100095540285" lon="9.218878783285618">
        <ele>2288.4899999999998</ele>
        <time>2020-01-01T13:04:18Z</time>
      </trkpt>
      <trkpt lat="46.493104621767998" lon="9.218875430524349">
        <ele>2288.0100000000002</ele>
        <time>2020-01-01T13:05:11Z</time>
      </trkpt>
      <trkpt lat="46.493106381967664" lon="9.218875765800476">
        <ele>2287.9499999999998</ele>
        <time>2020-01-01T13:06:14Z</time>
      </trkpt>
      <trkpt lat="46.493113255128264" lon="9.218873167410493">
        <ele>2287.8000000000002</ele>
        <time>2020-01-01T13:06:59Z</time>
      </trkpt>
      <trkpt lat="46.493106801062822" lon="9.218868725001812">
        <ele>2288.0100000000002</ele>
        <time>2020-01-01T13:07:29Z</time>
      </trkpt>
      <trkpt lat="46.493105376139283" lon="9.218871910125017">
        <ele>2288</ele>
        <time>2020-01-01T13:08:00Z</time>
      </trkpt>
      <trkpt lat="46.493110908195376" lon="9.218868892639875">
        <ele>2288.1799999999998</ele>
        <time>2020-01-01T13:08:33Z</time>
      </trkpt>
      <trkpt lat="46.493115266785026" lon="9.218857912346721">
        <ele>2288.1500000000001</ele>
        <time>2020-01-01T13:09:05Z</time>
      </trkpt>
      <trkpt lat="46.49311937391758" lon="9.218853050842881">
        <ele>2288.1100000000001</ele>
        <time>2020-01-01T13:09:40Z</time>
      </trkpt>
      <trkpt lat="46.493111746385694" lon="9.218867383897305">
        <ele>2287.5300000000002</ele>
        <time>2020-01-01T13:10:24Z</time>
      </trkpt>
      <trkpt lat="46.493112919852138" lon="9.218867886811495">
        <ele>2287.7199999999998</ele>
        <time>2020-01-01T13:10:55Z</time>
      </trkpt>
      <trkpt lat="46.493113338947296" lon="9.218867048621178">
        <ele>2287.5700000000002</ele>
        <time>2020-01-01T13:11:32Z</time>
      </trkpt>
      <trkpt lat="46.493107890710235" lon="9.218867886811495">
        <ele>2287.8299999999999</ele>
        <time>2020-01-01T13:12:08Z</time>
      </trkpt>
      <trkpt lat="46.493111997842789" lon="9.218875011429191">
        <ele>2287.3899999999999</ele>
        <time>2020-01-01T13:12:36Z</time>
      </trkpt>
      <trkpt lat="46.493113422766328" lon="9.218849278986454">
        <ele>2287.3000000000002</ele>
        <time>2020-01-01T13:13:04Z</time>
      </trkpt>
      <trkpt lat="46.493108393624425" lon="9.218849614262581">
        <ele>2288.0700000000002</ele>
        <time>2020-01-01T13:13:30Z</time>
      </trkpt>
      <trkpt lat="46.493106717243791" lon="9.218861935660243">
        <ele>2288.0100000000002</ele>
        <time>2020-01-01T13:13:57Z</time>
      </trkpt>
      <trkpt lat="46.493104705587029" lon="9.218858415260911">
        <ele>2287.9000000000001</ele>
        <time>2020-01-01T13:14:15Z</time>
      </trkpt>
      <trkpt lat="46.493120882660151" lon="9.218875095248222">
        <ele>2287.8299999999999</ele>
        <time>2020-01-01T13:14:32Z</time>
      </trkpt>
      <trkpt lat="46.493128929287195" lon="9.218878028914332">
        <ele>2287.8400000000001</ele>
        <time>2020-01-01T13:14:44Z</time>
      </trkpt>
      <trkpt lat="46.493135886266828" lon="9.218887416645885">
        <ele>2288.2600000000002</ele>
        <time>2020-01-01T13:15:04Z</time>
      </trkpt>
      <trkpt lat="46.493142424151301" lon="9.218875095248222">
        <ele>2287.9200000000001</ele>
        <time>2020-01-01T13:15:28Z</time>
      </trkpt>
      <trkpt lat="46.493132701143622" lon="9.218885321170092">
        <ele>2288.5</ele>
        <time>2020-01-01T13:15:45Z</time>
      </trkpt>
      <trkpt lat="46.493113674223423" lon="9.218890853226185">
        <ele>2288.02</ele>
        <time>2020-01-01T13:16:03Z</time>
      </trkpt>
      <trkpt lat="46.493111327290535" lon="9.2188935354352">
        <ele>2288.3000000000002</ele>
        <time>2020-01-01T13:16:36Z</time>
      </trkpt>
      <trkpt lat="46.493110740557313" lon="9.218901162967086">
        <ele>2288.5999999999999</ele>
        <time>2020-01-01T13:17:13Z</time>
      </trkpt>
      <trkpt lat="46.493114093318582" lon="9.218901246786118">
        <ele>2288.9200000000001</ele>
        <time>2020-01-01T13:18:11Z</time>
      </trkpt>
      <trkpt lat="46.493127839639783" lon="9.218913735821843">
        <ele>2289.3099999999999</ele>
        <time>2020-01-01T13:18:30Z</time>
      </trkpt>
      <trkpt lat="46.493130857124925" lon="9.218915412202478">
        <ele>2289.1199999999999</ele>
        <time>2020-01-01T13:19:04Z</time>
      </trkpt>
      <trkpt lat="46.493169581517577" lon="9.218931086361408">
        <ele>2289.3800000000001</ele>
        <time>2020-01-01T13:19:17Z</time>
      </trkpt>
      <trkpt lat="46.493262620642781" lon="9.218943743035197">
        <ele>2291.1900000000001</ele>
        <time>2020-01-01T13:19:32Z</time>
      </trkpt>
      <trkpt lat="46.493328334763646" lon="9.218976013362408">
        <ele>2292.5900000000001</ele>
        <time>2020-01-01T13:19:45Z</time>
      </trkpt>
      <trkpt lat="46.493356330320239" lon="9.219007445499301">
        <ele>2291.25</ele>
        <time>2020-01-01T13:19:51Z</time>
      </trkpt>
      <trkpt lat="46.493382733315229" lon="9.219203582033515">
        <ele>2287.8200000000002</ele>
        <time>2020-01-01T13:20:07Z</time>
      </trkpt>
      <trkpt lat="46.493458254262805" lon="9.219320258125663">
        <ele>2284.5599999999999</ele>
        <time>2020-01-01T13:20:21Z</time>
      </trkpt>
      <trkpt lat="46.493570236489177" lon="9.219414470717311">
        <ele>2281.3600000000001</ele>
        <time>2020-01-01T13:20:36Z</time>
      </trkpt>
      <trkpt lat="46.493674255907536" lon="9.219492422416806">
        <ele>2278.2800000000002</ele>
        <time>2020-01-01T13:20:49Z</time>
      </trkpt>
      <trkpt lat="46.493711052462459" lon="9.219492087140679">
        <ele>2278.0900000000001</ele>
        <time>2020-01-01T13:20:53Z</time>
      </trkpt>
      <trkpt lat="46.493917750194669" lon="9.21949309296906">
        <ele>2276.29</ele>
        <time>2020-01-01T13:21:15Z</time>
      </trkpt>
      <trkpt lat="46.494030822068453" lon="9.219473479315639">
        <ele>2276.04</ele>
        <time>2020-01-01T13:21:31Z</time>
      </trkpt>
      <trkpt lat="46.494126627221704" lon="9.219539947807789">
        <ele>2272.8699999999999</ele>
        <time>2020-01-01T13:21:44Z</time>
      </trkpt>
      <trkpt lat="46.494219498708844" lon="9.219612451270223">
        <ele>2269.6399999999999</ele>
        <time>2020-01-01T13:21:57Z</time>
      </trkpt>
      <trkpt lat="46.494298120960593" lon="9.219660982489586">
        <ele>2266.3600000000001</ele>
        <time>2020-01-01T13:22:09Z</time>
      </trkpt>
      <trkpt lat="46.494355453178287" lon="9.219699455425143">
        <ele>2263.27</ele>
        <time>2020-01-01T13:22:21Z</time>
      </trkpt>
      <trkpt lat="46.494417060166597" lon="9.219772042706609">
        <ele>2260.0100000000002</ele>
        <time>2020-01-01T13:22:39Z</time>
      </trkpt>
      <trkpt lat="46.494481014087796" lon="9.219787549227476">
        <ele>2256.96</ele>
        <time>2020-01-01T13:22:50Z</time>
      </trkpt>
      <trkpt lat="46.494531640782952" lon="9.21975645236671">
        <ele>2253.5100000000002</ele>
        <time>2020-01-01T13:22:58Z</time>
      </trkpt>
      <trkpt lat="46.494559049606323" lon="9.219697192311287">
        <ele>2251.8099999999999</ele>
        <time>2020-01-01T13:23:12Z</time>
      </trkpt>
      <trkpt lat="46.494557457044721" lon="9.219692330807447">
        <ele>2251.9400000000001</ele>
        <time>2020-01-01T13:23:35Z</time>
      </trkpt>
      <trkpt lat="46.494566760957241" lon="9.21969342045486">
        <ele>2251.3899999999999</ele>
        <time>2020-01-01T13:24:12Z</time>
      </trkpt>
      <trkpt lat="46.494595175608993" lon="9.219684200361371">
        <ele>2250.5599999999999</ele>
        <time>2020-01-01T13:24:25Z</time>
      </trkpt>
      <trkpt lat="46.494621997699142" lon="9.219557968899608">
        <ele>2249.3499999999999</ele>
        <time>2020-01-01T13:24:41Z</time>
      </trkpt>
      <trkpt lat="46.494622165337205" lon="9.219514383003116">
        <ele>2248.9899999999998</ele>
        <time>2020-01-01T13:24:45Z</time>
      </trkpt>
      <trkpt lat="46.49459014646709" lon="9.219286981970072">
        <ele>2248.5599999999999</ele>
        <time>2020-01-01T13:25:03Z</time>
      </trkpt>
      <trkpt lat="46.494583273306489" lon="9.219248257577419">
        <ele>2248.4200000000001</ele>
        <time>2020-01-01T13:25:06Z</time>
      </trkpt>
      <trkpt lat="46.494552176445723" lon="9.219101490452886">
        <ele>2247.9499999999998</ele>
        <time>2020-01-01T13:25:22Z</time>
      </trkpt>
      <trkpt lat="46.49452175013721" lon="9.218909796327353">
        <ele>2246.9699999999998</ele>
        <time>2020-01-01T13:25:38Z</time>
      </trkpt>
      <trkpt lat="46.494499705731869" lon="9.218842657282949">
        <ele>2246.5900000000001</ele>
        <time>2020-01-01T13:25:53Z</time>
      </trkpt>
      <trkpt lat="46.494501885026693" lon="9.218846596777439">
        <ele>2245.4400000000001</ele>
        <time>2020-01-01T13:26:03Z</time>
      </trkpt>
      <trkpt lat="46.494495766237378" lon="9.218843411654234">
        <ele>2246.5</ele>
        <time>2020-01-01T13:26:32Z</time>
      </trkpt>
      <trkpt lat="46.49449878372252" lon="9.218853637576103">
        <ele>2246.7800000000002</ele>
        <time>2020-01-01T13:26:47Z</time>
      </trkpt>
      <trkpt lat="46.494489563629031" lon="9.218837628141046">
        <ele>2246.6900000000001</ele>
        <time>2020-01-01T13:27:11Z</time>
      </trkpt>
      <trkpt lat="46.494485875591636" lon="9.218839136883616">
        <ele>2246.9000000000001</ele>
        <time>2020-01-01T13:27:40Z</time>
      </trkpt>
      <trkpt lat="46.49449241347611" lon="9.218835784122348">
        <ele>2247</ele>
        <time>2020-01-01T13:28:16Z</time>
      </trkpt>
      <trkpt lat="46.494491994380951" lon="9.218824300915003">
        <ele>2246.8499999999999</ele>
        <time>2020-01-01T13:28:42Z</time>
      </trkpt>
      <trkpt lat="46.494477996602654" lon="9.218791108578444">
        <ele>2246.8400000000001</ele>
        <time>2020-01-01T13:29:08Z</time>
      </trkpt>
      <trkpt lat="46.494438350200653" lon="9.218613998964429">
        <ele>2245.4200000000001</ele>
        <time>2020-01-01T13:29:29Z</time>
      </trkpt>
      <trkpt lat="46.494375988841057" lon="9.2184117436409">
        <ele>2242.4200000000001</ele>
        <time>2020-01-01T13:29:46Z</time>
      </trkpt>
      <trkpt lat="46.494324440136552" lon="9.218271682038903">
        <ele>2239.3400000000001</ele>
        <time>2020-01-01T13:29:59Z</time>
      </trkpt>
      <trkpt lat="46.49427842348814" lon="9.218119885772467">
        <ele>2236.2199999999998</ele>
        <time>2020-01-01T13:30:13Z</time>
      </trkpt>
      <trkpt lat="46.494239447638392" lon="9.218011675402522">
        <ele>2233.04</ele>
        <time>2020-01-01T13:30:24Z</time>
      </trkpt>
      <trkpt lat="46.494199801236391" lon="9.2179074883461">
        <ele>2230.02</ele>
        <time>2020-01-01T13:30:35Z</time>
      </trkpt>
      <trkpt lat="46.494147581979632" lon="9.217804139479995">
        <ele>2226.6999999999998</ele>
        <time>2020-01-01T13:30:47Z</time>
      </trkpt>
      <trkpt lat="46.494094440713525" lon="9.217693833634257">
        <ele>2223.52</ele>
        <time>2020-01-01T13:30:59Z</time>
      </trkpt>
      <trkpt lat="46.494033923372626" lon="9.217582438141108">
        <ele>2220.3200000000002</ele>
        <time>2020-01-01T13:31:10Z</time>
      </trkpt>
      <trkpt lat="46.494008945301175" lon="9.217557376250625">
        <ele>2219.6100000000001</ele>
        <time>2020-01-01T13:31:13Z</time>
      </trkpt>
      <trkpt lat="46.493874248117208" lon="9.217448579147458">
        <ele>2215.8499999999999</ele>
        <time>2020-01-01T13:31:28Z</time>
      </trkpt>
      <trkpt lat="46.493803085759282" lon="9.217370627447963">
        <ele>2214.5300000000002</ele>
        <time>2020-01-01T13:31:45Z</time>
      </trkpt>
      <trkpt lat="46.493667969480157" lon="9.217162085697055">
        <ele>2211.71</ele>
        <time>2020-01-01T13:32:06Z</time>
      </trkpt>
      <trkpt lat="46.493536792695522" lon="9.21696200966835">
        <ele>2208.9899999999998</ele>
        <time>2020-01-01T13:32:26Z</time>
      </trkpt>
      <trkpt lat="46.493420284241438" lon="9.216807447373867">
        <ele>2208.2399999999998</ele>
        <time>2020-01-01T13:32:44Z</time>
      </trkpt>
      <trkpt lat="46.49336957372725" lon="9.216759251430631">
        <ele>2207.4899999999998</ele>
        <time>2020-01-01T13:33:00Z</time>
      </trkpt>
      <trkpt lat="46.493305284529924" lon="9.216682054102421">
        <ele>2206.9099999999999</ele>
        <time>2020-01-01T13:33:25Z</time>
      </trkpt>
      <trkpt lat="46.493207970634103" lon="9.216535957530141">
        <ele>2205.5500000000002</ele>
        <time>2020-01-01T13:33:42Z</time>
      </trkpt>
      <trkpt lat="46.493106298148632" lon="9.216309813782573">
        <ele>2202.8800000000001</ele>
        <time>2020-01-01T13:34:02Z</time>
      </trkpt>
      <trkpt lat="46.493035722523928" lon="9.216079646721482">
        <ele>2200.8499999999999</ele>
        <time>2020-01-01T13:34:21Z</time>
      </trkpt>
      <trkpt lat="46.492951065301895" lon="9.215938411653042">
        <ele>2199.9099999999999</ele>
        <time>2020-01-01T13:34:39Z</time>
      </trkpt>
      <trkpt lat="46.492909323424101" lon="9.215825255960226">
        <ele>2199.6900000000001</ele>
        <time>2020-01-01T13:34:52Z</time>
      </trkpt>
      <trkpt lat="46.4928765501827" lon="9.215716542676091">
        <ele>2198.6700000000001</ele>
        <time>2020-01-01T13:35:08Z</time>
      </trkpt>
      <trkpt lat="46.492827013134956" lon="9.215590059757233">
        <ele>2197.3499999999999</ele>
        <time>2020-01-01T13:35:21Z</time>
      </trkpt>
      <trkpt lat="46.492813853546977" lon="9.215563740581274">
        <ele>2196.9000000000001</ele>
        <time>2020-01-01T13:35:23Z</time>
      </trkpt>
      <trkpt lat="46.49274805560708" lon="9.215444717556238">
        <ele>2198.0100000000002</ele>
        <time>2020-01-01T13:35:37Z</time>
      </trkpt>
      <trkpt lat="46.492677479982376" lon="9.215308763086796">
        <ele>2200.0900000000001</ele>
        <time>2020-01-01T13:35:55Z</time>
      </trkpt>
      <trkpt lat="46.492635821923614" lon="9.21524397097528">
        <ele>2200.73</ele>
        <time>2020-01-01T13:36:10Z</time>
      </trkpt>
      <trkpt lat="46.492565413936973" lon="9.215076165273786">
        <ele>2202.5</ele>
        <time>2020-01-01T13:36:28Z</time>
      </trkpt>
      <trkpt lat="46.492489641532302" lon="9.2149009834975">
        <ele>2204.3699999999999</ele>
        <time>2020-01-01T13:36:46Z</time>
      </trkpt>
      <trkpt lat="46.492412695661187" lon="9.214738709852099">
        <ele>2205.3800000000001</ele>
        <time>2020-01-01T13:37:03Z</time>
      </trkpt>
      <trkpt lat="46.492311274632812" lon="9.214555900543928">
        <ele>2206.8899999999999</ele>
        <time>2020-01-01T13:37:23Z</time>
      </trkpt>
      <trkpt lat="46.492219157516956" lon="9.214397566393018">
        <ele>2207.8400000000001</ele>
        <time>2020-01-01T13:37:40Z</time>
      </trkpt>
      <trkpt lat="46.492141541093588" lon="9.214252643287182">
        <ele>2208.9000000000001</ele>
        <time>2020-01-01T13:37:57Z</time>
      </trkpt>
      <trkpt lat="46.492052776739001" lon="9.214092129841447">
        <ele>2210.0599999999999</ele>
        <time>2020-01-01T13:38:14Z</time>
      </trkpt>
      <trkpt lat="46.491974154487252" lon="9.213912338018417">
        <ele>2211.2399999999998</ele>
        <time>2020-01-01T13:38:32Z</time>
      </trkpt>
      <trkpt lat="46.491919085383415" lon="9.21374243684113">
        <ele>2212.02</ele>
        <time>2020-01-01T13:38:49Z</time>
      </trkpt>
      <trkpt lat="46.491860244423151" lon="9.213591646403074">
        <ele>2212.9400000000001</ele>
        <time>2020-01-01T13:39:05Z</time>
      </trkpt>
      <trkpt lat="46.49178983643651" lon="9.213403556495905">
        <ele>2214.1700000000001</ele>
        <time>2020-01-01T13:39:23Z</time>
      </trkpt>
      <trkpt lat="46.491715405136347" lon="9.213207922875881">
        <ele>2215.6399999999999</ele>
        <time>2020-01-01T13:39:41Z</time>
      </trkpt>
      <trkpt lat="46.491655390709639" lon="9.21300508081913">
        <ele>2216.04</ele>
        <time>2020-01-01T13:39:59Z</time>
      </trkpt>
      <trkpt lat="46.491609457880259" lon="9.212798466905952">
        <ele>2215.8499999999999</ele>
        <time>2020-01-01T13:40:17Z</time>
      </trkpt>
      <trkpt lat="46.491609374061227" lon="9.212787821888924">
        <ele>2216.1300000000001</ele>
        <time>2020-01-01T13:40:41Z</time>
      </trkpt>
      <trkpt lat="46.491600656881928" lon="9.212739625945687">
        <ele>2216.2399999999998</ele>
        <time>2020-01-01T13:40:58Z</time>
      </trkpt>
      <trkpt lat="46.491559920832515" lon="9.212550362572074">
        <ele>2216.5</ele>
        <time>2020-01-01T13:41:15Z</time>
      </trkpt>
      <trkpt lat="46.49151130579412" lon="9.212362021207809">
        <ele>2216.3299999999999</ele>
        <time>2020-01-01T13:41:32Z</time>
      </trkpt>
      <trkpt lat="46.491466714069247" lon="9.212158005684614">
        <ele>2216.23</ele>
        <time>2020-01-01T13:41:50Z</time>
      </trkpt>
      <trkpt lat="46.491404687985778" lon="9.211950805038214">
        <ele>2215.6300000000001</ele>
        <time>2020-01-01T13:42:08Z</time>
      </trkpt>
      <trkpt lat="46.49138180539012" lon="9.211712591350079">
        <ele>2216.4099999999999</ele>
        <time>2020-01-01T13:42:28Z</time>
      </trkpt>
      <trkpt lat="46.491364203393459" lon="9.211529530584812">
        <ele>2218.1799999999998</ele>
        <time>2020-01-01T13:42:45Z</time>
      </trkpt>
      <trkpt lat="46.491353390738368" lon="9.211363149806857">
        <ele>2220.23</ele>
        <time>2020-01-01T13:43:03Z</time>
      </trkpt>
      <trkpt lat="46.491315085440874" lon="9.211218897253275">
        <ele>2222.1799999999998</ele>
        <time>2020-01-01T13:43:20Z</time>
      </trkpt>
      <trkpt lat="46.491269404068589" lon="9.211062407121062">
        <ele>2224.8699999999999</ele>
        <time>2020-01-01T13:43:37Z</time>
      </trkpt>
      <trkpt lat="46.491213077679276" lon="9.210976073518395">
        <ele>2225.29</ele>
        <time>2020-01-01T13:43:49Z</time>
      </trkpt>
      <trkpt lat="46.491151554509997" lon="9.210850261151791">
        <ele>2225.8000000000002</ele>
        <time>2020-01-01T13:44:03Z</time>
      </trkpt>
      <trkpt lat="46.491056336089969" lon="9.210655549541116">
        <ele>2226.3400000000001</ele>
        <time>2020-01-01T13:44:21Z</time>
      </trkpt>
      <trkpt lat="46.491010654717684" lon="9.21056292951107">
        <ele>2226.23</ele>
        <time>2020-01-01T13:44:29Z</time>
      </trkpt>
      <trkpt lat="46.490893475711346" lon="9.21035673469305">
        <ele>2226.8899999999999</ele>
        <time>2020-01-01T13:44:48Z</time>
      </trkpt>
      <trkpt lat="46.490868497639894" lon="9.210342736914754">
        <ele>2227.2600000000002</ele>
        <time>2020-01-01T13:45:03Z</time>
      </trkpt>
      <trkpt lat="46.490860115736723" lon="9.210318932309747">
        <ele>2227.6100000000001</ele>
        <time>2020-01-01T13:45:22Z</time>
      </trkpt>
      <trkpt lat="46.490785852074623" lon="9.210176607593894">
        <ele>2227.8899999999999</ele>
        <time>2020-01-01T13:45:37Z</time>
      </trkpt>
      <trkpt lat="46.490690968930721" lon="9.209958678111434">
        <ele>2227.9699999999998</ele>
        <time>2020-01-01T13:45:55Z</time>
      </trkpt>
      <trkpt lat="46.490582088008523" lon="9.209728678688407">
        <ele>2227.8899999999999</ele>
        <time>2020-01-01T13:46:15Z</time>
      </trkpt>
      <trkpt lat="46.490514781326056" lon="9.209612924605608">
        <ele>2227.8000000000002</ele>
        <time>2020-01-01T13:46:31Z</time>
      </trkpt>
      <trkpt lat="46.490507153794169" lon="9.209609152749181">
        <ele>2226.8099999999999</ele>
        <time>2020-01-01T13:46:52Z</time>
      </trkpt>
      <trkpt lat="46.490516373887658" lon="9.209595993161202">
        <ele>2228.4899999999998</ele>
        <time>2020-01-01T13:47:13Z</time>
      </trkpt>
      <trkpt lat="46.490533137694001" lon="9.209596160799265">
        <ele>2228.6199999999999</ele>
        <time>2020-01-01T13:47:34Z</time>
      </trkpt>
      <trkpt lat="46.490526096895337" lon="9.209605045616627">
        <ele>2228.4000000000001</ele>
        <time>2020-01-01T13:48:05Z</time>
      </trkpt>
      <trkpt lat="46.49046172387898" lon="9.209515443071723">
        <ele>2227.7399999999998</ele>
        <time>2020-01-01T13:48:19Z</time>
      </trkpt>
      <trkpt lat="46.490464489907026" lon="9.209497841075063">
        <ele>2227.4299999999998</ele>
        <time>2020-01-01T13:48:35Z</time>
      </trkpt>
      <trkpt lat="46.49045686237514" lon="9.209499936550856">
        <ele>2227.6399999999999</ele>
        <time>2020-01-01T13:49:00Z</time>
      </trkpt>
      <trkpt lat="46.490449318662286" lon="9.209498511627317">
        <ele>2227.5999999999999</ele>
        <time>2020-01-01T13:49:22Z</time>
      </trkpt>
      <trkpt lat="46.490446636453271" lon="9.209462720900774">
        <ele>2227.96</ele>
        <time>2020-01-01T13:50:03Z</time>
      </trkpt>
      <trkpt lat="46.490434063598514" lon="9.209443777799606">
        <ele>2227.54</ele>
        <time>2020-01-01T13:50:05Z</time>
      </trkpt>
      <trkpt lat="46.490420233458281" lon="9.2094234097749">
        <ele>2227.3200000000002</ele>
        <time>2020-01-01T13:50:07Z</time>
      </trkpt>
      <trkpt lat="46.490291319787502" lon="9.209256861358881">
        <ele>2224.3600000000001</ele>
        <time>2020-01-01T13:50:24Z</time>
      </trkpt>
      <trkpt lat="46.49017296731472" lon="9.209109004586935">
        <ele>2221.2399999999998</ele>
        <time>2020-01-01T13:50:38Z</time>
      </trkpt>
      <trkpt lat="46.49003223516047" lon="9.208972547203302">
        <ele>2218</ele>
        <time>2020-01-01T13:50:54Z</time>
      </trkpt>
      <trkpt lat="46.489890664815903" lon="9.208830473944545">
        <ele>2214.7800000000002</ele>
        <time>2020-01-01T13:51:11Z</time>
      </trkpt>
      <trkpt lat="46.489826794713736" lon="9.208766184747219">
        <ele>2212.4400000000001</ele>
        <time>2020-01-01T13:51:26Z</time>
      </trkpt>
      <trkpt lat="46.489816904067993" lon="9.208753444254398">
        <ele>2212.1300000000001</ele>
        <time>2020-01-01T13:51:28Z</time>
      </trkpt>
      <trkpt lat="46.489637279883027" lon="9.208607347682118">
        <ele>2208.7800000000002</ele>
        <time>2020-01-01T13:51:47Z</time>
      </trkpt>
      <trkpt lat="46.489461679011583" lon="9.208423616364598">
        <ele>2205.6100000000001</ele>
        <time>2020-01-01T13:52:06Z</time>
      </trkpt>
      <trkpt lat="46.489308038726449" lon="9.208247344940901">
        <ele>2203.2800000000002</ele>
        <time>2020-01-01T13:52:24Z</time>
      </trkpt>
      <trkpt lat="46.489150123670697" lon="9.208048358559609">
        <ele>2200.1599999999999</ele>
        <time>2020-01-01T13:52:43Z</time>
      </trkpt>
      <trkpt lat="46.488969242200255" lon="9.207848198711872">
        <ele>2197.6300000000001</ele>
        <time>2020-01-01T13:53:04Z</time>
      </trkpt>
      <trkpt lat="46.488802945241332" lon="9.207695228978992">
        <ele>2194.4299999999998</ele>
        <time>2020-01-01T13:53:23Z</time>
      </trkpt>
      <trkpt lat="46.488651651889086" lon="9.207527674734592">
        <ele>2191.3200000000002</ele>
        <time>2020-01-01T13:53:40Z</time>
      </trkpt>
      <trkpt lat="46.488507818430662" lon="9.207334723323584">
        <ele>2188.2199999999998</ele>
        <time>2020-01-01T13:53:57Z</time>
      </trkpt>
      <trkpt lat="46.488420814275742" lon="9.207057030871511">
        <ele>2186.1799999999998</ele>
        <time>2020-01-01T13:54:15Z</time>
      </trkpt>
      <trkpt lat="46.488371361047029" lon="9.206749498844147">
        <ele>2183.6599999999999</ele>
        <time>2020-01-01T13:54:34Z</time>
      </trkpt>
      <trkpt lat="46.488347556442022" lon="9.206492593511939">
        <ele>2180.7800000000002</ele>
        <time>2020-01-01T13:54:50Z</time>
      </trkpt>
      <trkpt lat="46.488339342176914" lon="9.206227725371718">
        <ele>2177.6100000000001</ele>
        <time>2020-01-01T13:55:05Z</time>
      </trkpt>
      <trkpt lat="46.488302545621991" lon="9.205989260226488">
        <ele>2174.48</ele>
        <time>2020-01-01T13:55:19Z</time>
      </trkpt>
      <trkpt lat="46.488256361335516" lon="9.205835200846195">
        <ele>2171.4499999999998</ele>
        <time>2020-01-01T13:55:29Z</time>
      </trkpt>
      <trkpt lat="46.48814907297492" lon="9.205611404031515">
        <ele>2168.2199999999998</ele>
        <time>2020-01-01T13:55:45Z</time>
      </trkpt>
      <trkpt lat="46.488059554249048" lon="9.205504534766078">
        <ele>2165</ele>
        <time>2020-01-01T13:55:56Z</time>
      </trkpt>
      <trkpt lat="46.487972130998969" lon="9.205417865887284">
        <ele>2161.6999999999998</ele>
        <time>2020-01-01T13:56:06Z</time>
      </trkpt>
      <trkpt lat="46.487931814044714" lon="9.205373022705317">
        <ele>2159.9299999999998</ele>
        <time>2020-01-01T13:56:12Z</time>
      </trkpt>
      <trkpt lat="46.487900465726852" lon="9.205340081825852">
        <ele>2158.9899999999998</ele>
        <time>2020-01-01T13:56:16Z</time>
      </trkpt>
      <trkpt lat="46.487771803513169" lon="9.205274200066924">
        <ele>2155.73</ele>
        <time>2020-01-01T13:56:30Z</time>
      </trkpt>
      <trkpt lat="46.48760324344039" lon="9.205130282789469">
        <ele>2152.6799999999998</ele>
        <time>2020-01-01T13:56:48Z</time>
      </trkpt>
      <trkpt lat="46.487436192110181" lon="9.204964991658926">
        <ele>2149.46</ele>
        <time>2020-01-01T13:57:07Z</time>
      </trkpt>
      <trkpt lat="46.487257741391659" lon="9.204793581739068">
        <ele>2147.5100000000002</ele>
        <time>2020-01-01T13:57:28Z</time>
      </trkpt>
      <trkpt lat="46.487132683396339" lon="9.204680845141411">
        <ele>2145.5</ele>
        <time>2020-01-01T13:57:43Z</time>
      </trkpt>
      <trkpt lat="46.487066382542253" lon="9.204621417447925">
        <ele>2143.79</ele>
        <time>2020-01-01T13:57:51Z</time>
      </trkpt>
      <trkpt lat="46.487019276246428" lon="9.204589230939746">
        <ele>2142.73</ele>
        <time>2020-01-01T13:57:59Z</time>
      </trkpt>
      <trkpt lat="46.487000165507197" lon="9.204580346122384">
        <ele>2142.5999999999999</ele>
        <time>2020-01-01T13:58:01Z</time>
      </trkpt>
      <trkpt lat="46.48679019883275" lon="9.204418156296015">
        <ele>2140.0799999999999</ele>
        <time>2020-01-01T13:58:23Z</time>
      </trkpt>
      <trkpt lat="46.486663296818733" lon="9.204425197094679">
        <ele>2138.4200000000001</ele>
        <time>2020-01-01T13:58:35Z</time>
      </trkpt>
      <trkpt lat="46.486452324315906" lon="9.204294858500361">
        <ele>2136.4299999999998</ele>
        <time>2020-01-01T13:58:57Z</time>
      </trkpt>
      <trkpt lat="46.486274963244796" lon="9.204209866002202">
        <ele>2135.2800000000002</ele>
        <time>2020-01-01T13:59:15Z</time>
      </trkpt>
      <trkpt lat="46.48607530631125" lon="9.204101487994194">
        <ele>2133.5</ele>
        <time>2020-01-01T13:59:35Z</time>
      </trkpt>
      <trkpt lat="46.485973466187716" lon="9.204032337293029">
        <ele>2132.6399999999999</ele>
        <time>2020-01-01T13:59:49Z</time>
      </trkpt>
      <trkpt lat="46.485767439007759" lon="9.2039302457124">
        <ele>2130.3600000000001</ele>
        <time>2020-01-01T14:00:10Z</time>
      </trkpt>
      <trkpt lat="46.485599130392075" lon="9.203840475529432">
        <ele>2128.3800000000001</ele>
        <time>2020-01-01T14:00:28Z</time>
      </trkpt>
      <trkpt lat="46.485416404902935" lon="9.203731343150139">
        <ele>2126.9400000000001</ele>
        <time>2020-01-01T14:00:46Z</time>
      </trkpt>
      <trkpt lat="46.485193781554699" lon="9.203632855787873">
        <ele>2125.7800000000002</ele>
        <time>2020-01-01T14:01:08Z</time>
      </trkpt>
      <trkpt lat="46.485060509294271" lon="9.203537637367845">
        <ele>2122.5100000000002</ele>
        <time>2020-01-01T14:01:23Z</time>
      </trkpt>
      <trkpt lat="46.484921621158719" lon="9.203513329848647">
        <ele>2119.3499999999999</ele>
        <time>2020-01-01T14:01:37Z</time>
      </trkpt>
      <trkpt lat="46.484821289777756" lon="9.203436803072691">
        <ele>2118.7600000000002</ele>
        <time>2020-01-01T14:01:54Z</time>
      </trkpt>
      <trkpt lat="46.484803771600127" lon="9.203419955447316">
        <ele>2118.1599999999999</ele>
        <time>2020-01-01T14:02:22Z</time>
      </trkpt>
      <trkpt lat="46.484786588698626" lon="9.203408388420939">
        <ele>2118.25</ele>
        <time>2020-01-01T14:02:40Z</time>
      </trkpt>
      <trkpt lat="46.484754486009479" lon="9.203382823616266">
        <ele>2117.6399999999999</ele>
        <time>2020-01-01T14:02:44Z</time>
      </trkpt>
      <trkpt lat="46.484544603154063" lon="9.203282576054335">
        <ele>2115.77</ele>
        <time>2020-01-01T14:03:05Z</time>
      </trkpt>
      <trkpt lat="46.484351651743054" lon="9.203196661546826">
        <ele>2114.8800000000001</ele>
        <time>2020-01-01T14:03:24Z</time>
      </trkpt>
      <trkpt lat="46.484106564894319" lon="9.203095575794578">
        <ele>2113.2399999999998</ele>
        <time>2020-01-01T14:03:47Z</time>
      </trkpt>
      <trkpt lat="46.483903471380472" lon="9.202988035976887">
        <ele>2112.1700000000001</ele>
        <time>2020-01-01T14:04:07Z</time>
      </trkpt>
      <trkpt lat="46.4837362524122" lon="9.202862726524472">
        <ele>2109.9699999999998</ele>
        <time>2020-01-01T14:04:26Z</time>
      </trkpt>
      <trkpt lat="46.483635669574142" lon="9.202717719599605">
        <ele>2106.6900000000001</ele>
        <time>2020-01-01T14:04:40Z</time>
      </trkpt>
      <trkpt lat="46.483538690954447" lon="9.202638594433665">
        <ele>2103.6799999999998</ele>
        <time>2020-01-01T14:04:51Z</time>
      </trkpt>
      <trkpt lat="46.48345185443759" lon="9.202565001323819">
        <ele>2100.5700000000002</ele>
        <time>2020-01-01T14:05:01Z</time>
      </trkpt>
      <trkpt lat="46.483355797827244" lon="9.202489480376244">
        <ele>2097.2199999999998</ele>
        <time>2020-01-01T14:05:12Z</time>
      </trkpt>
      <trkpt lat="46.483264099806547" lon="9.202424101531506">
        <ele>2094.21</ele>
        <time>2020-01-01T14:05:22Z</time>
      </trkpt>
      <trkpt lat="46.483157565817237" lon="9.202320668846369">
        <ele>2091.0500000000002</ele>
        <time>2020-01-01T14:05:34Z</time>
      </trkpt>
      <trkpt lat="46.483067041262984" lon="9.20217365026474">
        <ele>2087.77</ele>
        <time>2020-01-01T14:05:46Z</time>
      </trkpt>
      <trkpt lat="46.482974085956812" lon="9.202036019414663">
        <ele>2084.3600000000001</ele>
        <time>2020-01-01T14:05:58Z</time>
      </trkpt>
      <trkpt lat="46.482876939699054" lon="9.201929569244385">
        <ele>2081.0900000000001</ele>
        <time>2020-01-01T14:06:09Z</time>
      </trkpt>
      <trkpt lat="46.482789851725101" lon="9.201839296147227">
        <ele>2078.0700000000002</ele>
        <time>2020-01-01T14:06:19Z</time>
      </trkpt>
      <trkpt lat="46.482728999108076" lon="9.201729409396648">
        <ele>2074.9899999999998</ele>
        <time>2020-01-01T14:06:28Z</time>
      </trkpt>
      <trkpt lat="46.482700752094388" lon="9.201559005305171">
        <ele>2071.73</ele>
        <time>2020-01-01T14:06:40Z</time>
      </trkpt>
      <trkpt lat="46.482689185068011" lon="9.201495889574289">
        <ele>2069.4899999999998</ele>
        <time>2020-01-01T14:06:45Z</time>
      </trkpt>
      <trkpt lat="46.482676779851317" lon="9.201388601213694">
        <ele>2066.4200000000001</ele>
        <time>2020-01-01T14:06:54Z</time>
      </trkpt>
      <trkpt lat="46.482623051851988" lon="9.201290365308523">
        <ele>2063.2399999999998</ele>
        <time>2020-01-01T14:07:05Z</time>
      </trkpt>
      <trkpt lat="46.482544345781207" lon="9.201198248192668">
        <ele>2060.21</ele>
        <time>2020-01-01T14:07:16Z</time>
      </trkpt>
      <trkpt lat="46.482537724077702" lon="9.201187351718545">
        <ele>2059.8600000000001</ele>
        <time>2020-01-01T14:07:17Z</time>
      </trkpt>
      <trkpt lat="46.482481900602579" lon="9.2011240683496">
        <ele>2057.3800000000001</ele>
        <time>2020-01-01T14:07:34Z</time>
      </trkpt>
      <trkpt lat="46.482480727136135" lon="9.201121386140585">
        <ele>2057.27</ele>
        <time>2020-01-01T14:08:03Z</time>
      </trkpt>
      <trkpt lat="46.482442086562514" lon="9.201100934296846">
        <ele>2057.0300000000002</ele>
        <time>2020-01-01T14:08:10Z</time>
      </trkpt>
      <trkpt lat="46.482264474034309" lon="9.201044021174312">
        <ele>2053.6500000000001</ele>
        <time>2020-01-01T14:08:26Z</time>
      </trkpt>
      <trkpt lat="46.482018381357193" lon="9.200940001755953">
        <ele>2050.9200000000001</ele>
        <time>2020-01-01T14:08:47Z</time>
      </trkpt>
      <trkpt lat="46.481787459924817" lon="9.200824750587344">
        <ele>2048.3699999999999</ele>
        <time>2020-01-01T14:09:07Z</time>
      </trkpt>
      <trkpt lat="46.481624934822321" lon="9.200642947107554">
        <ele>2046.49</ele>
        <time>2020-01-01T14:09:25Z</time>
      </trkpt>
      <trkpt lat="46.481508929282427" lon="9.200381012633443">
        <ele>2046.23</ele>
        <time>2020-01-01T14:09:45Z</time>
      </trkpt>
      <trkpt lat="46.48135076276958" lon="9.200267689302564">
        <ele>2048.8800000000001</ele>
        <time>2020-01-01T14:10:04Z</time>
      </trkpt>
      <trkpt lat="46.481218663975596" lon="9.200132489204407">
        <ele>2048.8299999999999</ele>
        <time>2020-01-01T14:10:22Z</time>
      </trkpt>
      <trkpt lat="46.481085307896137" lon="9.199946243315935">
        <ele>2047.4100000000001</ele>
        <time>2020-01-01T14:10:42Z</time>
      </trkpt>
      <trkpt lat="46.481077512726188" lon="9.199937777593732">
        <ele>2047.28</ele>
        <time>2020-01-01T14:10:43Z</time>
      </trkpt>
      <trkpt lat="46.480966368690133" lon="9.199831075966358">
        <ele>2046.1800000000001</ele>
        <time>2020-01-01T14:11:01Z</time>
      </trkpt>
      <trkpt lat="46.480857152491808" lon="9.199760500341654">
        <ele>2045.1700000000001</ele>
        <time>2020-01-01T14:11:17Z</time>
      </trkpt>
      <trkpt lat="46.480854554101825" lon="9.199743568897247">
        <ele>2045.05</ele>
        <time>2020-01-01T14:11:36Z</time>
      </trkpt>
      <trkpt lat="46.480738213285804" lon="9.19967089779675">
        <ele>2045.28</ele>
        <time>2020-01-01T14:11:52Z</time>
      </trkpt>
      <trkpt lat="46.480689598247409" lon="9.199642902240157">
        <ele>2044.8399999999999</ele>
        <time>2020-01-01T14:12:06Z</time>
      </trkpt>
      <trkpt lat="46.48065690882504" lon="9.199611218646169">
        <ele>2044.8499999999999</ele>
        <time>2020-01-01T14:12:50Z</time>
      </trkpt>
      <trkpt lat="46.480650454759598" lon="9.199603423476219">
        <ele>2044.79</ele>
        <time>2020-01-01T14:12:51Z</time>
      </trkpt>
      <trkpt lat="46.480506034567952" lon="9.199505271390081">
        <ele>2041.3399999999999</ele>
        <time>2020-01-01T14:13:09Z</time>
      </trkpt>
      <trkpt lat="46.480478877201676" lon="9.199497057124972">
        <ele>2040.9200000000001</ele>
        <time>2020-01-01T14:13:12Z</time>
      </trkpt>
      <trkpt lat="46.480375109240413" lon="9.199361437931657">
        <ele>2040.03</ele>
        <time>2020-01-01T14:13:28Z</time>
      </trkpt>
      <trkpt lat="46.480285758152604" lon="9.199195811524987">
        <ele>2038.6600000000001</ele>
        <time>2020-01-01T14:13:44Z</time>
      </trkpt>
      <trkpt lat="46.4802704192698" lon="9.19914904050529">
        <ele>2037.6900000000001</ele>
        <time>2020-01-01T14:14:01Z</time>
      </trkpt>
      <trkpt lat="46.480237562209368" lon="9.199146777391434">
        <ele>2036.95</ele>
        <time>2020-01-01T14:14:04Z</time>
      </trkpt>
      <trkpt lat="46.480138404294848" lon="9.199171420186758">
        <ele>2033.77</ele>
        <time>2020-01-01T14:14:15Z</time>
      </trkpt>
      <trkpt lat="46.480030613020062" lon="9.199181813746691">
        <ele>2030.4000000000001</ele>
        <time>2020-01-01T14:14:27Z</time>
      </trkpt>
      <trkpt lat="46.479931371286511" lon="9.199176365509629">
        <ele>2027.1900000000001</ele>
        <time>2020-01-01T14:14:39Z</time>
      </trkpt>
      <trkpt lat="46.479854676872492" lon="9.1991554107517">
        <ele>2023.9200000000001</ele>
        <time>2020-01-01T14:14:49Z</time>
      </trkpt>
      <trkpt lat="46.47978326305747" lon="9.199136216193438">
        <ele>2020.8199999999999</ele>
        <time>2020-01-01T14:15:00Z</time>
      </trkpt>
      <trkpt lat="46.479712268337607" lon="9.199140993878245">
        <ele>2017.73</ele>
        <time>2020-01-01T14:15:10Z</time>
      </trkpt>
      <trkpt lat="46.479634484276175" lon="9.199143843725324">
        <ele>2014.5899999999999</ele>
        <time>2020-01-01T14:15:21Z</time>
      </trkpt>
      <trkpt lat="46.47957019507885" lon="9.199168151244521">
        <ele>2011.55</ele>
        <time>2020-01-01T14:15:32Z</time>
      </trkpt>
      <trkpt lat="46.479508923366666" lon="9.199183993041515">
        <ele>2008.24</ele>
        <time>2020-01-01T14:15:43Z</time>
      </trkpt>
      <trkpt lat="46.479438599199057" lon="9.199206875637174">
        <ele>2005.01</ele>
        <time>2020-01-01T14:15:55Z</time>
      </trkpt>
      <trkpt lat="46.479409513995051" lon="9.199233613908291">
        <ele>2003.3099999999999</ele>
        <time>2020-01-01T14:16:08Z</time>
      </trkpt>
      <trkpt lat="46.479359474033117" lon="9.199296394363046">
        <ele>2000.71</ele>
        <time>2020-01-01T14:16:17Z</time>
      </trkpt>
      <trkpt lat="46.479339944198728" lon="9.199328245595098">
        <ele>1999.75</ele>
        <time>2020-01-01T14:16:20Z</time>
      </trkpt>
      <trkpt lat="46.479217987507582" lon="9.199413489550352">
        <ele>1996.1099999999999</ele>
        <time>2020-01-01T14:16:33Z</time>
      </trkpt>
      <trkpt lat="46.479054791852832" lon="9.19954240322113">
        <ele>1992.99</ele>
        <time>2020-01-01T14:16:51Z</time>
      </trkpt>
      <trkpt lat="46.47891447879374" lon="9.199584061279893">
        <ele>1989.74</ele>
        <time>2020-01-01T14:17:06Z</time>
      </trkpt>
      <trkpt lat="46.478904755786061" lon="9.199588252231479">
        <ele>1989.3099999999999</ele>
        <time>2020-01-01T14:17:07Z</time>
      </trkpt>
      <trkpt lat="46.478789001703262" lon="9.199570650234819">
        <ele>1987.4000000000001</ele>
        <time>2020-01-01T14:17:25Z</time>
      </trkpt>
      <trkpt lat="46.47878841497004" lon="9.199572578072548">
        <ele>1986.22</ele>
        <time>2020-01-01T14:17:41Z</time>
      </trkpt>
      <trkpt lat="46.47878497838974" lon="9.199566459283233">
        <ele>1987.71</ele>
        <time>2020-01-01T14:17:44Z</time>
      </trkpt>
      <trkpt lat="46.478717420250177" lon="9.19955070130527">
        <ele>1984.45</ele>
        <time>2020-01-01T14:17:52Z</time>
      </trkpt>
      <trkpt lat="46.478613233193755" lon="9.199527148157358">
        <ele>1981.3099999999999</ele>
        <time>2020-01-01T14:18:03Z</time>
      </trkpt>
      <trkpt lat="46.478501670062542" lon="9.19949647039175">
        <ele>1978.0599999999999</ele>
        <time>2020-01-01T14:18:14Z</time>
      </trkpt>
      <trkpt lat="46.478470070287585" lon="9.199486579746008">
        <ele>1976.8099999999999</ele>
        <time>2020-01-01T14:18:17Z</time>
      </trkpt>
      <trkpt lat="46.478419946506619" lon="9.199476186186075">
        <ele>1975.1600000000001</ele>
        <time>2020-01-01T14:18:22Z</time>
      </trkpt>
      <trkpt lat="46.478271503001451" lon="9.199437713250518">
        <ele>1971.8800000000001</ele>
        <time>2020-01-01T14:18:36Z</time>
      </trkpt>
      <trkpt lat="46.478110402822495" lon="9.199336292222142">
        <ele>1968.78</ele>
        <time>2020-01-01T14:18:51Z</time>
      </trkpt>
      <trkpt lat="46.477938322350383" lon="9.199237888678908">
        <ele>1965.74</ele>
        <time>2020-01-01T14:19:07Z</time>
      </trkpt>
      <trkpt lat="46.477851150557399" lon="9.199213748797774">
        <ele>1963.1300000000001</ele>
        <time>2020-01-01T14:19:15Z</time>
      </trkpt>
      <trkpt lat="46.477733803912997" lon="9.199185334146023">
        <ele>1959.77</ele>
        <time>2020-01-01T14:19:29Z</time>
      </trkpt>
      <trkpt lat="46.477718884125352" lon="9.199184076860547">
        <ele>1959.1500000000001</ele>
        <time>2020-01-01T14:19:31Z</time>
      </trkpt>
      <trkpt lat="46.47756977006793" lon="9.199229758232832">
        <ele>1955.8499999999999</ele>
        <time>2020-01-01T14:19:47Z</time>
      </trkpt>
      <trkpt lat="46.477491734549403" lon="9.199257837608457">
        <ele>1952.6500000000001</ele>
        <time>2020-01-01T14:19:56Z</time>
      </trkpt>
      <trkpt lat="46.477389894425869" lon="9.199236128479242">
        <ele>1950.28</ele>
        <time>2020-01-01T14:20:11Z</time>
      </trkpt>
      <trkpt lat="46.477361060678959" lon="9.199226992204785">
        <ele>1949.8599999999999</ele>
        <time>2020-01-01T14:20:14Z</time>
      </trkpt>
      <trkpt lat="46.477208090946078" lon="9.199159936979413">
        <ele>1946.53</ele>
        <time>2020-01-01T14:20:29Z</time>
      </trkpt>
      <trkpt lat="46.477173222228885" lon="9.19913244433701">
        <ele>1945.5699999999999</ele>
        <time>2020-01-01T14:20:33Z</time>
      </trkpt>
      <trkpt lat="46.477047326043248" lon="9.199117608368397">
        <ele>1942.03</ele>
        <time>2020-01-01T14:20:46Z</time>
      </trkpt>
      <trkpt lat="46.47694674320519" lon="9.199084751307964">
        <ele>1938.8099999999999</ele>
        <time>2020-01-01T14:20:58Z</time>
      </trkpt>
      <trkpt lat="46.476869462057948" lon="9.199050972238183">
        <ele>1935.5899999999999</ele>
        <time>2020-01-01T14:21:09Z</time>
      </trkpt>
      <trkpt lat="46.476784469559789" lon="9.19904544018209">
        <ele>1932.4300000000001</ele>
        <time>2020-01-01T14:21:20Z</time>
      </trkpt>
      <trkpt lat="46.476715737953782" lon="9.199040494859219">
        <ele>1929.3199999999999</ele>
        <time>2020-01-01T14:21:30Z</time>
      </trkpt>
      <trkpt lat="46.476665614172816" lon="9.199038902297616">
        <ele>1926.8900000000001</ele>
        <time>2020-01-01T14:21:36Z</time>
      </trkpt>
      <trkpt lat="46.476595541462302" lon="9.199034962803125">
        <ele>1923.8299999999999</ele>
        <time>2020-01-01T14:21:45Z</time>
      </trkpt>
      <trkpt lat="46.476530330255628" lon="9.199018366634846">
        <ele>1920.8099999999999</ele>
        <time>2020-01-01T14:21:54Z</time>
      </trkpt>
      <trkpt lat="46.476395800709724" lon="9.198992382735014">
        <ele>1917.77</ele>
        <time>2020-01-01T14:22:10Z</time>
      </trkpt>
      <trkpt lat="46.476412061601877" lon="9.198977379128337">
        <ele>1918.05</ele>
        <time>2020-01-01T14:22:33Z</time>
      </trkpt>
      <trkpt lat="46.476416923105717" lon="9.198995986953378">
        <ele>1918.01</ele>
        <time>2020-01-01T14:23:13Z</time>
      </trkpt>
      <trkpt lat="46.476356573402882" lon="9.19898584485054">
        <ele>1917.05</ele>
        <time>2020-01-01T14:23:26Z</time>
      </trkpt>
      <trkpt lat="46.476234616711736" lon="9.199004033580422">
        <ele>1913.8900000000001</ele>
        <time>2020-01-01T14:23:40Z</time>
      </trkpt>
      <trkpt lat="46.476161191239953" lon="9.198980396613479">
        <ele>1911.71</ele>
        <time>2020-01-01T14:23:48Z</time>
      </trkpt>
      <trkpt lat="46.476007467135787" lon="9.198970505967736">
        <ele>1908.4100000000001</ele>
        <time>2020-01-01T14:24:04Z</time>
      </trkpt>
      <trkpt lat="46.475955415517092" lon="9.198963129892945">
        <ele>1907.4400000000001</ele>
        <time>2020-01-01T14:24:09Z</time>
      </trkpt>
      <trkpt lat="46.475805127993226" lon="9.198866235092282">
        <ele>1904.3699999999999</ele>
        <time>2020-01-01T14:24:26Z</time>
      </trkpt>
      <trkpt lat="46.47567487321794" lon="9.198801862075925">
        <ele>1901.2</ele>
        <time>2020-01-01T14:24:41Z</time>
      </trkpt>
      <trkpt lat="46.475592814385891" lon="9.198788618668914">
        <ele>1898.01</ele>
        <time>2020-01-01T14:24:52Z</time>
      </trkpt>
      <trkpt lat="46.475588120520115" lon="9.198752241209149">
        <ele>1896.8699999999999</ele>
        <time>2020-01-01T14:25:08Z</time>
      </trkpt>
      <trkpt lat="46.475682333111763" lon="9.198711337521672">
        <ele>1900.04</ele>
        <time>2020-01-01T14:25:22Z</time>
      </trkpt>
      <trkpt lat="46.475786352530122" lon="9.198624920099974">
        <ele>1902.8199999999999</ele>
        <time>2020-01-01T14:25:40Z</time>
      </trkpt>
      <trkpt lat="46.475864220410585" lon="9.198637157678604">
        <ele>1905.9300000000001</ele>
        <time>2020-01-01T14:25:56Z</time>
      </trkpt>
      <trkpt lat="46.475929263979197" lon="9.198659369722009">
        <ele>1908.4200000000001</ele>
        <time>2020-01-01T14:26:12Z</time>
      </trkpt>
      <trkpt lat="46.475986931473017" lon="9.198641432449222">
        <ele>1910.23</ele>
        <time>2020-01-01T14:26:27Z</time>
      </trkpt>
      <trkpt lat="46.476129507645965" lon="9.198642689734697">
        <ele>1912.28</ele>
        <time>2020-01-01T14:26:45Z</time>
      </trkpt>
      <trkpt lat="46.476201843470335" lon="9.19864134863019">
        <ele>1912.3199999999999</ele>
        <time>2020-01-01T14:26:53Z</time>
      </trkpt>
      <trkpt lat="46.476375432685018" lon="9.198603378608823">
        <ele>1912.98</ele>
        <time>2020-01-01T14:27:12Z</time>
      </trkpt>
      <trkpt lat="46.47640535607934" lon="9.198581166565418">
        <ele>1912.8800000000001</ele>
        <time>2020-01-01T14:27:16Z</time>
      </trkpt>
      <trkpt lat="46.476604761555791" lon="9.198460718616843">
        <ele>1911.8699999999999</ele>
        <time>2020-01-01T14:27:39Z</time>
      </trkpt>
      <trkpt lat="46.476621693000197" lon="9.198454767465591">
        <ele>1911.26</ele>
        <time>2020-01-01T14:27:53Z</time>
      </trkpt>
      <trkpt lat="46.476634098216891" lon="9.198450408875942">
        <ele>1910.99</ele>
        <time>2020-01-01T14:27:59Z</time>
      </trkpt>
      <trkpt lat="46.476653292775154" lon="9.198387376964092">
        <ele>1908.95</ele>
        <time>2020-01-01T14:28:06Z</time>
      </trkpt>
      <trkpt lat="46.476639965549111" lon="9.198283776640892">
        <ele>1906.4100000000001</ele>
        <time>2020-01-01T14:28:14Z</time>
      </trkpt>
      <trkpt lat="46.476574083790183" lon="9.198127705603838">
        <ele>1902.8399999999999</ele>
        <time>2020-01-01T14:28:27Z</time>
      </trkpt>
      <trkpt lat="46.476539131253958" lon="9.198090238496661">
        <ele>1901.02</ele>
        <time>2020-01-01T14:28:46Z</time>
      </trkpt>
      <trkpt lat="46.476524798199534" lon="9.19810482300818">
        <ele>1901.1600000000001</ele>
        <time>2020-01-01T14:29:14Z</time>
      </trkpt>
      <trkpt lat="46.476496215909719" lon="9.198084622621536">
        <ele>1900.0899999999999</ele>
        <time>2020-01-01T14:29:38Z</time>
      </trkpt>
      <trkpt lat="46.476432681083679" lon="9.198052939027548">
        <ele>1896.98</ele>
        <time>2020-01-01T14:29:48Z</time>
      </trkpt>
      <trkpt lat="46.476375600323081" lon="9.198011364787817">
        <ele>1893.95</ele>
        <time>2020-01-01T14:29:58Z</time>
      </trkpt>
      <trkpt lat="46.476324470713735" lon="9.197989404201508">
        <ele>1890.8900000000001</ele>
        <time>2020-01-01T14:30:14Z</time>
      </trkpt>
      <trkpt lat="46.476311227306724" lon="9.197963168844581">
        <ele>1889.6199999999999</ele>
        <time>2020-01-01T14:30:32Z</time>
      </trkpt>
      <trkpt lat="46.476259008049965" lon="9.197915056720376">
        <ele>1886.6199999999999</ele>
        <time>2020-01-01T14:30:50Z</time>
      </trkpt>
      <trkpt lat="46.476218272000551" lon="9.197879517450929">
        <ele>1884.22</ele>
        <time>2020-01-01T14:30:57Z</time>
      </trkpt>
      <trkpt lat="46.476189354434609" lon="9.197863591834903">
        <ele>1882.27</ele>
        <time>2020-01-01T14:31:01Z</time>
      </trkpt>
      <trkpt lat="46.476129172369838" lon="9.197811288759112">
        <ele>1879.3599999999999</ele>
        <time>2020-01-01T14:31:08Z</time>
      </trkpt>
      <trkpt lat="46.476111989468336" lon="9.197802068665624">
        <ele>1878.8</ele>
        <time>2020-01-01T14:31:10Z</time>
      </trkpt>
      <trkpt lat="46.476000007241964" lon="9.197768121957779">
        <ele>1875.3900000000001</ele>
        <time>2020-01-01T14:31:23Z</time>
      </trkpt>
      <trkpt lat="46.475912248715758" lon="9.197745490819216">
        <ele>1873.48</ele>
        <time>2020-01-01T14:31:33Z</time>
      </trkpt>
      <trkpt lat="46.475833291187882" lon="9.197553377598524">
        <ele>1870.28</ele>
        <time>2020-01-01T14:31:50Z</time>
      </trkpt>
      <trkpt lat="46.475751735270023" lon="9.197324635460973">
        <ele>1867.6099999999999</ele>
        <time>2020-01-01T14:32:09Z</time>
      </trkpt>
      <trkpt lat="46.475744694471359" lon="9.197255568578839">
        <ele>1867.7</ele>
        <time>2020-01-01T14:32:14Z</time>
      </trkpt>
      <trkpt lat="46.475671352818608" lon="9.197079380974174">
        <ele>1864.1500000000001</ele>
        <time>2020-01-01T14:32:31Z</time>
      </trkpt>
      <trkpt lat="46.475639836862683" lon="9.196969494223595">
        <ele>1860.8599999999999</ele>
        <time>2020-01-01T14:32:41Z</time>
      </trkpt>
      <trkpt lat="46.475623911246657" lon="9.196882657706738">
        <ele>1860.8499999999999</ele>
        <time>2020-01-01T14:32:56Z</time>
      </trkpt>
      <trkpt lat="46.475603459402919" lon="9.196816943585873">
        <ele>1861.5999999999999</ele>
        <time>2020-01-01T14:33:16Z</time>
      </trkpt>
      <trkpt lat="46.475574877113104" lon="9.196727424860001">
        <ele>1861</ele>
        <time>2020-01-01T14:33:25Z</time>
      </trkpt>
      <trkpt lat="46.475563310086727" lon="9.196685431525111">
        <ele>1860.53</ele>
        <time>2020-01-01T14:33:28Z</time>
      </trkpt>
      <trkpt lat="46.475494159385562" lon="9.196441853418946">
        <ele>1859.75</ele>
        <time>2020-01-01T14:33:45Z</time>
      </trkpt>
      <trkpt lat="46.475488543510437" lon="9.196429029107094">
        <ele>1859.5899999999999</ele>
        <time>2020-01-01T14:33:46Z</time>
      </trkpt>
      <trkpt lat="46.475459625944495" lon="9.196368595585227">
        <ele>1859.6400000000001</ele>
        <time>2020-01-01T14:34:00Z</time>
      </trkpt>
      <trkpt lat="46.475442107766867" lon="9.196360129863024">
        <ele>1859.48</ele>
        <time>2020-01-01T14:34:25Z</time>
      </trkpt>
      <trkpt lat="46.475415369495749" lon="9.196380078792572">
        <ele>1859.0799999999999</ele>
        <time>2020-01-01T14:34:29Z</time>
      </trkpt>
      <trkpt lat="46.475360887125134" lon="9.196422910317779">
        <ele>1860.4200000000001</ele>
        <time>2020-01-01T14:34:36Z</time>
      </trkpt>
      <trkpt lat="46.475156871601939" lon="9.196483427658677">
        <ele>1861.29</ele>
        <time>2020-01-01T14:34:57Z</time>
      </trkpt>
      <trkpt lat="46.474962662905455" lon="9.196452414616942">
        <ele>1858.7</ele>
        <time>2020-01-01T14:35:17Z</time>
      </trkpt>
      <trkpt lat="46.474789157509804" lon="9.19641419313848">
        <ele>1855.46</ele>
        <time>2020-01-01T14:35:36Z</time>
      </trkpt>
      <trkpt lat="46.474757641553879" lon="9.196418970823288">
        <ele>1855.8099999999999</ele>
        <time>2020-01-01T14:36:07Z</time>
      </trkpt>
      <trkpt lat="46.474602073431015" lon="9.196390472352505">
        <ele>1853.49</ele>
        <time>2020-01-01T14:36:26Z</time>
      </trkpt>
      <trkpt lat="46.474402248859406" lon="9.196394328027964">
        <ele>1850.95</ele>
        <time>2020-01-01T14:36:48Z</time>
      </trkpt>
      <trkpt lat="46.474235700443387" lon="9.196396926417947">
        <ele>1847.9100000000001</ele>
        <time>2020-01-01T14:37:06Z</time>
      </trkpt>
      <trkpt lat="46.474073342978954" lon="9.196388628333807">
        <ele>1846</ele>
        <time>2020-01-01T14:37:25Z</time>
      </trkpt>
      <trkpt lat="46.473909476771951" lon="9.196377228945494">
        <ele>1843.8</ele>
        <time>2020-01-01T14:37:44Z</time>
      </trkpt>
      <trkpt lat="46.473759021610022" lon="9.196393238380551">
        <ele>1842.3699999999999</ele>
        <time>2020-01-01T14:38:01Z</time>
      </trkpt>
      <trkpt lat="46.473588701337576" lon="9.196379324421287">
        <ele>1839.8599999999999</ele>
        <time>2020-01-01T14:38:20Z</time>
      </trkpt>
      <trkpt lat="46.473438497632742" lon="9.196372032165527">
        <ele>1837.8</ele>
        <time>2020-01-01T14:38:38Z</time>
      </trkpt>
      <trkpt lat="46.473309248685837" lon="9.196335738524795">
        <ele>1835.9300000000001</ele>
        <time>2020-01-01T14:38:54Z</time>
      </trkpt>
      <trkpt lat="46.473161559551954" lon="9.196321992203593">
        <ele>1833.1400000000001</ele>
        <time>2020-01-01T14:39:11Z</time>
      </trkpt>
      <trkpt lat="46.473003393039107" lon="9.196270611137152">
        <ele>1831.1700000000001</ele>
        <time>2020-01-01T14:39:29Z</time>
      </trkpt>
      <trkpt lat="46.472820416092873" lon="9.196249824017286">
        <ele>1829.0899999999999</ele>
        <time>2020-01-01T14:39:49Z</time>
      </trkpt>
      <trkpt lat="46.472661159932613" lon="9.196247896179557">
        <ele>1827.28</ele>
        <time>2020-01-01T14:40:07Z</time>
      </trkpt>
      <trkpt lat="46.472521517425776" lon="9.196322914212942">
        <ele>1826.5799999999999</ele>
        <time>2020-01-01T14:40:25Z</time>
      </trkpt>
      <trkpt lat="46.472395621240139" lon="9.196384437382221">
        <ele>1826.5699999999999</ele>
        <time>2020-01-01T14:40:43Z</time>
      </trkpt>
      <trkpt lat="46.472267545759678" lon="9.196314616128802">
        <ele>1824.3299999999999</ele>
        <time>2020-01-01T14:41:00Z</time>
      </trkpt>
      <trkpt lat="46.472153132781386" lon="9.196247979998589">
        <ele>1822.27</ele>
        <time>2020-01-01T14:41:18Z</time>
      </trkpt>
      <trkpt lat="46.472037211060524" lon="9.196185115724802">
        <ele>1820.52</ele>
        <time>2020-01-01T14:41:33Z</time>
      </trkpt>
      <trkpt lat="46.472004102542996" lon="9.196159299463034">
        <ele>1820.1400000000001</ele>
        <time>2020-01-01T14:41:47Z</time>
      </trkpt>
      <trkpt lat="46.471951464191079" lon="9.196114456281066">
        <ele>1818.6400000000001</ele>
        <time>2020-01-01T14:42:09Z</time>
      </trkpt>
      <trkpt lat="46.471813581883907" lon="9.196014543995261">
        <ele>1815.8599999999999</ele>
        <time>2020-01-01T14:42:27Z</time>
      </trkpt>
      <trkpt lat="46.471740156412125" lon="9.195972718298435">
        <ele>1812.5899999999999</ele>
        <time>2020-01-01T14:42:40Z</time>
      </trkpt>
      <trkpt lat="46.471641333773732" lon="9.19592309743166">
        <ele>1809.47</ele>
        <time>2020-01-01T14:42:57Z</time>
      </trkpt>
      <trkpt lat="46.471533207222819" lon="9.195897951722145">
        <ele>1806.4100000000001</ele>
        <time>2020-01-01T14:43:12Z</time>
      </trkpt>
      <trkpt lat="46.47140328772366" lon="9.195868531242013">
        <ele>1804.03</ele>
        <time>2020-01-01T14:43:29Z</time>
      </trkpt>
      <trkpt lat="46.471333215013146" lon="9.195881355553865">
        <ele>1802.46</ele>
        <time>2020-01-01T14:43:43Z</time>
      </trkpt>
      <trkpt lat="46.471317373216152" lon="9.195883953943849">
        <ele>1802.22</ele>
        <time>2020-01-01T14:43:46Z</time>
      </trkpt>
      <trkpt lat="46.471186950802803" lon="9.195844223722816">
        <ele>1799.8199999999999</ele>
        <time>2020-01-01T14:44:03Z</time>
      </trkpt>
      <trkpt lat="46.471065077930689" lon="9.195861658081412">
        <ele>1796.9300000000001</ele>
        <time>2020-01-01T14:44:20Z</time>
      </trkpt>
      <trkpt lat="46.471019145101309" lon="9.195927120745182">
        <ele>1796.53</ele>
        <time>2020-01-01T14:44:39Z</time>
      </trkpt>
      <trkpt lat="46.470868270844221" lon="9.19601789675653">
        <ele>1796.5799999999999</ele>
        <time>2020-01-01T14:44:58Z</time>
      </trkpt>
      <trkpt lat="46.470705075189471" lon="9.195985542610288">
        <ele>1793.72</ele>
        <time>2020-01-01T14:45:17Z</time>
      </trkpt>
      <trkpt lat="46.470608599483967" lon="9.195975987240672">
        <ele>1791.77</ele>
        <time>2020-01-01T14:45:35Z</time>
      </trkpt>
      <trkpt lat="46.470561660826206" lon="9.196016890928149">
        <ele>1792.0899999999999</ele>
        <time>2020-01-01T14:45:57Z</time>
      </trkpt>
      <trkpt lat="46.470478512346745" lon="9.196039186790586">
        <ele>1790.97</ele>
        <time>2020-01-01T14:46:13Z</time>
      </trkpt>
      <trkpt lat="46.470347251743078" lon="9.196093752980232">
        <ele>1789.24</ele>
        <time>2020-01-01T14:46:31Z</time>
      </trkpt>
      <trkpt lat="46.470316657796502" lon="9.196088975295425">
        <ele>1788.8499999999999</ele>
        <time>2020-01-01T14:46:48Z</time>
      </trkpt>
      <trkpt lat="46.470230408012867" lon="9.196102973073721">
        <ele>1786.8499999999999</ele>
        <time>2020-01-01T14:47:03Z</time>
      </trkpt>
      <trkpt lat="46.470241891220212" lon="9.196027535945177">
        <ele>1784.95</ele>
        <time>2020-01-01T14:47:18Z</time>
      </trkpt>
      <trkpt lat="46.470176260918379" lon="9.196030050516129">
        <ele>1783.05</ele>
        <time>2020-01-01T14:47:34Z</time>
      </trkpt>
      <trkpt lat="46.470123371109366" lon="9.195992751047015">
        <ele>1780.3199999999999</ele>
        <time>2020-01-01T14:47:53Z</time>
      </trkpt>
      <trkpt lat="46.470120018348098" lon="9.195960396900773">
        <ele>1778.28</ele>
        <time>2020-01-01T14:48:12Z</time>
      </trkpt>
      <trkpt lat="46.470151031389832" lon="9.19589820317924">
        <ele>1777.1800000000001</ele>
        <time>2020-01-01T14:48:31Z</time>
      </trkpt>
      <trkpt lat="46.470172069966793" lon="9.195838021114469">
        <ele>1775.8699999999999</ele>
        <time>2020-01-01T14:48:48Z</time>
      </trkpt>
      <trkpt lat="46.470186654478312" lon="9.19580390676856">
        <ele>1774.8599999999999</ele>
        <time>2020-01-01T14:49:08Z</time>
      </trkpt>
      <trkpt lat="46.470185900107026" lon="9.19581170193851">
        <ele>1774.72</ele>
        <time>2020-01-01T14:49:32Z</time>
      </trkpt>
      <trkpt lat="46.470170225948095" lon="9.195839362218976">
        <ele>1775.0999999999999</ele>
        <time>2020-01-01T14:50:05Z</time>
      </trkpt>
      <trkpt lat="46.470175590366125" lon="9.195850845426321">
        <ele>1775.3199999999999</ele>
        <time>2020-01-01T14:50:29Z</time>
      </trkpt>
      <trkpt lat="46.470211716368794" lon="9.195800554007292">
        <ele>1773.99</ele>
        <time>2020-01-01T14:50:51Z</time>
      </trkpt>
      <trkpt lat="46.470283214002848" lon="9.19569686986506">
        <ele>1771.78</ele>
        <time>2020-01-01T14:51:08Z</time>
      </trkpt>
      <trkpt lat="46.470331577584147" lon="9.195581031963229">
        <ele>1768.76</ele>
        <time>2020-01-01T14:51:24Z</time>
      </trkpt>
      <trkpt lat="46.470379941165447" lon="9.195474665611982">
        <ele>1766.0699999999999</ele>
        <time>2020-01-01T14:51:39Z</time>
      </trkpt>
      <trkpt lat="46.470345156267285" lon="9.195377770811319">
        <ele>1762.99</ele>
        <time>2020-01-01T14:51:57Z</time>
      </trkpt>
      <trkpt lat="46.470306180417538" lon="9.195310464128852">
        <ele>1759.98</ele>
        <time>2020-01-01T14:52:09Z</time>
      </trkpt>
      <trkpt lat="46.4703185018152" lon="9.19525220990181">
        <ele>1758.3800000000001</ele>
        <time>2020-01-01T14:52:25Z</time>
      </trkpt>
      <trkpt lat="46.470307018607855" lon="9.195224298164249">
        <ele>1758.1500000000001</ele>
        <time>2020-01-01T14:52:47Z</time>
      </trkpt>
      <trkpt lat="46.470316154882312" lon="9.195153638720512">
        <ele>1755.04</ele>
        <time>2020-01-01T14:53:08Z</time>
      </trkpt>
      <trkpt lat="46.470322189852595" lon="9.195073759183288">
        <ele>1752.1199999999999</ele>
        <time>2020-01-01T14:53:25Z</time>
      </trkpt>
      <trkpt lat="46.470294445753098" lon="9.195088259875774">
        <ele>1748.8900000000001</ele>
        <time>2020-01-01T14:53:45Z</time>
      </trkpt>
      <trkpt lat="46.470121359452605" lon="9.195079877972603">
        <ele>1745.7</ele>
        <time>2020-01-01T14:54:03Z</time>
      </trkpt>
      <trkpt lat="46.470025554299355" lon="9.195059258490801">
        <ele>1742.5599999999999</ele>
        <time>2020-01-01T14:54:17Z</time>
      </trkpt>
      <trkpt lat="46.469906279817224" lon="9.195024641230702">
        <ele>1739.52</ele>
        <time>2020-01-01T14:54:35Z</time>
      </trkpt>
      <trkpt lat="46.469839224591851" lon="9.194979881867766">
        <ele>1737.6800000000001</ele>
        <time>2020-01-01T14:54:51Z</time>
      </trkpt>
      <trkpt lat="46.469769570976496" lon="9.194975690916181">
        <ele>1735.1800000000001</ele>
        <time>2020-01-01T14:55:10Z</time>
      </trkpt>
      <trkpt lat="46.469754315912724" lon="9.194945180788636">
        <ele>1734.24</ele>
        <time>2020-01-01T14:55:37Z</time>
      </trkpt>
      <trkpt lat="46.46978197619319" lon="9.194916849955916">
        <ele>1734.3099999999999</ele>
        <time>2020-01-01T14:56:08Z</time>
      </trkpt>
      <trkpt lat="46.469800332561135" lon="9.194973176345229">
        <ele>1734.1400000000001</ele>
        <time>2020-01-01T14:56:39Z</time>
      </trkpt>
      <trkpt lat="46.469792872667313" lon="9.19495808891952">
        <ele>1735.3599999999999</ele>
        <time>2020-01-01T14:57:02Z</time>
      </trkpt>
      <trkpt lat="46.469816593453288" lon="9.194956663995981">
        <ele>1735.2</ele>
        <time>2020-01-01T14:57:24Z</time>
      </trkpt>
      <trkpt lat="46.469727074727416" lon="9.194887680932879">
        <ele>1733.04</ele>
        <time>2020-01-01T14:57:44Z</time>
      </trkpt>
      <trkpt lat="46.469643758609891" lon="9.194808220490813">
        <ele>1730.04</ele>
        <time>2020-01-01T14:58:04Z</time>
      </trkpt>
      <trkpt lat="46.46956262178719" lon="9.19472741894424">
        <ele>1727.02</ele>
        <time>2020-01-01T14:58:23Z</time>
      </trkpt>
      <trkpt lat="46.469442928209901" lon="9.19464536011219">
        <ele>1724.73</ele>
        <time>2020-01-01T14:58:42Z</time>
      </trkpt>
      <trkpt lat="46.469348799437284" lon="9.194564139470458">
        <ele>1722.0599999999999</ele>
        <time>2020-01-01T14:58:58Z</time>
      </trkpt>
      <trkpt lat="46.469299178570509" lon="9.194467579945922">
        <ele>1719.0899999999999</ele>
        <time>2020-01-01T14:59:14Z</time>
      </trkpt>
      <trkpt lat="46.469264645129442" lon="9.194404128938913">
        <ele>1717.4000000000001</ele>
        <time>2020-01-01T14:59:37Z</time>
      </trkpt>
      <trkpt lat="46.469161296263337" lon="9.194348556920886">
        <ele>1715.51</ele>
        <time>2020-01-01T14:59:54Z</time>
      </trkpt>
      <trkpt lat="46.469033723697066" lon="9.19430136680603">
        <ele>1712.4000000000001</ele>
        <time>2020-01-01T15:00:10Z</time>
      </trkpt>
      <trkpt lat="46.468915035948157" lon="9.194283345714212">
        <ele>1709.72</ele>
        <time>2020-01-01T15:00:29Z</time>
      </trkpt>
      <trkpt lat="46.46882526576519" lon="9.194175386801362">
        <ele>1707.1199999999999</ele>
        <time>2020-01-01T15:00:46Z</time>
      </trkpt>
      <trkpt lat="46.468751672655344" lon="9.194072037935257">
        <ele>1705.73</ele>
        <time>2020-01-01T15:01:05Z</time>
      </trkpt>
      <trkpt lat="46.468709595501423" lon="9.194011520594358">
        <ele>1705.04</ele>
        <time>2020-01-01T15:01:11Z</time>
      </trkpt>
      <trkpt lat="46.468601552769542" lon="9.193896353244782">
        <ele>1704.1700000000001</ele>
        <time>2020-01-01T15:01:29Z</time>
      </trkpt>
      <trkpt lat="46.468537766486406" lon="9.193777833133936">
        <ele>1703.98</ele>
        <time>2020-01-01T15:01:44Z</time>
      </trkpt>
      <trkpt lat="46.468380438163877" lon="9.193605082109571">
        <ele>1703.0799999999999</ele>
        <time>2020-01-01T15:02:04Z</time>
      </trkpt>
      <trkpt lat="46.468201735988259" lon="9.193580020219088">
        <ele>1700.3499999999999</ele>
        <time>2020-01-01T15:02:23Z</time>
      </trkpt>
      <trkpt lat="46.468036277219653" lon="9.193468624725938">
        <ele>1698.6199999999999</ele>
        <time>2020-01-01T15:02:40Z</time>
      </trkpt>
      <trkpt lat="46.467928066849709" lon="9.193401820957661">
        <ele>1695.5999999999999</ele>
        <time>2020-01-01T15:02:54Z</time>
      </trkpt>
      <trkpt lat="46.467808960005641" lon="9.193313056603074">
        <ele>1693.0899999999999</ele>
        <time>2020-01-01T15:03:12Z</time>
      </trkpt>
      <trkpt lat="46.467702006921172" lon="9.1933324187994">
        <ele>1689.8499999999999</ele>
        <time>2020-01-01T15:03:27Z</time>
      </trkpt>
      <trkpt lat="46.467549623921514" lon="9.193280702456832">
        <ele>1688.98</ele>
        <time>2020-01-01T15:03:46Z</time>
      </trkpt>
      <trkpt lat="46.467513833194971" lon="9.193275924772024">
        <ele>1688.8900000000001</ele>
        <time>2020-01-01T15:03:50Z</time>
      </trkpt>
      <trkpt lat="46.467389697209001" lon="9.193318337202072">
        <ele>1687.05</ele>
        <time>2020-01-01T15:04:07Z</time>
      </trkpt>
      <trkpt lat="46.467264723032713" lon="9.19335194863379">
        <ele>1684.48</ele>
        <time>2020-01-01T15:04:22Z</time>
      </trkpt>
      <trkpt lat="46.467142263427377" lon="9.193295035511255">
        <ele>1681.9300000000001</ele>
        <time>2020-01-01T15:04:36Z</time>
      </trkpt>
      <trkpt lat="46.467025503516197" lon="9.193318756297231">
        <ele>1680.01</ele>
        <time>2020-01-01T15:04:52Z</time>
      </trkpt>
      <trkpt lat="46.466929530724883" lon="9.193321019411087">
        <ele>1678.8499999999999</ele>
        <time>2020-01-01T15:05:02Z</time>
      </trkpt>
      <trkpt lat="46.466782847419381" lon="9.193294532597065">
        <ele>1676.9400000000001</ele>
        <time>2020-01-01T15:05:18Z</time>
      </trkpt>
      <trkpt lat="46.466719815507531" lon="9.193259915336967">
        <ele>1676.6099999999999</ele>
        <time>2020-01-01T15:05:25Z</time>
      </trkpt>
      <trkpt lat="46.466687880456448" lon="9.193267961964011">
        <ele>1676.3499999999999</ele>
        <time>2020-01-01T15:05:28Z</time>
      </trkpt>
      <trkpt lat="46.466647479683161" lon="9.193287072703242">
        <ele>1675.9400000000001</ele>
        <time>2020-01-01T15:05:32Z</time>
      </trkpt>
      <trkpt lat="46.466536922380328" lon="9.193301824852824">
        <ele>1675.05</ele>
        <time>2020-01-01T15:05:46Z</time>
      </trkpt>
      <trkpt lat="46.466393759474158" lon="9.193335184827447">
        <ele>1672.01</ele>
        <time>2020-01-01T15:06:03Z</time>
      </trkpt>
      <trkpt lat="46.466281358152628" lon="9.193328227847815">
        <ele>1669.28</ele>
        <time>2020-01-01T15:06:20Z</time>
      </trkpt>
      <trkpt lat="46.466162586584687" lon="9.193402575328946">
        <ele>1666.22</ele>
        <time>2020-01-01T15:06:38Z</time>
      </trkpt>
      <trkpt lat="46.466064434498549" lon="9.193396624177694">
        <ele>1663.9400000000001</ele>
        <time>2020-01-01T15:06:53Z</time>
      </trkpt>
      <trkpt lat="46.465980615466833" lon="9.19332655146718">
        <ele>1661.9300000000001</ele>
        <time>2020-01-01T15:07:10Z</time>
      </trkpt>
      <trkpt lat="46.465893778949976" lon="9.193262094631791">
        <ele>1659.0999999999999</ele>
        <time>2020-01-01T15:07:26Z</time>
      </trkpt>
      <trkpt lat="46.465903166681528" lon="9.193159835413098">
        <ele>1656.9400000000001</ele>
        <time>2020-01-01T15:07:39Z</time>
      </trkpt>
      <trkpt lat="46.465853881090879" lon="9.19314038939774">
        <ele>1654.6800000000001</ele>
        <time>2020-01-01T15:07:53Z</time>
      </trkpt>
      <trkpt lat="46.465882211923599" lon="9.193094791844487">
        <ele>1653.29</ele>
        <time>2020-01-01T15:08:14Z</time>
      </trkpt>
      <trkpt lat="46.465800069272518" lon="9.193058330565691">
        <ele>1650.48</ele>
        <time>2020-01-01T15:08:27Z</time>
      </trkpt>
      <trkpt lat="46.465768553316593" lon="9.192998148500919">
        <ele>1647.3</ele>
        <time>2020-01-01T15:08:38Z</time>
      </trkpt>
      <trkpt lat="46.465718178078532" lon="9.192904522642493">
        <ele>1644.48</ele>
        <time>2020-01-01T15:08:52Z</time>
      </trkpt>
      <trkpt lat="46.465598233044147" lon="9.192850207909942">
        <ele>1642.1099999999999</ele>
        <time>2020-01-01T15:09:12Z</time>
      </trkpt>
      <trkpt lat="46.46558222360909" lon="9.19285842217505">
        <ele>1642.4200000000001</ele>
        <time>2020-01-01T15:09:32Z</time>
      </trkpt>
      <trkpt lat="46.465522963553667" lon="9.19288775883615">
        <ele>1640.71</ele>
        <time>2020-01-01T15:09:55Z</time>
      </trkpt>
      <trkpt lat="46.465452807024121" lon="9.192836293950677">
        <ele>1637.5699999999999</ele>
        <time>2020-01-01T15:10:07Z</time>
      </trkpt>
      <trkpt lat="46.465375777333975" lon="9.192731771618128">
        <ele>1634.4100000000001</ele>
        <time>2020-01-01T15:10:20Z</time>
      </trkpt>
      <trkpt lat="46.465296149253845" lon="9.192624064162374">
        <ele>1631.1900000000001</ele>
        <time>2020-01-01T15:10:35Z</time>
      </trkpt>
      <trkpt lat="46.465287515893579" lon="9.192620292305946">
        <ele>1630.98</ele>
        <time>2020-01-01T15:10:36Z</time>
      </trkpt>
      <trkpt lat="46.465216688811779" lon="9.192600762471557">
        <ele>1628.9400000000001</ele>
        <time>2020-01-01T15:10:43Z</time>
      </trkpt>
      <trkpt lat="46.465128595009446" lon="9.192696399986744">
        <ele>1625.46</ele>
        <time>2020-01-01T15:10:57Z</time>
      </trkpt>
      <trkpt lat="46.465003620833158" lon="9.192748535424471">
        <ele>1623.74</ele>
        <time>2020-01-01T15:11:12Z</time>
      </trkpt>
      <trkpt lat="46.464918963611126" lon="9.192793043330312">
        <ele>1623.26</ele>
        <time>2020-01-01T15:11:28Z</time>
      </trkpt>
      <trkpt lat="46.464898763224483" lon="9.192775022238493">
        <ele>1622.8199999999999</ele>
        <time>2020-01-01T15:12:10Z</time>
      </trkpt>
      <trkpt lat="46.464873282238841" lon="9.192749792709947">
        <ele>1622.52</ele>
        <time>2020-01-01T15:12:13Z</time>
      </trkpt>
      <trkpt lat="46.464723581448197" lon="9.192599169909954">
        <ele>1621.6300000000001</ele>
        <time>2020-01-01T15:12:31Z</time>
      </trkpt>
      <trkpt lat="46.46459324285388" lon="9.192412756383419">
        <ele>1620.6400000000001</ele>
        <time>2020-01-01T15:12:47Z</time>
      </trkpt>
      <trkpt lat="46.464475393295288" lon="9.192248387262225">
        <ele>1618.6400000000001</ele>
        <time>2020-01-01T15:13:06Z</time>
      </trkpt>
      <trkpt lat="46.464460641145706" lon="9.192241597920656">
        <ele>1618.4100000000001</ele>
        <time>2020-01-01T15:13:08Z</time>
      </trkpt>
      <trkpt lat="46.464411607012153" lon="9.192216536030173">
        <ele>1618.21</ele>
        <time>2020-01-01T15:13:13Z</time>
      </trkpt>
      <trkpt lat="46.464364500716329" lon="9.192214692011476">
        <ele>1618.29</ele>
        <time>2020-01-01T15:13:18Z</time>
      </trkpt>
      <trkpt lat="46.464321753010154" lon="9.19218166731298">
        <ele>1618.1600000000001</ele>
        <time>2020-01-01T15:13:23Z</time>
      </trkpt>
      <trkpt lat="46.464282190427184" lon="9.192170184105635">
        <ele>1618.1199999999999</ele>
        <time>2020-01-01T15:13:26Z</time>
      </trkpt>
      <trkpt lat="46.464160569012165" lon="9.192149480804801">
        <ele>1617.75</ele>
        <time>2020-01-01T15:13:37Z</time>
      </trkpt>
      <trkpt lat="46.464137434959412" lon="9.192153504118323">
        <ele>1617.8099999999999</ele>
        <time>2020-01-01T15:13:39Z</time>
      </trkpt>
      <trkpt lat="46.464090831577778" lon="9.192141769453883">
        <ele>1617.8</ele>
        <time>2020-01-01T15:13:43Z</time>
      </trkpt>
      <trkpt lat="46.464068870991468" lon="9.192124335095286">
        <ele>1617.9400000000001</ele>
        <time>2020-01-01T15:13:57Z</time>
      </trkpt>
    </trkseg>
  </trk>

</gpx>